Darstellungsparameter: Aktuell verwendete Einstellungen:
Skalierung der Graphiken ... ?
xyx+y,   Skalierungsfaktor:      Skalierung: Modus: x, Faktor: 1
Darstellungszeitraum ... ?
Vom - - bis: - -   Zeitraum: 24.02.2014 - 02.03.2014
Min/Max/Avg-Anzeige ... ?
Zeige MMA aktuell
Zeige MMA Monat
Zeige MMA alles
Zeige --A aktuell
Zeige --A Monat
Zeige --A alles
Keine MMA-Anzeige
MMA:
Keine MMA-Graphiken
MMA-Basis: 24.02.2014 - 02.03.2014
Quicknavigation für Darstellung... ?
Tage:      1T, 2T, 3T, 5T -1T -2T -3T -5T +1T +2T +3T +5T
Wochen: 1W, 2W, 3W -1W -2W -3W +1W +2W +3W
Monate: 1M, 3M, 6M -1M -3M -6M +1M +3M +6M
Jahre:    1J, 3J, 5J, 10J -1J -3J -5J -10J +1J +3J +5J +10J
Nutze für die Darstellung ... ?
Originaldaten oder Mittelwerte auf ...
Stundenbasis Tagesbasis Wochenbasis
Monatsbasis Jahresbasis      Datenbasis: Original-Daten
Darstellen als:
Statistik (Auto) Statistik J:M      Darstellung:
Zur Graphik,    zurück zur Übersicht aller Sensoren.
 
Tabellarische Datenbersicht: ?
 
Sensor: Nr:Datum:Temp:Abs-Feuchte:Windchill:Wind:
Aussen-T/F 1 24-02-2014 00:00:00 3.5 C 5.6 g/m*3 3.5 C 4.8 km/h
2 24-02-2014 00:05:00 3.5 C 5.66 g/m*3 3.5 C 4.8 km/h
3 24-02-2014 00:10:00 3.4 C 5.62 g/m*3 3.4 C 3.2 km/h
4 24-02-2014 00:15:00 3.4 C 5.62 g/m*3 3.4 C 1.6 km/h
5 24-02-2014 00:20:00 3.3 C 5.58 g/m*3 3.3 C 1.6 km/h
6 24-02-2014 00:25:00 3.3 C 5.58 g/m*3 3.3 C 3.2 km/h
7 24-02-2014 00:30:00 3.3 C 5.58 g/m*3 3.3 C 3.2 km/h
8 24-02-2014 00:35:00 3.2 C 5.54 g/m*3 3.2 C 3.2 km/h
9 24-02-2014 00:40:00 3.2 C 5.54 g/m*3 3.2 C 3.2 km/h
10 24-02-2014 00:45:00 3.1 C 5.57 g/m*3 3.1 C 3.2 km/h
11 24-02-2014 00:50:00 3.1 C 5.51 g/m*3 3.1 C 4.8 km/h
12 24-02-2014 00:55:00 3.1 C 5.51 g/m*3 3.1 C 3.2 km/h
13 24-02-2014 01:00:00 2.9 C 5.43 g/m*3 2.9 C 4.8 km/h
14 24-02-2014 01:05:00 2.9 C 5.49 g/m*3 2.9 C 4.8 km/h
15 24-02-2014 01:10:00 2.9 C 5.49 g/m*3 2.9 C 3.2 km/h
16 24-02-2014 01:15:00 2.8 C 5.46 g/m*3 2.8 C 3.2 km/h
17 24-02-2014 01:20:00 2.8 C 5.46 g/m*3 2.8 C 3.2 km/h
18 24-02-2014 01:25:00 2.8 C 5.46 g/m*3 2.8 C 3.2 km/h
19 24-02-2014 01:30:00 2.8 C 5.46 g/m*3 1.05 C 6.4 km/h
20 24-02-2014 01:35:00 2.9 C 5.49 g/m*3 1.17 C 6.4 km/h
21 24-02-2014 01:40:00 2.9 C 5.49 g/m*3 2.9 C 4.8 km/h
22 24-02-2014 01:45:00 2.9 C 5.49 g/m*3 2.9 C 3.2 km/h
23 24-02-2014 01:50:00 2.8 C 5.46 g/m*3 2.8 C 3.2 km/h
24 24-02-2014 01:55:00 2.7 C 5.42 g/m*3 2.7 C 3.2 km/h
25 24-02-2014 02:00:00 2.6 C 5.32 g/m*3 2.6 C 1.6 km/h
Sensor: Nr:Datum:Temp:Abs-Feuchte:Windchill:Wind:
Aussen-T/F 26 24-02-2014 02:05:00 2.4 C 5.31 g/m*3 2.4 C 0 km/h
27 24-02-2014 02:10:00 2.3 C 5.27 g/m*3 2.3 C 1.6 km/h
28 24-02-2014 02:15:00 2.2 C 5.24 g/m*3 2.2 C 0 km/h
29 24-02-2014 02:20:00 2.2 C 5.24 g/m*3 2.2 C 0 km/h
30 24-02-2014 02:25:00 2.1 C 5.2 g/m*3 2.1 C 0 km/h
31 24-02-2014 02:30:00 2 C 5.22 g/m*3 2 C 0 km/h
32 24-02-2014 02:35:00 1.9 C 5.19 g/m*3 1.9 C 0 km/h
33 24-02-2014 02:40:00 1.8 C 5.15 g/m*3 1.8 C 0 km/h
34 24-02-2014 02:45:00 1.8 C 5.15 g/m*3 1.8 C 0 km/h
35 24-02-2014 02:50:00 1.7 C 5.12 g/m*3 1.7 C 0 km/h
36 24-02-2014 02:55:00 1.7 C 5.12 g/m*3 1.7 C 0 km/h
37 24-02-2014 03:00:00 1.6 C 5.08 g/m*3 1.6 C 0 km/h
38 24-02-2014 03:05:00 1.6 C 5.08 g/m*3 1.6 C 0 km/h
39 24-02-2014 03:10:00 1.4 C 5.01 g/m*3 1.4 C 0 km/h
40 24-02-2014 03:15:00 1.4 C 5.01 g/m*3 1.4 C 0 km/h
41 24-02-2014 03:20:00 1.4 C 5.01 g/m*3 1.4 C 0 km/h
42 24-02-2014 03:25:00 1.3 C 4.98 g/m*3 1.3 C 0 km/h
43 24-02-2014 03:30:00 1.2 C 4.95 g/m*3 1.2 C 0 km/h
44 24-02-2014 03:35:00 1.2 C 5 g/m*3 1.2 C 0 km/h
45 24-02-2014 03:40:00 1.1 C 4.91 g/m*3 1.1 C 0 km/h
46 24-02-2014 03:45:00 1.1 C 4.96 g/m*3 1.1 C 0 km/h
47 24-02-2014 03:50:00 1.1 C 4.96 g/m*3 1.1 C 0 km/h
48 24-02-2014 03:55:00 1.1 C 4.96 g/m*3 1.1 C 0 km/h
49 24-02-2014 04:00:00 0.9 C 4.9 g/m*3 0.9 C 0 km/h
50 24-02-2014 04:05:00 0.9 C 4.9 g/m*3 0.9 C 0 km/h
Sensor: Nr:Datum:Temp:Abs-Feuchte:Windchill:Wind:
Aussen-T/F 51 24-02-2014 04:10:00 0.8 C 4.86 g/m*3 0.8 C 0 km/h
52 24-02-2014 04:15:00 0.7 C 4.83 g/m*3 0.7 C 0 km/h
53 24-02-2014 04:20:00 0.6 C 4.8 g/m*3 0.6 C 0 km/h
54 24-02-2014 04:25:00 0.6 C 4.8 g/m*3 0.6 C 0 km/h
55 24-02-2014 04:30:00 0.6 C 4.8 g/m*3 0.6 C 0 km/h
56 24-02-2014 04:35:00 0.5 C 4.76 g/m*3 0.5 C 0 km/h
57 24-02-2014 04:40:00 0.5 C 4.76 g/m*3 0.5 C 0 km/h
58 24-02-2014 04:45:00 0.5 C 4.76 g/m*3 0.5 C 0 km/h
59 24-02-2014 04:50:00 0.4 C 4.73 g/m*3 0.4 C 0 km/h
60 24-02-2014 04:55:00 0.4 C 4.73 g/m*3 0.4 C 0 km/h
61 24-02-2014 05:00:00 0.3 C 4.7 g/m*3 0.3 C 0 km/h
62 24-02-2014 05:05:00 0.3 C 4.75 g/m*3 0.3 C 0 km/h
63 24-02-2014 05:10:00 0.3 C 4.75 g/m*3 0.3 C 0 km/h
64 24-02-2014 05:15:00 0.2 C 4.72 g/m*3 0.2 C 0 km/h
65 24-02-2014 05:20:00 0.2 C 4.67 g/m*3 0.2 C 0 km/h
66 24-02-2014 05:25:00 0.2 C 4.67 g/m*3 0.2 C 0 km/h
67 24-02-2014 05:30:00 0.1 C 4.68 g/m*3 0.1 C 0 km/h
68 24-02-2014 05:35:00 0.1 C 4.68 g/m*3 0.1 C 0 km/h
69 24-02-2014 05:40:00 0.1 C 4.68 g/m*3 0.1 C 0 km/h
70 24-02-2014 05:45:00 0.1 C 4.68 g/m*3 0.1 C 0 km/h
71 24-02-2014 05:50:00 0 C 4.65 g/m*3 0 C 0 km/h
72 24-02-2014 05:55:00 0 C 4.65 g/m*3 0 C 0 km/h
73 24-02-2014 06:00:00 -0.1 C 4.62 g/m*3 -0.1 C 0 km/h
74 24-02-2014 06:05:00 -0.1 C 4.62 g/m*3 -0.1 C 1.6 km/h
75 24-02-2014 06:10:00 -0.1 C 4.62 g/m*3 -0.1 C 3.2 km/h
Sensor: Nr:Datum:Temp:Abs-Feuchte:Windchill:Wind:
Aussen-T/F 76 24-02-2014 06:15:00 -0.1 C 4.62 g/m*3 -0.1 C 0 km/h
77 24-02-2014 06:20:00 -0.2 C 4.59 g/m*3 -0.2 C 0 km/h
78 24-02-2014 06:25:00 -0.3 C 4.56 g/m*3 -0.3 C 0 km/h
79 24-02-2014 06:30:00 -0.3 C 4.56 g/m*3 -0.3 C 0 km/h
80 24-02-2014 06:35:00 -0.4 C 4.52 g/m*3 -0.4 C 0 km/h
81 24-02-2014 06:40:00 -0.5 C 4.49 g/m*3 -0.5 C 0 km/h
82 24-02-2014 06:45:00 -0.5 C 4.49 g/m*3 -0.5 C 3.2 km/h
83 24-02-2014 06:50:00 -0.4 C 4.52 g/m*3 -0.4 C 1.6 km/h
84 24-02-2014 06:55:00 -0.5 C 4.49 g/m*3 -0.5 C 0 km/h
85 24-02-2014 07:00:00 -0.6 C 4.46 g/m*3 -0.6 C 0 km/h
86 24-02-2014 07:05:00 -0.6 C 4.46 g/m*3 -0.6 C 0 km/h
87 24-02-2014 07:10:00 -0.6 C 4.46 g/m*3 -0.6 C 0 km/h
88 24-02-2014 07:15:00 -0.6 C 4.46 g/m*3 -0.6 C 0 km/h
89 24-02-2014 07:20:00 -0.6 C 4.46 g/m*3 -0.6 C 0 km/h
90 24-02-2014 07:25:00 -0.6 C 4.46 g/m*3 -0.6 C 1.6 km/h
91 24-02-2014 07:30:00 -0.5 C 4.49 g/m*3 -0.5 C 0 km/h
92 24-02-2014 07:35:00 -0.6 C 4.46 g/m*3 -0.6 C 1.6 km/h
93 24-02-2014 07:40:00 -0.5 C 4.49 g/m*3 -0.5 C 1.6 km/h
94 24-02-2014 07:45:00 -0.5 C 4.49 g/m*3 -0.5 C 0 km/h
95 24-02-2014 07:50:00 -0.5 C 4.49 g/m*3 -0.5 C 0 km/h
96 24-02-2014 07:55:00 -0.5 C 4.49 g/m*3 -0.5 C 0 km/h
97 24-02-2014 08:00:00 -0.4 C 4.52 g/m*3 -2.64 C 6.4 km/h
98 24-02-2014 08:05:00 -0.4 C 4.52 g/m*3 -0.4 C 3.2 km/h
99 24-02-2014 08:10:00 -0.4 C 4.57 g/m*3 -0.4 C 1.6 km/h
100 24-02-2014 08:15:00 -0.1 C 4.67 g/m*3 -2.89 C 8.1 km/h
Sensor: Nr:Datum:Temp:Abs-Feuchte:Windchill:Wind:
Aussen-T/F 101 24-02-2014 08:20:00 0.2 C 4.77 g/m*3 0.2 C 3.2 km/h
102 24-02-2014 08:25:00 0.5 C 4.86 g/m*3 0.5 C 4.8 km/h
103 24-02-2014 08:30:00 0.7 C 4.93 g/m*3 0.7 C 4.8 km/h
104 24-02-2014 08:35:00 1.2 C 5.1 g/m*3 -0.8 C 6.4 km/h
105 24-02-2014 08:40:00 1.5 C 5.26 g/m*3 -0.45 C 6.4 km/h
106 24-02-2014 08:45:00 1.6 C 5.25 g/m*3 1.6 C 0 km/h
107 24-02-2014 08:50:00 1.6 C 5.25 g/m*3 1.6 C 0 km/h
108 24-02-2014 08:55:00 1.7 C 5.28 g/m*3 1.7 C 3.2 km/h
109 24-02-2014 09:00:00 1.8 C 5.32 g/m*3 1.8 C 4.8 km/h
110 24-02-2014 09:05:00 2.2 C 5.46 g/m*3 0.36 C 6.4 km/h
111 24-02-2014 09:10:00 2.4 C 5.54 g/m*3 -0.37 C 9.7 km/h
112 24-02-2014 09:15:00 3.2 C 5.79 g/m*3 -0.1 C 12.9 km/h
113 24-02-2014 09:20:00 4.2 C 5.8 g/m*3 1.43 C 11.3 km/h
114 24-02-2014 09:25:00 4.9 C 5.74 g/m*3 2.99 C 8.1 km/h
115 24-02-2014 09:30:00 5.3 C 5.68 g/m*3 3.46 C 8.1 km/h
116 24-02-2014 09:35:00 5.6 C 5.66 g/m*3 3.81 C 8.1 km/h
117 24-02-2014 09:40:00 5.7 C 5.62 g/m*3 4.4 C 6.4 km/h
118 24-02-2014 09:45:00 6 C 5.66 g/m*3 4.28 C 8.1 km/h
119 24-02-2014 09:50:00 6.1 C 5.63 g/m*3 4.86 C 6.4 km/h
120 24-02-2014 09:55:00 6.1 C 5.7 g/m*3 6.1 C 3.2 km/h
121 24-02-2014 10:00:00 6 C 5.66 g/m*3 6 C 3.2 km/h
122 24-02-2014 10:05:00 5.9 C 5.7 g/m*3 4.63 C 6.4 km/h
123 24-02-2014 10:10:00 5.8 C 5.8 g/m*3 4.52 C 6.4 km/h
124 24-02-2014 10:15:00 5.8 C 5.73 g/m*3 4.05 C 8.1 km/h
125 24-02-2014 10:20:00 6 C 5.73 g/m*3 3.92 C 9.7 km/h
Sensor: Nr:Datum:Temp:Abs-Feuchte:Windchill:Wind:
Aussen-T/F 126 24-02-2014 10:25:00 6.2 C 5.81 g/m*3 4.15 C 9.7 km/h
127 24-02-2014 10:30:00 6.3 C 5.77 g/m*3 4.64 C 8.1 km/h
128 24-02-2014 10:35:00 6.4 C 5.89 g/m*3 6.4 C 3.2 km/h
129 24-02-2014 10:40:00 6.6 C 5.74 g/m*3 4.99 C 8.1 km/h
130 24-02-2014 10:45:00 6.8 C 6.04 g/m*3 6.8 C 4.8 km/h
131 24-02-2014 10:50:00 6.8 C 5.89 g/m*3 4.56 C 11.3 km/h
132 24-02-2014 10:55:00 7.2 C 6.12 g/m*3 5.69 C 8.1 km/h
133 24-02-2014 11:00:00 7.4 C 5.88 g/m*3 6.37 C 6.4 km/h
134 24-02-2014 11:05:00 7.4 C 5.96 g/m*3 7.4 C 4.8 km/h
135 24-02-2014 11:10:00 7.6 C 5.96 g/m*3 6.6 C 6.4 km/h
136 24-02-2014 11:15:00 7.3 C 6.16 g/m*3 7.3 C 1.6 km/h
137 24-02-2014 11:20:00 7.1 C 6.08 g/m*3 7.1 C 4.8 km/h
138 24-02-2014 11:25:00 7.3 C 6.16 g/m*3 7.3 C 3.2 km/h
139 24-02-2014 11:30:00 7.4 C 6.12 g/m*3 7.4 C 4.8 km/h
140 24-02-2014 11:35:00 7.7 C 6.41 g/m*3 7.7 C 3.2 km/h
141 24-02-2014 11:40:00 7.8 C 6.37 g/m*3 7.8 C 4.8 km/h
142 24-02-2014 11:45:00 7.9 C 6.49 g/m*3 6.52 C 8.1 km/h
143 24-02-2014 11:50:00 8.2 C 6.28 g/m*3 6.54 C 9.7 km/h
144 24-02-2014 11:55:00 8.7 C 6.14 g/m*3 6.85 C 11.3 km/h
145 24-02-2014 12:00:00 9.2 C 5.98 g/m*3 8.05 C 8.1 km/h
146 24-02-2014 12:05:00 9.6 C 6.23 g/m*3 8.52 C 8.1 km/h
147 24-02-2014 12:10:00 10 C 6.11 g/m*3 8.68 C 9.7 km/h
148 24-02-2014 12:15:00 10.3 C 6.13 g/m*3 9.72 C 6.4 km/h
149 24-02-2014 12:20:00 10.4 C 6.17 g/m*3 9.83 C 6.4 km/h
150 24-02-2014 12:25:00 10.7 C 6.38 g/m*3 9.81 C 8.1 km/h
Sensor: Nr:Datum:Temp:Abs-Feuchte:Windchill:Wind:
Aussen-T/F 151 24-02-2014 12:30:00 10.6 C 6.54 g/m*3 10.6 C 4.8 km/h
152 24-02-2014 12:35:00 10.6 C 6.15 g/m*3 10.06 C 6.4 km/h
153 24-02-2014 12:40:00 11.1 C 6.45 g/m*3 11.1 C 3.2 km/h
154 24-02-2014 12:45:00 11.5 C 6.3 g/m*3 11.5 C 3.2 km/h
155 24-02-2014 12:50:00 11.9 C 6.88 g/m*3 11.9 C 4.8 km/h
156 24-02-2014 12:55:00 12 C 6.71 g/m*3 12 C 3.2 km/h
157 24-02-2014 13:00:00 12.2 C 7.12 g/m*3 12.2 C 4.8 km/h
158 24-02-2014 13:05:00 12.4 C 6.23 g/m*3 12.4 C 6.4 km/h
159 24-02-2014 13:10:00 12.6 C 5.97 g/m*3 12.6 C 9.7 km/h
160 24-02-2014 13:15:00 12.8 C 6.27 g/m*3 12.8 C 9.7 km/h
161 24-02-2014 13:20:00 13 C 6.35 g/m*3 13 C 8.1 km/h
162 24-02-2014 13:25:00 13.3 C 6.47 g/m*3 13.3 C 4.8 km/h
163 24-02-2014 13:30:00 13.3 C 6.7 g/m*3 13.3 C 8.1 km/h
164 24-02-2014 13:35:00 13.4 C 6.28 g/m*3 13.4 C 6.4 km/h
165 24-02-2014 13:40:00 13.3 C 6.12 g/m*3 13.3 C 12.9 km/h
166 24-02-2014 13:45:00 13.2 C 6.43 g/m*3 13.2 C 9.7 km/h
167 24-02-2014 13:50:00 13.2 C 6.54 g/m*3 13.2 C 6.4 km/h
168 24-02-2014 13:55:00 13.1 C 6.28 g/m*3 13.1 C 6.4 km/h
169 24-02-2014 14:00:00 13.2 C 6.43 g/m*3 13.2 C 12.9 km/h
170 24-02-2014 14:05:00 13.2 C 6.32 g/m*3 13.2 C 8.1 km/h
171 24-02-2014 14:10:00 13.3 C 6.35 g/m*3 13.3 C 8.1 km/h
172 24-02-2014 14:15:00 13.3 C 6.01 g/m*3 13.3 C 4.8 km/h
173 24-02-2014 14:20:00 13.4 C 6.28 g/m*3 13.4 C 9.7 km/h
174 24-02-2014 14:25:00 13.6 C 6.24 g/m*3 13.6 C 6.4 km/h
175 24-02-2014 14:30:00 13.7 C 6.39 g/m*3 13.7 C 6.4 km/h
Sensor: Nr:Datum:Temp:Abs-Feuchte:Windchill:Wind:
Aussen-T/F 176 24-02-2014 14:35:00 13.8 C 6.43 g/m*3 13.8 C 12.9 km/h
177 24-02-2014 14:40:00 13.8 C 6.43 g/m*3 13.8 C 3.2 km/h
178 24-02-2014 14:45:00 13.9 C 6.47 g/m*3 13.9 C 3.2 km/h
179 24-02-2014 14:50:00 14 C 6.39 g/m*3 14 C 8.1 km/h
180 24-02-2014 14:55:00 13.9 C 6.59 g/m*3 13.9 C 4.8 km/h
181 24-02-2014 15:00:00 13.9 C 6.71 g/m*3 13.9 C 4.8 km/h
182 24-02-2014 15:05:00 13.9 C 6.35 g/m*3 13.9 C 8.1 km/h
183 24-02-2014 15:10:00 13.7 C 6.87 g/m*3 13.7 C 1.6 km/h
184 24-02-2014 15:15:00 13.5 C 6.43 g/m*3 13.5 C 4.8 km/h
185 24-02-2014 15:20:00 13.8 C 6.2 g/m*3 13.8 C 9.7 km/h
186 24-02-2014 15:25:00 14 C 5.91 g/m*3 14 C 22.5 km/h
187 24-02-2014 15:30:00 14.1 C 6.07 g/m*3 14.1 C 22.5 km/h
188 24-02-2014 15:35:00 14.2 C 6.35 g/m*3 14.2 C 9.7 km/h
189 24-02-2014 15:40:00 14.3 C 6.63 g/m*3 14.3 C 4.8 km/h
190 24-02-2014 15:45:00 14.3 C 6.39 g/m*3 14.3 C 4.8 km/h
191 24-02-2014 15:50:00 14.2 C 6.35 g/m*3 14.2 C 9.7 km/h
192 24-02-2014 15:55:00 14 C 6.51 g/m*3 14 C 6.4 km/h
193 24-02-2014 16:00:00 13.9 C 6.23 g/m*3 13.9 C 4.8 km/h
194 24-02-2014 16:05:00 13.8 C 6.31 g/m*3 13.8 C 6.4 km/h
195 24-02-2014 16:10:00 13.7 C 6.39 g/m*3 13.7 C 6.4 km/h
196 24-02-2014 16:15:00 13.6 C 6.24 g/m*3 13.6 C 6.4 km/h
197 24-02-2014 16:20:00 13.6 C 6.71 g/m*3 13.6 C 3.2 km/h
198 24-02-2014 16:25:00 13.5 C 6.43 g/m*3 13.5 C 6.4 km/h
199 24-02-2014 16:30:00 13.3 C 6.47 g/m*3 13.3 C 6.4 km/h
200 24-02-2014 16:35:00 13.2 C 6.32 g/m*3 13.2 C 4.8 km/h
Sensor: Nr:Datum:Temp:Abs-Feuchte:Windchill:Wind:
Aussen-T/F 201 24-02-2014 16:40:00 13 C 6.35 g/m*3 13 C 4.8 km/h
202 24-02-2014 16:45:00 12.9 C 6.31 g/m*3 12.9 C 6.4 km/h
203 24-02-2014 16:50:00 12.8 C 6.38 g/m*3 12.8 C 6.4 km/h
204 24-02-2014 16:55:00 12.8 C 6.38 g/m*3 12.8 C 3.2 km/h
205 24-02-2014 17:00:00 12.7 C 6.35 g/m*3 12.7 C 9.7 km/h
206 24-02-2014 17:05:00 12.6 C 6.31 g/m*3 12.6 C 4.8 km/h
207 24-02-2014 17:10:00 12.6 C 6.42 g/m*3 12.6 C 3.2 km/h
208 24-02-2014 17:15:00 12.3 C 6.19 g/m*3 12.3 C 3.2 km/h
209 24-02-2014 17:20:00 12.2 C 6.26 g/m*3 12.2 C 3.2 km/h
210 24-02-2014 17:25:00 12.1 C 6.33 g/m*3 12.1 C 4.8 km/h
211 24-02-2014 17:30:00 11.8 C 6.31 g/m*3 11.8 C 4.8 km/h
212 24-02-2014 17:35:00 11.7 C 6.17 g/m*3 11.7 C 8.1 km/h
213 24-02-2014 17:40:00 11.3 C 6.43 g/m*3 11.3 C 1.6 km/h
214 24-02-2014 17:45:00 11 C 6.61 g/m*3 10.52 C 6.4 km/h
215 24-02-2014 17:50:00 10.3 C 6.61 g/m*3 10.3 C 4.8 km/h
216 24-02-2014 17:55:00 9.7 C 6.55 g/m*3 9.7 C 3.2 km/h
217 24-02-2014 18:00:00 9.2 C 6.52 g/m*3 9.2 C 4.8 km/h
218 24-02-2014 18:05:00 8.8 C 6.53 g/m*3 8.8 C 4.8 km/h
219 24-02-2014 18:10:00 8.6 C 6.44 g/m*3 8.6 C 1.6 km/h
220 24-02-2014 18:15:00 8.3 C 6.41 g/m*3 7.41 C 6.4 km/h
221 24-02-2014 18:20:00 8.1 C 6.41 g/m*3 8.1 C 4.8 km/h
222 24-02-2014 18:25:00 7.8 C 6.37 g/m*3 7.8 C 4.8 km/h
223 24-02-2014 18:30:00 7.7 C 6.41 g/m*3 6.71 C 6.4 km/h
224 24-02-2014 18:35:00 7.4 C 6.28 g/m*3 7.4 C 4.8 km/h
225 24-02-2014 18:40:00 7.3 C 6.32 g/m*3 7.3 C 3.2 km/h
Sensor: Nr:Datum:Temp:Abs-Feuchte:Windchill:Wind:
Aussen-T/F 226 24-02-2014 18:45:00 7.3 C 6.32 g/m*3 7.3 C 4.8 km/h
227 24-02-2014 18:50:00 7.2 C 6.28 g/m*3 7.2 C 4.8 km/h
228 24-02-2014 18:55:00 7.1 C 6.32 g/m*3 7.1 C 4.8 km/h
229 24-02-2014 19:00:00 7 C 6.28 g/m*3 7 C 4.8 km/h
230 24-02-2014 19:05:00 7 C 6.28 g/m*3 7 C 4.8 km/h
231 24-02-2014 19:10:00 6.9 C 6.31 g/m*3 5.79 C 6.4 km/h
232 24-02-2014 19:15:00 6.8 C 6.27 g/m*3 5.67 C 6.4 km/h
233 24-02-2014 19:20:00 6.8 C 6.27 g/m*3 6.8 C 4.8 km/h
234 24-02-2014 19:25:00 6.8 C 6.27 g/m*3 5.67 C 6.4 km/h
235 24-02-2014 19:30:00 6.9 C 6.31 g/m*3 6.9 C 4.8 km/h
236 24-02-2014 19:35:00 6.8 C 6.27 g/m*3 5.22 C 8.1 km/h
237 24-02-2014 19:40:00 6.7 C 6.23 g/m*3 5.56 C 6.4 km/h
238 24-02-2014 19:45:00 6.7 C 6.23 g/m*3 5.56 C 6.4 km/h
239 24-02-2014 19:50:00 6.6 C 6.27 g/m*3 4.99 C 8.1 km/h
240 24-02-2014 19:55:00 6.7 C 6.23 g/m*3 5.56 C 6.4 km/h
241 24-02-2014 20:00:00 6.6 C 6.27 g/m*3 6.6 C 4.8 km/h
242 24-02-2014 20:05:00 6.5 C 6.22 g/m*3 5.33 C 6.4 km/h
243 24-02-2014 20:10:00 6.5 C 6.22 g/m*3 5.33 C 6.4 km/h
244 24-02-2014 20:15:00 6.4 C 6.26 g/m*3 5.21 C 6.4 km/h
245 24-02-2014 20:20:00 6.3 C 6.22 g/m*3 5.1 C 6.4 km/h
246 24-02-2014 20:25:00 6.2 C 6.18 g/m*3 6.2 C 4.8 km/h
247 24-02-2014 20:30:00 6.2 C 6.18 g/m*3 6.2 C 4.8 km/h
248 24-02-2014 20:35:00 6.2 C 6.18 g/m*3 6.2 C 4.8 km/h
249 24-02-2014 20:40:00 6.2 C 6.25 g/m*3 6.2 C 4.8 km/h
250 24-02-2014 20:45:00 6.2 C 6.18 g/m*3 6.2 C 4.8 km/h
Sensor: Nr:Datum:Temp:Abs-Feuchte:Windchill:Wind:
Aussen-T/F 251 24-02-2014 20:50:00 6.2 C 6.18 g/m*3 6.2 C 4.8 km/h
252 24-02-2014 20:55:00 6.2 C 6.18 g/m*3 6.2 C 3.2 km/h
253 24-02-2014 21:00:00 6.1 C 6.14 g/m*3 6.1 C 4.8 km/h
254 24-02-2014 21:05:00 6.1 C 6.14 g/m*3 6.1 C 4.8 km/h
255 24-02-2014 21:10:00 6.1 C 6.14 g/m*3 6.1 C 4.8 km/h
256 24-02-2014 21:15:00 6.1 C 6.14 g/m*3 6.1 C 4.8 km/h
257 24-02-2014 21:20:00 6 C 6.1 g/m*3 6 C 4.8 km/h
258 24-02-2014 21:25:00 6 C 6.1 g/m*3 6 C 1.6 km/h
259 24-02-2014 21:30:00 5.9 C 5.98 g/m*3 5.9 C 1.6 km/h
260 24-02-2014 21:35:00 5.8 C 6.02 g/m*3 5.8 C 0 km/h
261 24-02-2014 21:40:00 5.6 C 6.08 g/m*3 5.6 C 3.2 km/h
262 24-02-2014 21:45:00 5.3 C 5.96 g/m*3 5.3 C 3.2 km/h
263 24-02-2014 21:50:00 5.2 C 5.92 g/m*3 5.2 C 3.2 km/h
264 24-02-2014 21:55:00 5.1 C 5.95 g/m*3 5.1 C 4.8 km/h
265 24-02-2014 22:00:00 5.1 C 6.02 g/m*3 5.1 C 3.2 km/h
266 24-02-2014 22:05:00 5 C 5.98 g/m*3 5 C 0 km/h
267 24-02-2014 22:10:00 5.1 C 6.02 g/m*3 5.1 C 0 km/h
268 24-02-2014 22:15:00 5 C 5.98 g/m*3 5 C 0 km/h
269 24-02-2014 22:20:00 4.9 C 5.94 g/m*3 4.9 C 1.6 km/h
270 24-02-2014 22:25:00 4.9 C 5.94 g/m*3 4.9 C 0 km/h
271 24-02-2014 22:30:00 4.9 C 5.94 g/m*3 4.9 C 1.6 km/h
272 24-02-2014 22:35:00 4.8 C 5.9 g/m*3 4.8 C 0 km/h
273 24-02-2014 22:40:00 4.8 C 5.9 g/m*3 4.8 C 0 km/h
274 24-02-2014 22:45:00 4.8 C 5.9 g/m*3 4.8 C 0 km/h
275 24-02-2014 22:50:00 4.7 C 5.8 g/m*3 4.7 C 0 km/h
Sensor: Nr:Datum:Temp:Abs-Feuchte:Windchill:Wind:
Aussen-T/F 276 24-02-2014 22:55:00 4.7 C 5.8 g/m*3 4.7 C 0 km/h
277 24-02-2014 23:00:00 4.5 C 5.78 g/m*3 4.5 C 0 km/h
278 24-02-2014 23:05:00 4.4 C 5.81 g/m*3 4.4 C 0 km/h
279 24-02-2014 23:10:00 4.4 C 5.81 g/m*3 4.4 C 3.2 km/h
280 24-02-2014 23:15:00 4.4 C 5.81 g/m*3 4.4 C 1.6 km/h
281 24-02-2014 23:20:00 4.4 C 5.81 g/m*3 4.4 C 0 km/h
282 24-02-2014 23:25:00 4.4 C 5.81 g/m*3 4.4 C 1.6 km/h
283 24-02-2014 23:30:00 4.5 C 5.78 g/m*3 4.5 C 0 km/h
284 24-02-2014 23:35:00 4.4 C 5.75 g/m*3 4.4 C 0 km/h
285 24-02-2014 23:40:00 4.3 C 5.71 g/m*3 4.3 C 0 km/h
286 24-02-2014 23:45:00 4.2 C 5.67 g/m*3 4.2 C 0 km/h
287 24-02-2014 23:50:00 4 C 5.59 g/m*3 4 C 0 km/h
288 24-02-2014 23:55:00 4 C 5.66 g/m*3 4 C 0 km/h
289 25-02-2014 00:00:00 4 C 5.72 g/m*3 4 C 3.2 km/h
290 25-02-2014 00:05:00 4 C 5.72 g/m*3 4 C 1.6 km/h
291 25-02-2014 00:10:00 3.9 C 5.62 g/m*3 3.9 C 1.6 km/h
292 25-02-2014 00:15:00 4 C 5.72 g/m*3 4 C 1.6 km/h
293 25-02-2014 00:20:00 3.9 C 5.68 g/m*3 3.9 C 3.2 km/h
294 25-02-2014 00:25:00 3.9 C 5.68 g/m*3 3.9 C 1.6 km/h
295 25-02-2014 00:30:00 3.8 C 5.65 g/m*3 3.8 C 0 km/h
296 25-02-2014 00:35:00 3.7 C 5.55 g/m*3 3.7 C 0 km/h
297 25-02-2014 00:40:00 3.6 C 5.57 g/m*3 3.6 C 0 km/h
298 25-02-2014 00:45:00 3.6 C 5.57 g/m*3 3.6 C 0 km/h
299 25-02-2014 00:50:00 3.6 C 5.57 g/m*3 3.6 C 0 km/h
300 25-02-2014 00:55:00 3.5 C 5.6 g/m*3 3.5 C 0 km/h
Sensor: Nr:Datum:Temp:Abs-Feuchte:Windchill:Wind:
Aussen-T/F 301 25-02-2014 01:00:00 3.4 C 5.56 g/m*3 3.4 C 0 km/h
302 25-02-2014 01:05:00 3.4 C 5.56 g/m*3 3.4 C 0 km/h
303 25-02-2014 01:10:00 3.5 C 5.6 g/m*3 3.5 C 0 km/h
304 25-02-2014 01:15:00 3.4 C 5.56 g/m*3 3.4 C 0 km/h
305 25-02-2014 01:20:00 3.3 C 5.52 g/m*3 3.3 C 0 km/h
306 25-02-2014 01:25:00 3.3 C 5.52 g/m*3 3.3 C 0 km/h
307 25-02-2014 01:30:00 3.2 C 5.48 g/m*3 3.2 C 0 km/h
308 25-02-2014 01:35:00 3.1 C 5.51 g/m*3 3.1 C 0 km/h
309 25-02-2014 01:40:00 3.1 C 5.51 g/m*3 3.1 C 0 km/h
310 25-02-2014 01:45:00 3.1 C 5.51 g/m*3 3.1 C 0 km/h
311 25-02-2014 01:50:00 3.1 C 5.51 g/m*3 3.1 C 0 km/h
312 25-02-2014 01:55:00 3 C 5.47 g/m*3 3 C 0 km/h
313 25-02-2014 02:00:00 2.9 C 5.43 g/m*3 2.9 C 0 km/h
314 25-02-2014 02:05:00 2.8 C 5.4 g/m*3 2.8 C 0 km/h
315 25-02-2014 02:10:00 2.8 C 5.4 g/m*3 2.8 C 1.6 km/h
316 25-02-2014 02:15:00 2.8 C 5.4 g/m*3 2.8 C 1.6 km/h
317 25-02-2014 02:20:00 2.8 C 5.4 g/m*3 2.8 C 0 km/h
318 25-02-2014 02:25:00 2.7 C 5.42 g/m*3 2.7 C 0 km/h
319 25-02-2014 02:30:00 2.7 C 5.42 g/m*3 2.7 C 0 km/h
320 25-02-2014 02:35:00 2.7 C 5.42 g/m*3 2.7 C 0 km/h
321 25-02-2014 02:40:00 2.7 C 5.42 g/m*3 2.7 C 1.6 km/h
322 25-02-2014 02:45:00 2.6 C 5.38 g/m*3 2.6 C 0 km/h
323 25-02-2014 02:50:00 2.6 C 5.38 g/m*3 2.6 C 0 km/h
324 25-02-2014 02:55:00 2.6 C 5.38 g/m*3 2.6 C 0 km/h
325 25-02-2014 03:00:00 2.4 C 5.31 g/m*3 2.4 C 0 km/h
Sensor: Nr:Datum:Temp:Abs-Feuchte:Windchill:Wind:
Aussen-T/F 326 25-02-2014 03:05:00 2.3 C 5.27 g/m*3 2.3 C 0 km/h
327 25-02-2014 03:10:00 2.3 C 5.27 g/m*3 2.3 C 1.6 km/h
328 25-02-2014 03:15:00 2.3 C 5.27 g/m*3 2.3 C 0 km/h
329 25-02-2014 03:20:00 2.2 C 5.29 g/m*3 2.2 C 0 km/h
330 25-02-2014 03:25:00 2.2 C 5.24 g/m*3 2.2 C 0 km/h
331 25-02-2014 03:30:00 2.1 C 5.26 g/m*3 2.1 C 0 km/h
332 25-02-2014 03:35:00 2.1 C 5.26 g/m*3 2.1 C 0 km/h
333 25-02-2014 03:40:00 2.1 C 5.26 g/m*3 2.1 C 0 km/h
334 25-02-2014 03:45:00 2.1 C 5.26 g/m*3 2.1 C 0 km/h
335 25-02-2014 03:50:00 2 C 5.22 g/m*3 2 C 0 km/h
336 25-02-2014 03:55:00 2 C 5.22 g/m*3 2 C 0 km/h
337 25-02-2014 04:00:00 1.9 C 5.19 g/m*3 1.9 C 0 km/h
338 25-02-2014 04:05:00 1.9 C 5.19 g/m*3 1.9 C 0 km/h
339 25-02-2014 04:10:00 1.9 C 5.19 g/m*3 1.9 C 0 km/h
340 25-02-2014 04:15:00 1.8 C 5.15 g/m*3 1.8 C 0 km/h
341 25-02-2014 04:20:00 1.8 C 5.15 g/m*3 1.8 C 0 km/h
342 25-02-2014 04:25:00 1.8 C 5.15 g/m*3 1.8 C 0 km/h
343 25-02-2014 04:30:00 1.7 C 5.12 g/m*3 1.7 C 0 km/h
344 25-02-2014 04:35:00 1.7 C 5.17 g/m*3 1.7 C 0 km/h
345 25-02-2014 04:40:00 1.7 C 5.17 g/m*3 1.7 C 0 km/h
346 25-02-2014 04:45:00 1.6 C 5.14 g/m*3 1.6 C 0 km/h
347 25-02-2014 04:50:00 1.6 C 5.14 g/m*3 1.6 C 0 km/h
348 25-02-2014 04:55:00 1.6 C 5.14 g/m*3 1.6 C 0 km/h
349 25-02-2014 05:00:00 1.5 C 5.1 g/m*3 1.5 C 0 km/h
350 25-02-2014 05:05:00 1.5 C 5.1 g/m*3 1.5 C 0 km/h
Sensor: Nr:Datum:Temp:Abs-Feuchte:Windchill:Wind:
Aussen-T/F 351 25-02-2014 05:10:00 1.6 C 5.14 g/m*3 1.6 C 0 km/h
352 25-02-2014 05:15:00 1.6 C 5.14 g/m*3 1.6 C 0 km/h
353 25-02-2014 05:20:00 1.6 C 5.14 g/m*3 1.6 C 0 km/h
354 25-02-2014 05:25:00 1.6 C 5.14 g/m*3 1.6 C 0 km/h
355 25-02-2014 05:30:00 1.6 C 5.14 g/m*3 1.6 C 0 km/h
356 25-02-2014 05:35:00 1.6 C 5.14 g/m*3 1.6 C 0 km/h
357 25-02-2014 05:40:00 1.6 C 5.14 g/m*3 1.6 C 0 km/h
358 25-02-2014 05:45:00 1.6 C 5.14 g/m*3 1.6 C 0 km/h
359 25-02-2014 05:50:00 1.5 C 5.1 g/m*3 1.5 C 0 km/h
360 25-02-2014 05:55:00 1.4 C 5.07 g/m*3 1.4 C 0 km/h
361 25-02-2014 06:00:00 1.4 C 5.07 g/m*3 1.4 C 0 km/h
362 25-02-2014 06:05:00 1.5 C 5.1 g/m*3 1.5 C 0 km/h
363 25-02-2014 06:10:00 1.5 C 5.16 g/m*3 1.5 C 0 km/h
364 25-02-2014 06:15:00 1.4 C 5.07 g/m*3 1.4 C 0 km/h
365 25-02-2014 06:20:00 1.3 C 5.03 g/m*3 1.3 C 0 km/h
366 25-02-2014 06:25:00 1.2 C 5 g/m*3 1.2 C 0 km/h
367 25-02-2014 06:30:00 1.2 C 5 g/m*3 1.2 C 0 km/h
368 25-02-2014 06:35:00 1.2 C 5 g/m*3 1.2 C 0 km/h
369 25-02-2014 06:40:00 1.1 C 4.96 g/m*3 1.1 C 0 km/h
370 25-02-2014 06:45:00 1.1 C 4.96 g/m*3 1.1 C 0 km/h
371 25-02-2014 06:50:00 1.1 C 5.02 g/m*3 1.1 C 0 km/h
372 25-02-2014 06:55:00 1.2 C 5.05 g/m*3 1.2 C 0 km/h
373 25-02-2014 07:00:00 1.3 C 5.09 g/m*3 1.3 C 0 km/h
374 25-02-2014 07:05:00 1.3 C 5.09 g/m*3 1.3 C 1.6 km/h
375 25-02-2014 07:10:00 1.4 C 5.12 g/m*3 1.4 C 0 km/h
Sensor: Nr:Datum:Temp:Abs-Feuchte:Windchill:Wind:
Aussen-T/F 376 25-02-2014 07:15:00 1.4 C 5.12 g/m*3 1.4 C 0 km/h
377 25-02-2014 07:20:00 1.4 C 5.12 g/m*3 1.4 C 0 km/h
378 25-02-2014 07:25:00 1.5 C 5.16 g/m*3 1.5 C 0 km/h
379 25-02-2014 07:30:00 1.5 C 5.16 g/m*3 1.5 C 0 km/h
380 25-02-2014 07:35:00 1.6 C 5.19 g/m*3 1.6 C 0 km/h
381 25-02-2014 07:40:00 1.6 C 5.19 g/m*3 1.6 C 0 km/h
382 25-02-2014 07:45:00 1.6 C 5.19 g/m*3 1.6 C 1.6 km/h
383 25-02-2014 07:50:00 1.7 C 5.23 g/m*3 1.7 C 1.6 km/h
384 25-02-2014 07:55:00 1.7 C 5.23 g/m*3 1.7 C 0 km/h
385 25-02-2014 08:00:00 1.7 C 5.23 g/m*3 1.7 C 0 km/h
386 25-02-2014 08:05:00 1.7 C 5.23 g/m*3 1.7 C 0 km/h
387 25-02-2014 08:10:00 1.8 C 5.26 g/m*3 1.8 C 1.6 km/h
388 25-02-2014 08:15:00 1.8 C 5.26 g/m*3 1.8 C 0 km/h
389 25-02-2014 08:20:00 1.8 C 5.26 g/m*3 1.8 C 0 km/h
390 25-02-2014 08:25:00 1.9 C 5.3 g/m*3 1.9 C 0 km/h
391 25-02-2014 08:30:00 1.9 C 5.3 g/m*3 1.9 C 0 km/h
392 25-02-2014 08:35:00 2.1 C 5.37 g/m*3 2.1 C 3.2 km/h
393 25-02-2014 08:40:00 2.1 C 5.37 g/m*3 2.1 C 0 km/h
394 25-02-2014 08:45:00 2.2 C 5.41 g/m*3 2.2 C 0 km/h
395 25-02-2014 08:50:00 2.3 C 5.44 g/m*3 2.3 C 0 km/h
396 25-02-2014 08:55:00 2.3 C 5.44 g/m*3 2.3 C 0 km/h
397 25-02-2014 09:00:00 2.4 C 5.48 g/m*3 2.4 C 0 km/h
398 25-02-2014 09:05:00 2.4 C 5.48 g/m*3 2.4 C 0 km/h
399 25-02-2014 09:10:00 2.5 C 5.52 g/m*3 2.5 C 0 km/h
400 25-02-2014 09:15:00 2.6 C 5.56 g/m*3 2.6 C 0 km/h
Sensor: Nr:Datum:Temp:Abs-Feuchte:Windchill:Wind:
Aussen-T/F 401 25-02-2014 09:20:00 2.8 C 5.69 g/m*3 2.8 C 0 km/h
402 25-02-2014 09:25:00 3 C 5.71 g/m*3 3 C 0 km/h
403 25-02-2014 09:30:00 3.2 C 5.85 g/m*3 3.2 C 0 km/h
404 25-02-2014 09:35:00 3.5 C 5.96 g/m*3 3.5 C 3.2 km/h
405 25-02-2014 09:40:00 3.8 C 6.09 g/m*3 3.8 C 3.2 km/h
406 25-02-2014 09:45:00 4.2 C 6.25 g/m*3 4.2 C 0 km/h
407 25-02-2014 09:50:00 4.5 C 6.31 g/m*3 4.5 C 3.2 km/h
408 25-02-2014 09:55:00 4.8 C 6.44 g/m*3 4.8 C 1.6 km/h
409 25-02-2014 10:00:00 5.1 C 6.5 g/m*3 5.1 C 3.2 km/h
410 25-02-2014 10:05:00 5.5 C 6.67 g/m*3 5.5 C 3.2 km/h
411 25-02-2014 10:10:00 5.9 C 6.78 g/m*3 5.9 C 1.6 km/h
412 25-02-2014 10:15:00 6.4 C 6.93 g/m*3 6.4 C 0 km/h
413 25-02-2014 10:20:00 6.8 C 6.96 g/m*3 6.8 C 1.6 km/h
414 25-02-2014 10:25:00 7.3 C 6.87 g/m*3 7.3 C 1.6 km/h
415 25-02-2014 10:30:00 7.9 C 6.74 g/m*3 6.94 C 6.4 km/h
416 25-02-2014 10:35:00 8.6 C 6.79 g/m*3 7.34 C 8.1 km/h
417 25-02-2014 10:40:00 9.1 C 6.65 g/m*3 9.1 C 4.8 km/h
418 25-02-2014 10:45:00 9.3 C 7.01 g/m*3 9.3 C 0 km/h
419 25-02-2014 10:50:00 9.5 C 6.55 g/m*3 9.5 C 4.8 km/h
420 25-02-2014 10:55:00 9.6 C 6.5 g/m*3 9.6 C 4.8 km/h
421 25-02-2014 11:00:00 9.7 C 6.45 g/m*3 8.63 C 8.1 km/h
422 25-02-2014 11:05:00 9.8 C 6.49 g/m*3 9.14 C 6.4 km/h
423 25-02-2014 11:10:00 9.8 C 6.4 g/m*3 9.14 C 6.4 km/h
424 25-02-2014 11:15:00 9.9 C 6.44 g/m*3 9.9 C 3.2 km/h
425 25-02-2014 11:20:00 10 C 6.67 g/m*3 10 C 3.2 km/h
Sensor: Nr:Datum:Temp:Abs-Feuchte:Windchill:Wind:
Aussen-T/F 426 25-02-2014 11:25:00 10.2 C 6.47 g/m*3 9.22 C 8.1 km/h
427 25-02-2014 11:30:00 10.4 C 6.55 g/m*3 10.4 C 4.8 km/h
428 25-02-2014 11:35:00 10.6 C 6.54 g/m*3 10.06 C 6.4 km/h
429 25-02-2014 11:40:00 10.7 C 6.68 g/m*3 10.18 C 6.4 km/h
430 25-02-2014 11:45:00 10.8 C 6.62 g/m*3 10.8 C 4.8 km/h
431 25-02-2014 11:50:00 11.1 C 6.65 g/m*3 11.1 C 11.3 km/h
432 25-02-2014 11:55:00 11.2 C 6.59 g/m*3 11.2 C 4.8 km/h
433 25-02-2014 12:00:00 11.3 C 6.73 g/m*3 11.3 C 3.2 km/h
434 25-02-2014 12:05:00 11.3 C 6.63 g/m*3 11.3 C 6.4 km/h
435 25-02-2014 12:10:00 11.4 C 6.67 g/m*3 11.4 C 6.4 km/h
436 25-02-2014 12:15:00 11.7 C 7.01 g/m*3 11.7 C 3.2 km/h
437 25-02-2014 12:20:00 11.8 C 6.63 g/m*3 11.8 C 6.4 km/h
438 25-02-2014 12:25:00 11.8 C 6.74 g/m*3 11.8 C 20.9 km/h
439 25-02-2014 12:30:00 11.7 C 6.59 g/m*3 11.7 C 14.5 km/h
440 25-02-2014 12:35:00 11.7 C 6.8 g/m*3 11.7 C 6.4 km/h
441 25-02-2014 12:40:00 11.7 C 6.8 g/m*3 11.7 C 3.2 km/h
442 25-02-2014 12:45:00 11.6 C 6.65 g/m*3 11.6 C 9.7 km/h
443 25-02-2014 12:50:00 11.4 C 6.67 g/m*3 11.4 C 4.8 km/h
444 25-02-2014 12:55:00 11.3 C 6.63 g/m*3 11.3 C 4.8 km/h
445 25-02-2014 13:00:00 11.2 C 6.59 g/m*3 11.2 C 4.8 km/h
446 25-02-2014 13:05:00 11.1 C 6.75 g/m*3 11.1 C 4.8 km/h
447 25-02-2014 13:10:00 11.1 C 6.75 g/m*3 11.1 C 4.8 km/h
448 25-02-2014 13:15:00 11.1 C 6.75 g/m*3 11.1 C 3.2 km/h
449 25-02-2014 13:20:00 11 C 6.81 g/m*3 10.52 C 6.4 km/h
450 25-02-2014 13:25:00 11 C 6.71 g/m*3 10.52 C 6.4 km/h
Sensor: Nr:Datum:Temp:Abs-Feuchte:Windchill:Wind:
Aussen-T/F 451 25-02-2014 13:30:00 10.9 C 6.76 g/m*3 10.9 C 4.8 km/h
452 25-02-2014 13:35:00 10.9 C 6.96 g/m*3 10.9 C 0 km/h
453 25-02-2014 13:40:00 10.9 C 6.76 g/m*3 10.9 C 3.2 km/h
454 25-02-2014 13:45:00 10.9 C 6.96 g/m*3 10.9 C 3.2 km/h
455 25-02-2014 13:50:00 10.8 C 6.82 g/m*3 10.8 C 3.2 km/h
456 25-02-2014 13:55:00 10.9 C 6.76 g/m*3 10.9 C 3.2 km/h
457 25-02-2014 14:00:00 10.9 C 6.86 g/m*3 10.9 C 0 km/h
458 25-02-2014 14:05:00 11.1 C 6.75 g/m*3 11.1 C 4.8 km/h
459 25-02-2014 14:10:00 11.2 C 6.89 g/m*3 11.2 C 4.8 km/h
460 25-02-2014 14:15:00 11.3 C 6.83 g/m*3 11.3 C 4.8 km/h
461 25-02-2014 14:20:00 11.5 C 6.82 g/m*3 11.5 C 4.8 km/h
462 25-02-2014 14:25:00 11.7 C 6.8 g/m*3 11.7 C 6.4 km/h
463 25-02-2014 14:30:00 11.8 C 6.84 g/m*3 11.8 C 8.1 km/h
464 25-02-2014 14:35:00 11.8 C 6.84 g/m*3 11.8 C 8.1 km/h
465 25-02-2014 14:40:00 11.8 C 6.84 g/m*3 11.8 C 9.7 km/h
466 25-02-2014 14:45:00 11.8 C 6.95 g/m*3 11.8 C 4.8 km/h
467 25-02-2014 14:50:00 11.7 C 6.8 g/m*3 11.7 C 6.4 km/h
468 25-02-2014 14:55:00 11.7 C 6.9 g/m*3 11.7 C 6.4 km/h
469 25-02-2014 15:00:00 11.6 C 6.86 g/m*3 11.6 C 4.8 km/h
470 25-02-2014 15:05:00 11.5 C 6.82 g/m*3 11.5 C 11.3 km/h
471 25-02-2014 15:10:00 11.5 C 6.82 g/m*3 11.5 C 8.1 km/h
472 25-02-2014 15:15:00 11.4 C 6.88 g/m*3 11.4 C 3.2 km/h
473 25-02-2014 15:20:00 11.4 C 6.77 g/m*3 11.4 C 9.7 km/h
474 25-02-2014 15:25:00 11.4 C 6.88 g/m*3 11.4 C 4.8 km/h
475 25-02-2014 15:30:00 11.5 C 6.92 g/m*3 11.5 C 4.8 km/h
Sensor: Nr:Datum:Temp:Abs-Feuchte:Windchill:Wind:
Aussen-T/F 476 25-02-2014 15:35:00 11.6 C 6.96 g/m*3 11.6 C 6.4 km/h
477 25-02-2014 15:40:00 11.7 C 7.01 g/m*3 11.7 C 9.7 km/h
478 25-02-2014 15:45:00 11.8 C 6.95 g/m*3 11.8 C 9.7 km/h
479 25-02-2014 15:50:00 11.8 C 6.95 g/m*3 11.8 C 9.7 km/h
480 25-02-2014 15:55:00 11.7 C 6.9 g/m*3 11.7 C 6.4 km/h
481 25-02-2014 16:00:00 11.8 C 6.84 g/m*3 11.8 C 14.5 km/h
482 25-02-2014 16:05:00 11.8 C 7.05 g/m*3 11.8 C 12.9 km/h
483 25-02-2014 16:10:00 11.8 C 6.84 g/m*3 11.8 C 9.7 km/h
484 25-02-2014 16:15:00 11.8 C 6.84 g/m*3 11.8 C 6.4 km/h
485 25-02-2014 16:20:00 11.9 C 6.88 g/m*3 11.9 C 8.1 km/h
486 25-02-2014 16:25:00 11.9 C 6.99 g/m*3 11.9 C 3.2 km/h
487 25-02-2014 16:30:00 12.1 C 6.97 g/m*3 12.1 C 8.1 km/h
488 25-02-2014 16:35:00 12.2 C 7.12 g/m*3 12.2 C 9.7 km/h
489 25-02-2014 16:40:00 12.2 C 7.01 g/m*3 12.2 C 4.8 km/h
490 25-02-2014 16:45:00 12.2 C 7.01 g/m*3 12.2 C 4.8 km/h
491 25-02-2014 16:50:00 12.2 C 7.12 g/m*3 12.2 C 3.2 km/h
492 25-02-2014 16:55:00 12.1 C 6.86 g/m*3 12.1 C 8.1 km/h
493 25-02-2014 17:00:00 12.1 C 7.08 g/m*3 12.1 C 6.4 km/h
494 25-02-2014 17:05:00 11.9 C 6.88 g/m*3 11.9 C 6.4 km/h
495 25-02-2014 17:10:00 11.8 C 6.95 g/m*3 11.8 C 9.7 km/h
496 25-02-2014 17:15:00 11.7 C 7.01 g/m*3 11.7 C 4.8 km/h
497 25-02-2014 17:20:00 11.6 C 6.86 g/m*3 11.6 C 4.8 km/h
498 25-02-2014 17:25:00 11.5 C 6.92 g/m*3 11.5 C 12.9 km/h
499 25-02-2014 17:30:00 11.4 C 6.88 g/m*3 11.4 C 8.1 km/h
500 25-02-2014 17:35:00 11.4 C 6.88 g/m*3 11.4 C 6.4 km/h
Sensor: Nr:Datum:Temp:Abs-Feuchte:Windchill:Wind:
Aussen-T/F 501 25-02-2014 17:40:00 11.2 C 6.99 g/m*3 11.2 C 1.6 km/h
502 25-02-2014 17:45:00 11.1 C 6.85 g/m*3 11.1 C 4.8 km/h
503 25-02-2014 17:50:00 11.1 C 6.95 g/m*3 11.1 C 1.6 km/h
504 25-02-2014 17:55:00 10.9 C 6.96 g/m*3 10.9 C 4.8 km/h
505 25-02-2014 18:00:00 10.7 C 6.88 g/m*3 10.7 C 3.2 km/h
506 25-02-2014 18:05:00 10.3 C 6.9 g/m*3 10.3 C 1.6 km/h
507 25-02-2014 18:10:00 9.9 C 6.82 g/m*3 9.9 C 1.6 km/h
508 25-02-2014 18:15:00 9.6 C 6.78 g/m*3 9.6 C 3.2 km/h
509 25-02-2014 18:20:00 9.3 C 6.92 g/m*3 9.3 C 3.2 km/h
510 25-02-2014 18:25:00 9.2 C 6.79 g/m*3 9.2 C 3.2 km/h
511 25-02-2014 18:30:00 9.3 C 6.56 g/m*3 9.3 C 3.2 km/h
512 25-02-2014 18:35:00 9.7 C 6.73 g/m*3 9.02 C 6.4 km/h
513 25-02-2014 18:40:00 9.8 C 6.68 g/m*3 9.8 C 4.8 km/h
514 25-02-2014 18:45:00 9.7 C 6.82 g/m*3 9.7 C 1.6 km/h
515 25-02-2014 18:50:00 9.5 C 6.64 g/m*3 8.79 C 6.4 km/h
516 25-02-2014 18:55:00 9.6 C 6.78 g/m*3 9.6 C 3.2 km/h
517 25-02-2014 19:00:00 9.3 C 6.83 g/m*3 9.3 C 3.2 km/h
518 25-02-2014 19:05:00 8.9 C 6.57 g/m*3 8.9 C 1.6 km/h
519 25-02-2014 19:10:00 8.7 C 6.66 g/m*3 8.7 C 1.6 km/h
520 25-02-2014 19:15:00 8.5 C 6.66 g/m*3 8.5 C 3.2 km/h
521 25-02-2014 19:20:00 8.5 C 6.66 g/m*3 8.5 C 3.2 km/h
522 25-02-2014 19:25:00 8.5 C 6.66 g/m*3 8.5 C 3.2 km/h
523 25-02-2014 19:30:00 8.4 C 6.7 g/m*3 8.4 C 4.8 km/h
524 25-02-2014 19:35:00 8.3 C 6.66 g/m*3 8.3 C 3.2 km/h
525 25-02-2014 19:40:00 8.2 C 6.7 g/m*3 8.2 C 3.2 km/h
Sensor: Nr:Datum:Temp:Abs-Feuchte:Windchill:Wind:
Aussen-T/F 526 25-02-2014 19:45:00 8.1 C 6.74 g/m*3 8.1 C 3.2 km/h
527 25-02-2014 19:50:00 8.1 C 6.74 g/m*3 8.1 C 3.2 km/h
528 25-02-2014 19:55:00 8 C 6.7 g/m*3 8 C 1.6 km/h
529 25-02-2014 20:00:00 8.1 C 6.74 g/m*3 8.1 C 3.2 km/h
530 25-02-2014 20:05:00 8.2 C 6.78 g/m*3 8.2 C 1.6 km/h
531 25-02-2014 20:10:00 8.3 C 6.74 g/m*3 8.3 C 1.6 km/h
532 25-02-2014 20:15:00 8.3 C 6.83 g/m*3 8.3 C 1.6 km/h
533 25-02-2014 20:20:00 8.3 C 6.83 g/m*3 8.3 C 1.6 km/h
534 25-02-2014 20:25:00 8.3 C 6.83 g/m*3 8.3 C 0 km/h
535 25-02-2014 20:30:00 8.3 C 6.83 g/m*3 8.3 C 3.2 km/h
536 25-02-2014 20:35:00 8.3 C 6.91 g/m*3 8.3 C 4.8 km/h
537 25-02-2014 20:40:00 8.3 C 6.83 g/m*3 8.3 C 0 km/h
538 25-02-2014 20:45:00 8.3 C 6.83 g/m*3 8.3 C 0 km/h
539 25-02-2014 20:50:00 8.2 C 6.78 g/m*3 8.2 C 1.6 km/h
540 25-02-2014 20:55:00 8.2 C 6.78 g/m*3 8.2 C 1.6 km/h
541 25-02-2014 21:00:00 8.2 C 6.78 g/m*3 8.2 C 4.8 km/h
542 25-02-2014 21:05:00 8.1 C 6.82 g/m*3 8.1 C 4.8 km/h
543 25-02-2014 21:10:00 8 C 6.78 g/m*3 8 C 3.2 km/h
544 25-02-2014 21:15:00 8 C 6.78 g/m*3 8 C 1.6 km/h
545 25-02-2014 21:20:00 7.9 C 6.74 g/m*3 7.9 C 4.8 km/h
546 25-02-2014 21:25:00 7.9 C 6.74 g/m*3 7.9 C 3.2 km/h
547 25-02-2014 21:30:00 7.9 C 6.74 g/m*3 7.9 C 1.6 km/h
548 25-02-2014 21:35:00 7.9 C 6.74 g/m*3 7.9 C 1.6 km/h
549 25-02-2014 21:40:00 7.8 C 6.77 g/m*3 7.8 C 3.2 km/h
550 25-02-2014 21:45:00 7.9 C 6.74 g/m*3 7.9 C 3.2 km/h
Sensor: Nr:Datum:Temp:Abs-Feuchte:Windchill:Wind:
Aussen-T/F 551 25-02-2014 21:50:00 8.1 C 6.74 g/m*3 8.1 C 3.2 km/h
552 25-02-2014 21:55:00 8.1 C 6.74 g/m*3 8.1 C 1.6 km/h
553 25-02-2014 22:00:00 8.1 C 6.74 g/m*3 8.1 C 0 km/h
554 25-02-2014 22:05:00 7.9 C 6.74 g/m*3 7.9 C 1.6 km/h
555 25-02-2014 22:10:00 7.9 C 6.74 g/m*3 7.9 C 3.2 km/h
556 25-02-2014 22:15:00 7.9 C 6.74 g/m*3 7.9 C 1.6 km/h
557 25-02-2014 22:20:00 7.9 C 6.74 g/m*3 7.9 C 3.2 km/h
558 25-02-2014 22:25:00 7.9 C 6.82 g/m*3 6.94 C 6.4 km/h
559 25-02-2014 22:30:00 7.8 C 6.77 g/m*3 7.8 C 1.6 km/h
560 25-02-2014 22:35:00 7.7 C 6.73 g/m*3 6.71 C 6.4 km/h
561 25-02-2014 22:40:00 7.7 C 6.81 g/m*3 7.7 C 4.8 km/h
562 25-02-2014 22:45:00 7.7 C 6.81 g/m*3 7.7 C 4.8 km/h
563 25-02-2014 22:50:00 7.8 C 6.77 g/m*3 7.8 C 1.6 km/h
564 25-02-2014 22:55:00 8.1 C 6.82 g/m*3 8.1 C 3.2 km/h
565 25-02-2014 23:00:00 8 C 6.86 g/m*3 8 C 4.8 km/h
566 25-02-2014 23:05:00 8 C 6.94 g/m*3 8 C 1.6 km/h
567 25-02-2014 23:10:00 8 C 6.94 g/m*3 8 C 4.8 km/h
568 25-02-2014 23:15:00 8.1 C 6.99 g/m*3 8.1 C 1.6 km/h
569 25-02-2014 23:20:00 8 C 7.03 g/m*3 8 C 1.6 km/h
570 25-02-2014 23:25:00 7.9 C 6.98 g/m*3 7.9 C 1.6 km/h
571 25-02-2014 23:30:00 7.9 C 6.98 g/m*3 7.9 C 4.8 km/h
572 25-02-2014 23:35:00 7.8 C 6.86 g/m*3 7.8 C 4.8 km/h
573 25-02-2014 23:40:00 7.8 C 6.86 g/m*3 7.8 C 3.2 km/h
574 25-02-2014 23:45:00 7.7 C 6.81 g/m*3 7.7 C 4.8 km/h
575 25-02-2014 23:50:00 7.6 C 6.85 g/m*3 7.6 C 4.8 km/h
Sensor: Nr:Datum:Temp:Abs-Feuchte:Windchill:Wind:
Aussen-T/F 576 25-02-2014 23:55:00 7.6 C 6.85 g/m*3 7.6 C 3.2 km/h
577 26-02-2014 00:00:00 7.6 C 6.85 g/m*3 7.6 C 3.2 km/h
578 26-02-2014 00:05:00 7.4 C 6.76 g/m*3 7.4 C 4.8 km/h
579 26-02-2014 00:10:00 7.4 C 6.76 g/m*3 7.4 C 4.8 km/h
580 26-02-2014 00:15:00 7.4 C 6.76 g/m*3 7.4 C 3.2 km/h
581 26-02-2014 00:20:00 7.4 C 6.84 g/m*3 7.4 C 4.8 km/h
582 26-02-2014 00:25:00 7.3 C 6.79 g/m*3 7.3 C 4.8 km/h
583 26-02-2014 00:30:00 7.3 C 6.79 g/m*3 7.3 C 4.8 km/h
584 26-02-2014 00:35:00 7.3 C 6.79 g/m*3 7.3 C 3.2 km/h
585 26-02-2014 00:40:00 7.2 C 6.75 g/m*3 7.2 C 4.8 km/h
586 26-02-2014 00:45:00 7.2 C 6.75 g/m*3 7.2 C 3.2 km/h
587 26-02-2014 00:50:00 7.3 C 6.79 g/m*3 7.3 C 3.2 km/h
588 26-02-2014 00:55:00 7.4 C 6.84 g/m*3 7.4 C 3.2 km/h
589 26-02-2014 01:00:00 7.4 C 6.84 g/m*3 7.4 C 3.2 km/h
590 26-02-2014 01:05:00 7.5 C 6.88 g/m*3 7.5 C 3.2 km/h
591 26-02-2014 01:10:00 7.6 C 6.93 g/m*3 7.6 C 3.2 km/h
592 26-02-2014 01:15:00 7.6 C 6.93 g/m*3 7.6 C 3.2 km/h
593 26-02-2014 01:20:00 7.6 C 6.93 g/m*3 7.6 C 3.2 km/h
594 26-02-2014 01:25:00 7.5 C 6.88 g/m*3 7.5 C 3.2 km/h
595 26-02-2014 01:30:00 7.4 C 6.84 g/m*3 7.4 C 3.2 km/h
596 26-02-2014 01:35:00 7.5 C 6.88 g/m*3 7.5 C 3.2 km/h
597 26-02-2014 01:40:00 7.6 C 6.93 g/m*3 7.6 C 3.2 km/h
598 26-02-2014 01:45:00 7.6 C 6.93 g/m*3 7.6 C 0 km/h
599 26-02-2014 01:50:00 7.7 C 6.97 g/m*3 7.7 C 1.6 km/h
600 26-02-2014 01:55:00 7.7 C 6.97 g/m*3 7.7 C 1.6 km/h
Sensor: Nr:Datum:Temp:Abs-Feuchte:Windchill:Wind:
Aussen-T/F 601 26-02-2014 02:00:00 7.8 C 7.02 g/m*3 7.8 C 1.6 km/h
602 26-02-2014 02:05:00 7.8 C 7.02 g/m*3 7.8 C 1.6 km/h
603 26-02-2014 02:10:00 7.9 C 7.06 g/m*3 7.9 C 3.2 km/h
604 26-02-2014 02:15:00 8.1 C 6.99 g/m*3 8.1 C 3.2 km/h
605 26-02-2014 02:20:00 8.2 C 7.12 g/m*3 8.2 C 1.6 km/h
606 26-02-2014 02:25:00 8.3 C 7.16 g/m*3 8.3 C 1.6 km/h
607 26-02-2014 02:30:00 8.3 C 7.08 g/m*3 8.3 C 3.2 km/h
608 26-02-2014 02:35:00 8.3 C 7.08 g/m*3 8.3 C 3.2 km/h
609 26-02-2014 02:40:00 8.3 C 7.08 g/m*3 8.3 C 3.2 km/h
610 26-02-2014 02:45:00 8.3 C 7.08 g/m*3 8.3 C 3.2 km/h
611 26-02-2014 02:50:00 8.2 C 7.12 g/m*3 8.2 C 1.6 km/h
612 26-02-2014 02:55:00 8.1 C 6.99 g/m*3 8.1 C 1.6 km/h
613 26-02-2014 03:00:00 8 C 7.03 g/m*3 8 C 1.6 km/h
614 26-02-2014 03:05:00 7.9 C 6.98 g/m*3 7.9 C 4.8 km/h
615 26-02-2014 03:10:00 7.8 C 6.94 g/m*3 7.8 C 3.2 km/h
616 26-02-2014 03:15:00 7.8 C 6.94 g/m*3 7.8 C 3.2 km/h
617 26-02-2014 03:20:00 7.8 C 6.94 g/m*3 7.8 C 3.2 km/h
618 26-02-2014 03:25:00 7.7 C 6.97 g/m*3 7.7 C 1.6 km/h
619 26-02-2014 03:30:00 7.6 C 6.93 g/m*3 7.6 C 4.8 km/h
620 26-02-2014 03:35:00 7.6 C 6.93 g/m*3 7.6 C 4.8 km/h
621 26-02-2014 03:40:00 7.6 C 7.01 g/m*3 7.6 C 4.8 km/h
622 26-02-2014 03:45:00 7.6 C 7.01 g/m*3 7.6 C 4.8 km/h
623 26-02-2014 03:50:00 7.6 C 7.01 g/m*3 7.6 C 3.2 km/h
624 26-02-2014 03:55:00 7.6 C 7.01 g/m*3 7.6 C 3.2 km/h
625 26-02-2014 04:00:00 7.6 C 7.01 g/m*3 7.6 C 3.2 km/h
Sensor: Nr:Datum:Temp:Abs-Feuchte:Windchill:Wind:
Aussen-T/F 626 26-02-2014 04:05:00 7.7 C 7.05 g/m*3 7.7 C 1.6 km/h
627 26-02-2014 04:10:00 7.7 C 6.97 g/m*3 7.7 C 3.2 km/h
628 26-02-2014 04:15:00 7.8 C 7.02 g/m*3 7.8 C 3.2 km/h
629 26-02-2014 04:20:00 7.9 C 7.06 g/m*3 7.9 C 1.6 km/h
630 26-02-2014 04:25:00 7.9 C 7.06 g/m*3 7.9 C 3.2 km/h
631 26-02-2014 04:30:00 7.9 C 7.06 g/m*3 7.9 C 3.2 km/h
632 26-02-2014 04:35:00 7.9 C 7.06 g/m*3 7.9 C 4.8 km/h
633 26-02-2014 04:40:00 7.9 C 7.06 g/m*3 7.9 C 1.6 km/h
634 26-02-2014 04:45:00 8 C 7.11 g/m*3 8 C 3.2 km/h
635 26-02-2014 04:50:00 8.2 C 6.95 g/m*3 8.2 C 3.2 km/h
636 26-02-2014 04:55:00 8.3 C 6.91 g/m*3 8.3 C 1.6 km/h
637 26-02-2014 05:00:00 8.3 C 6.91 g/m*3 8.3 C 4.8 km/h
638 26-02-2014 05:05:00 8.4 C 7.04 g/m*3 8.4 C 3.2 km/h
639 26-02-2014 05:10:00 8.3 C 7.08 g/m*3 8.3 C 1.6 km/h
640 26-02-2014 05:15:00 8.3 C 7 g/m*3 8.3 C 1.6 km/h
641 26-02-2014 05:20:00 8.4 C 6.96 g/m*3 8.4 C 4.8 km/h
642 26-02-2014 05:25:00 8.6 C 7.05 g/m*3 8.6 C 3.2 km/h
643 26-02-2014 05:30:00 8.5 C 7.09 g/m*3 8.5 C 0 km/h
644 26-02-2014 05:35:00 8.4 C 6.96 g/m*3 7.52 C 6.4 km/h
645 26-02-2014 05:40:00 8.6 C 6.96 g/m*3 7.34 C 8.1 km/h
646 26-02-2014 05:45:00 8.7 C 7.01 g/m*3 7.13 C 9.7 km/h
647 26-02-2014 05:50:00 8.8 C 7.14 g/m*3 7.25 C 9.7 km/h
648 26-02-2014 05:55:00 8.8 C 7.14 g/m*3 6.72 C 12.9 km/h
649 26-02-2014 06:00:00 8.7 C 7.09 g/m*3 7.87 C 6.4 km/h
650 26-02-2014 06:05:00 8.7 C 7.09 g/m*3 7.87 C 6.4 km/h
Sensor: Nr:Datum:Temp:Abs-Feuchte:Windchill:Wind:
Aussen-T/F 651 26-02-2014 06:10:00 8.6 C 7.13 g/m*3 8.6 C 4.8 km/h
652 26-02-2014 06:15:00 8.6 C 7.13 g/m*3 8.6 C 1.6 km/h
653 26-02-2014 06:20:00 8.4 C 7.13 g/m*3 8.4 C 0 km/h
654 26-02-2014 06:25:00 8.2 C 7.12 g/m*3 8.2 C 4.8 km/h
655 26-02-2014 06:30:00 8 C 6.94 g/m*3 8 C 1.6 km/h
656 26-02-2014 06:35:00 7.8 C 6.94 g/m*3 7.8 C 3.2 km/h
657 26-02-2014 06:40:00 7.7 C 6.97 g/m*3 7.7 C 3.2 km/h
658 26-02-2014 06:45:00 7.7 C 6.97 g/m*3 6.71 C 6.4 km/h
659 26-02-2014 06:50:00 7.6 C 6.93 g/m*3 6.16 C 8.1 km/h
660 26-02-2014 06:55:00 7.5 C 6.8 g/m*3 7.5 C 3.2 km/h
661 26-02-2014 07:00:00 7.3 C 6.79 g/m*3 7.3 C 3.2 km/h
662 26-02-2014 07:05:00 7.1 C 6.71 g/m*3 7.1 C 1.6 km/h
663 26-02-2014 07:10:00 6.9 C 6.7 g/m*3 6.9 C 1.6 km/h
664 26-02-2014 07:15:00 6.9 C 6.77 g/m*3 6.9 C 3.2 km/h
665 26-02-2014 07:20:00 6.8 C 6.65 g/m*3 6.8 C 1.6 km/h
666 26-02-2014 07:25:00 6.8 C 6.65 g/m*3 6.8 C 3.2 km/h
667 26-02-2014 07:30:00 6.8 C 6.73 g/m*3 6.8 C 1.6 km/h
668 26-02-2014 07:35:00 6.7 C 6.69 g/m*3 6.7 C 0 km/h
669 26-02-2014 07:40:00 6.7 C 6.69 g/m*3 6.7 C 0 km/h
670 26-02-2014 07:45:00 6.7 C 6.76 g/m*3 6.7 C 0 km/h
671 26-02-2014 07:50:00 6.7 C 6.76 g/m*3 6.7 C 0 km/h
672 26-02-2014 07:55:00 6.8 C 6.73 g/m*3 6.8 C 0 km/h
673 26-02-2014 08:00:00 6.8 C 6.81 g/m*3 6.8 C 0 km/h
674 26-02-2014 08:05:00 6.9 C 6.85 g/m*3 6.9 C 0 km/h
675 26-02-2014 08:10:00 6.9 C 6.85 g/m*3 6.9 C 0 km/h
Sensor: Nr:Datum:Temp:Abs-Feuchte:Windchill:Wind:
Aussen-T/F 676 26-02-2014 08:15:00 7.1 C 7.02 g/m*3 7.1 C 0 km/h
677 26-02-2014 08:20:00 7.2 C 6.99 g/m*3 7.2 C 1.6 km/h
678 26-02-2014 08:25:00 7.3 C 6.95 g/m*3 7.3 C 3.2 km/h
679 26-02-2014 08:30:00 7.5 C 6.96 g/m*3 7.5 C 1.6 km/h
680 26-02-2014 08:35:00 7.7 C 7.05 g/m*3 7.7 C 4.8 km/h
681 26-02-2014 08:40:00 7.8 C 7.02 g/m*3 7.8 C 4.8 km/h
682 26-02-2014 08:45:00 7.8 C 6.94 g/m*3 7.8 C 3.2 km/h
683 26-02-2014 08:50:00 7.9 C 6.98 g/m*3 6.52 C 8.1 km/h
684 26-02-2014 08:55:00 7.8 C 6.94 g/m*3 7.8 C 3.2 km/h
685 26-02-2014 09:00:00 7.8 C 6.94 g/m*3 7.8 C 3.2 km/h
686 26-02-2014 09:05:00 7.7 C 6.89 g/m*3 7.7 C 0 km/h
687 26-02-2014 09:10:00 7.4 C 6.84 g/m*3 7.4 C 0 km/h
688 26-02-2014 09:15:00 7.3 C 6.87 g/m*3 7.3 C 0 km/h
689 26-02-2014 09:20:00 7.2 C 6.83 g/m*3 7.2 C 0 km/h
690 26-02-2014 09:25:00 7.2 C 6.91 g/m*3 7.2 C 0 km/h
691 26-02-2014 09:30:00 7.2 C 6.91 g/m*3 7.2 C 0 km/h
692 26-02-2014 09:35:00 7.2 C 6.91 g/m*3 7.2 C 1.6 km/h
693 26-02-2014 09:40:00 7.3 C 6.95 g/m*3 7.3 C 1.6 km/h
694 26-02-2014 09:45:00 7.4 C 7 g/m*3 7.4 C 1.6 km/h
695 26-02-2014 09:50:00 7.6 C 7.01 g/m*3 7.6 C 4.8 km/h
696 26-02-2014 09:55:00 7.7 C 7.05 g/m*3 7.7 C 1.6 km/h
697 26-02-2014 10:00:00 7.8 C 7.02 g/m*3 7.8 C 0 km/h
698 26-02-2014 10:05:00 7.8 C 7.02 g/m*3 7.8 C 4.8 km/h
699 26-02-2014 10:10:00 8 C 7.11 g/m*3 6.3 C 9.7 km/h
700 26-02-2014 10:15:00 8.1 C 7.07 g/m*3 6.75 C 8.1 km/h
Sensor: Nr:Datum:Temp:Abs-Feuchte:Windchill:Wind:
Aussen-T/F 701 26-02-2014 10:20:00 8.3 C 7.16 g/m*3 8.3 C 4.8 km/h
702 26-02-2014 10:25:00 8.4 C 7.21 g/m*3 7.52 C 6.4 km/h
703 26-02-2014 10:30:00 8.7 C 7.35 g/m*3 7.13 C 9.7 km/h
704 26-02-2014 10:35:00 8.9 C 7.36 g/m*3 7.37 C 9.7 km/h
705 26-02-2014 10:40:00 9.1 C 7.36 g/m*3 7.33 C 11.3 km/h
706 26-02-2014 10:45:00 9.1 C 7.28 g/m*3 7.93 C 8.1 km/h
707 26-02-2014 10:50:00 9.2 C 7.23 g/m*3 7.73 C 9.7 km/h
708 26-02-2014 10:55:00 9.2 C 7.23 g/m*3 7.46 C 11.3 km/h
709 26-02-2014 11:00:00 9.3 C 7.28 g/m*3 7.33 C 12.9 km/h
710 26-02-2014 11:05:00 9.4 C 7.15 g/m*3 7.24 C 14.5 km/h
711 26-02-2014 11:10:00 9.4 C 7.15 g/m*3 8.68 C 6.4 km/h
712 26-02-2014 11:15:00 9.5 C 7.01 g/m*3 8.4 C 8.1 km/h
713 26-02-2014 11:20:00 9.6 C 6.96 g/m*3 9.6 C 4.8 km/h
714 26-02-2014 11:25:00 9.6 C 6.96 g/m*3 7.7 C 12.9 km/h
715 26-02-2014 11:30:00 9.7 C 7.01 g/m*3 8.63 C 8.1 km/h
716 26-02-2014 11:35:00 9.8 C 7.05 g/m*3 9.14 C 6.4 km/h
717 26-02-2014 11:40:00 9.9 C 7.1 g/m*3 8.87 C 8.1 km/h
718 26-02-2014 11:45:00 9.9 C 7 g/m*3 8.87 C 8.1 km/h
719 26-02-2014 11:50:00 10 C 7.05 g/m*3 8.68 C 9.7 km/h
720 26-02-2014 11:55:00 10 C 7.05 g/m*3 8.68 C 9.7 km/h
721 26-02-2014 12:00:00 10.1 C 7.09 g/m*3 8.8 C 9.7 km/h
722 26-02-2014 12:05:00 10.1 C 7.19 g/m*3 9.48 C 6.4 km/h
723 26-02-2014 12:10:00 10.1 C 7.09 g/m*3 9.48 C 6.4 km/h
724 26-02-2014 12:15:00 10.1 C 7.09 g/m*3 10.1 C 4.8 km/h
725 26-02-2014 12:20:00 10.2 C 7.14 g/m*3 9.6 C 6.4 km/h
Sensor: Nr:Datum:Temp:Abs-Feuchte:Windchill:Wind:
Aussen-T/F 726 26-02-2014 12:25:00 10.2 C 7.04 g/m*3 9.22 C 8.1 km/h
727 26-02-2014 12:30:00 10.2 C 7.14 g/m*3 9.6 C 6.4 km/h
728 26-02-2014 12:35:00 10.3 C 7.18 g/m*3 9.72 C 6.4 km/h
729 26-02-2014 12:40:00 10.3 C 7.18 g/m*3 9.34 C 8.1 km/h
730 26-02-2014 12:45:00 10.4 C 7.04 g/m*3 8.9 C 11.3 km/h
731 26-02-2014 12:50:00 10.5 C 7.18 g/m*3 9.02 C 11.3 km/h
732 26-02-2014 12:55:00 10.6 C 7.12 g/m*3 10.06 C 6.4 km/h
733 26-02-2014 13:00:00 10.6 C 7.22 g/m*3 10.6 C 4.8 km/h
734 26-02-2014 13:05:00 10.6 C 7.22 g/m*3 10.06 C 6.4 km/h
735 26-02-2014 13:10:00 10.7 C 7.07 g/m*3 9.52 C 9.7 km/h
736 26-02-2014 13:15:00 10.8 C 7.12 g/m*3 9.93 C 8.1 km/h
737 26-02-2014 13:20:00 10.8 C 7.02 g/m*3 10.29 C 6.4 km/h
738 26-02-2014 13:25:00 10.8 C 6.92 g/m*3 9.93 C 8.1 km/h
739 26-02-2014 13:30:00 10.8 C 6.92 g/m*3 9.93 C 8.1 km/h
740 26-02-2014 13:35:00 10.9 C 6.96 g/m*3 9.76 C 9.7 km/h
741 26-02-2014 13:40:00 10.9 C 6.86 g/m*3 10.9 C 4.8 km/h
742 26-02-2014 13:45:00 10.9 C 7.06 g/m*3 10.41 C 6.4 km/h
743 26-02-2014 13:50:00 11.1 C 7.05 g/m*3 11.1 C 4.8 km/h
744 26-02-2014 13:55:00 11.1 C 6.95 g/m*3 11.1 C 6.4 km/h
745 26-02-2014 14:00:00 11.1 C 6.95 g/m*3 11.1 C 6.4 km/h
746 26-02-2014 14:05:00 11.2 C 6.99 g/m*3 11.2 C 8.1 km/h
747 26-02-2014 14:10:00 11.4 C 7.19 g/m*3 11.4 C 9.7 km/h
748 26-02-2014 14:15:00 11.4 C 6.98 g/m*3 11.4 C 6.4 km/h
749 26-02-2014 14:20:00 11.4 C 7.19 g/m*3 11.4 C 6.4 km/h
750 26-02-2014 14:25:00 11.4 C 7.08 g/m*3 11.4 C 9.7 km/h
Sensor: Nr:Datum:Temp:Abs-Feuchte:Windchill:Wind:
Aussen-T/F 751 26-02-2014 14:30:00 11.4 C 6.98 g/m*3 11.4 C 9.7 km/h
752 26-02-2014 14:35:00 11.3 C 6.94 g/m*3 11.3 C 8.1 km/h
753 26-02-2014 14:40:00 11.3 C 6.94 g/m*3 11.3 C 9.7 km/h
754 26-02-2014 14:45:00 11.2 C 6.89 g/m*3 11.2 C 8.1 km/h
755 26-02-2014 14:50:00 11.2 C 6.99 g/m*3 11.2 C 6.4 km/h
756 26-02-2014 14:55:00 11.1 C 6.95 g/m*3 11.1 C 4.8 km/h
757 26-02-2014 15:00:00 11 C 7.01 g/m*3 9.4 C 12.9 km/h
758 26-02-2014 15:05:00 10.9 C 6.76 g/m*3 10.41 C 6.4 km/h
759 26-02-2014 15:10:00 10.8 C 7.02 g/m*3 9.93 C 8.1 km/h
760 26-02-2014 15:15:00 10.8 C 7.12 g/m*3 9.93 C 8.1 km/h
761 26-02-2014 15:20:00 10.8 C 7.12 g/m*3 10.8 C 4.8 km/h
762 26-02-2014 15:25:00 10.8 C 7.12 g/m*3 10.8 C 3.2 km/h
763 26-02-2014 15:30:00 10.7 C 6.88 g/m*3 10.7 C 3.2 km/h
764 26-02-2014 15:35:00 10.7 C 6.78 g/m*3 9.81 C 8.1 km/h
765 26-02-2014 15:40:00 10.6 C 6.83 g/m*3 10.6 C 4.8 km/h
766 26-02-2014 15:45:00 10.6 C 6.83 g/m*3 10.06 C 6.4 km/h
767 26-02-2014 15:50:00 10.5 C 6.79 g/m*3 10.5 C 4.8 km/h
768 26-02-2014 15:55:00 10.4 C 6.75 g/m*3 10.4 C 1.6 km/h
769 26-02-2014 16:00:00 10.4 C 6.75 g/m*3 10.4 C 0 km/h
770 26-02-2014 16:05:00 10.3 C 6.7 g/m*3 10.3 C 3.2 km/h
771 26-02-2014 16:10:00 10.3 C 6.7 g/m*3 10.3 C 1.6 km/h
772 26-02-2014 16:15:00 10.3 C 6.8 g/m*3 10.3 C 4.8 km/h
773 26-02-2014 16:20:00 10.3 C 6.8 g/m*3 10.3 C 0 km/h
774 26-02-2014 16:25:00 10.4 C 7.23 g/m*3 10.4 C 4.8 km/h
775 26-02-2014 16:30:00 10.5 C 7.18 g/m*3 10.5 C 3.2 km/h
Sensor: Nr:Datum:Temp:Abs-Feuchte:Windchill:Wind:
Aussen-T/F 776 26-02-2014 16:35:00 10.5 C 7.18 g/m*3 10.5 C 1.6 km/h
777 26-02-2014 16:40:00 10.5 C 7.18 g/m*3 10.5 C 4.8 km/h
778 26-02-2014 16:45:00 10.5 C 7.18 g/m*3 10.5 C 3.2 km/h
779 26-02-2014 16:50:00 10.5 C 7.18 g/m*3 10.5 C 3.2 km/h
780 26-02-2014 16:55:00 10.4 C 7.13 g/m*3 10.4 C 3.2 km/h
781 26-02-2014 17:00:00 10.3 C 7.09 g/m*3 10.3 C 1.6 km/h
782 26-02-2014 17:05:00 10.3 C 7.18 g/m*3 10.3 C 0 km/h
783 26-02-2014 17:10:00 10.2 C 7.14 g/m*3 10.2 C 0 km/h
784 26-02-2014 17:15:00 10.1 C 7.09 g/m*3 10.1 C 0 km/h
785 26-02-2014 17:20:00 10 C 7.24 g/m*3 10 C 0 km/h
786 26-02-2014 17:25:00 9.9 C 7.19 g/m*3 9.9 C 0 km/h
787 26-02-2014 17:30:00 9.8 C 7.14 g/m*3 9.8 C 0 km/h
788 26-02-2014 17:35:00 9.7 C 7.28 g/m*3 9.7 C 0 km/h
789 26-02-2014 17:40:00 9.6 C 7.24 g/m*3 9.6 C 0 km/h
790 26-02-2014 17:45:00 9.5 C 7.19 g/m*3 9.5 C 0 km/h
791 26-02-2014 17:50:00 9.3 C 7.1 g/m*3 9.3 C 3.2 km/h
792 26-02-2014 17:55:00 9.2 C 7.14 g/m*3 9.2 C 3.2 km/h
793 26-02-2014 18:00:00 9.2 C 7.14 g/m*3 9.2 C 3.2 km/h
794 26-02-2014 18:05:00 9.1 C 7.19 g/m*3 9.1 C 3.2 km/h
795 26-02-2014 18:10:00 8.9 C 7.18 g/m*3 8.9 C 3.2 km/h
796 26-02-2014 18:15:00 8.8 C 7.14 g/m*3 8.8 C 3.2 km/h
797 26-02-2014 18:20:00 8.8 C 7.14 g/m*3 8.8 C 3.2 km/h
798 26-02-2014 18:25:00 8.7 C 7.09 g/m*3 8.7 C 3.2 km/h
799 26-02-2014 18:30:00 8.7 C 7.09 g/m*3 8.7 C 3.2 km/h
800 26-02-2014 18:35:00 8.6 C 7.05 g/m*3 8.6 C 3.2 km/h
Sensor: Nr:Datum:Temp:Abs-Feuchte:Windchill:Wind:
Aussen-T/F 801 26-02-2014 18:40:00 8.6 C 7.05 g/m*3 8.6 C 3.2 km/h
802 26-02-2014 18:45:00 8.6 C 7.05 g/m*3 8.6 C 4.8 km/h
803 26-02-2014 18:50:00 8.4 C 7.04 g/m*3 8.4 C 3.2 km/h
804 26-02-2014 18:55:00 8.4 C 7.04 g/m*3 8.4 C 3.2 km/h
805 26-02-2014 19:00:00 8.3 C 7 g/m*3 8.3 C 3.2 km/h
806 26-02-2014 19:05:00 8.3 C 7 g/m*3 8.3 C 3.2 km/h
807 26-02-2014 19:10:00 8.3 C 7 g/m*3 8.3 C 3.2 km/h
808 26-02-2014 19:15:00 8.3 C 7 g/m*3 8.3 C 3.2 km/h
809 26-02-2014 19:20:00 8.2 C 6.95 g/m*3 8.2 C 3.2 km/h
810 26-02-2014 19:25:00 8.2 C 7.03 g/m*3 8.2 C 4.8 km/h
811 26-02-2014 19:30:00 8.1 C 6.99 g/m*3 8.1 C 1.6 km/h
812 26-02-2014 19:35:00 8 C 7.03 g/m*3 8 C 3.2 km/h
813 26-02-2014 19:40:00 7.9 C 6.9 g/m*3 7.9 C 3.2 km/h
814 26-02-2014 19:45:00 7.9 C 6.98 g/m*3 7.9 C 3.2 km/h
815 26-02-2014 19:50:00 7.8 C 6.94 g/m*3 7.8 C 4.8 km/h
816 26-02-2014 19:55:00 7.8 C 6.94 g/m*3 7.8 C 3.2 km/h
817 26-02-2014 20:00:00 7.7 C 6.89 g/m*3 7.7 C 0 km/h
818 26-02-2014 20:05:00 7.7 C 6.89 g/m*3 7.7 C 1.6 km/h
819 26-02-2014 20:10:00 7.6 C 6.85 g/m*3 7.6 C 1.6 km/h
820 26-02-2014 20:15:00 7.6 C 6.93 g/m*3 7.6 C 0 km/h
821 26-02-2014 20:20:00 7.5 C 6.88 g/m*3 7.5 C 1.6 km/h
822 26-02-2014 20:25:00 7.5 C 6.88 g/m*3 7.5 C 0 km/h
823 26-02-2014 20:30:00 7.4 C 6.84 g/m*3 7.4 C 0 km/h
824 26-02-2014 20:35:00 7.4 C 6.92 g/m*3 7.4 C 3.2 km/h
825 26-02-2014 20:40:00 7.4 C 6.92 g/m*3 7.4 C 1.6 km/h
Sensor: Nr:Datum:Temp:Abs-Feuchte:Windchill:Wind:
Aussen-T/F 826 26-02-2014 20:45:00 7.4 C 6.92 g/m*3 7.4 C 3.2 km/h
827 26-02-2014 20:50:00 7.4 C 6.92 g/m*3 7.4 C 1.6 km/h
828 26-02-2014 22:00:00 7.4 C 6.84 g/m*3 7.4 C 4.8 km/h
829 26-02-2014 22:05:00 7.4 C 6.92 g/m*3 7.4 C 1.6 km/h
830 26-02-2014 22:10:00 7.4 C 6.84 g/m*3 7.4 C 0 km/h
831 26-02-2014 22:15:00 7.4 C 6.84 g/m*3 7.4 C 4.8 km/h
832 26-02-2014 22:20:00 7.5 C 6.88 g/m*3 7.5 C 3.2 km/h
833 26-02-2014 22:25:00 7.6 C 6.77 g/m*3 7.6 C 0 km/h
834 26-02-2014 22:30:00 7.6 C 6.93 g/m*3 7.6 C 0 km/h
835 26-02-2014 22:35:00 7.5 C 6.8 g/m*3 7.5 C 3.2 km/h
836 26-02-2014 22:40:00 7.5 C 6.8 g/m*3 7.5 C 3.2 km/h
837 26-02-2014 22:45:00 7.6 C 6.85 g/m*3 7.6 C 1.6 km/h
838 26-02-2014 22:50:00 7.6 C 6.85 g/m*3 7.6 C 0 km/h
839 26-02-2014 22:55:00 7.4 C 6.76 g/m*3 7.4 C 0 km/h
840 26-02-2014 23:00:00 7.4 C 6.76 g/m*3 7.4 C 0 km/h
841 26-02-2014 23:05:00 7.3 C 6.79 g/m*3 7.3 C 1.6 km/h
842 26-02-2014 23:10:00 7.3 C 6.79 g/m*3 7.3 C 0 km/h
843 26-02-2014 23:15:00 7.2 C 6.83 g/m*3 7.2 C 0 km/h
844 26-02-2014 23:20:00 7.1 C 6.79 g/m*3 7.1 C 3.2 km/h
845 26-02-2014 23:25:00 7.1 C 6.79 g/m*3 7.1 C 0 km/h
846 26-02-2014 23:30:00 7 C 6.66 g/m*3 7 C 1.6 km/h
847 26-02-2014 23:35:00 6.9 C 6.7 g/m*3 6.9 C 0 km/h
848 26-02-2014 23:40:00 6.8 C 6.65 g/m*3 6.8 C 3.2 km/h
849 26-02-2014 23:45:00 6.6 C 6.57 g/m*3 6.6 C 4.8 km/h
850 26-02-2014 23:50:00 6.5 C 6.52 g/m*3 6.5 C 4.8 km/h
Sensor: Nr:Datum:Temp:Abs-Feuchte:Windchill:Wind:
Aussen-T/F 851 26-02-2014 23:55:00 6.4 C 6.56 g/m*3 6.4 C 4.8 km/h
852 27-02-2014 00:00:00 6.3 C 6.51 g/m*3 5.1 C 6.4 km/h
853 27-02-2014 00:05:00 6.3 C 6.51 g/m*3 6.3 C 4.8 km/h
854 27-02-2014 00:10:00 6.3 C 6.59 g/m*3 6.3 C 3.2 km/h
855 27-02-2014 00:15:00 6.2 C 6.47 g/m*3 6.2 C 3.2 km/h
856 27-02-2014 00:20:00 6.1 C 6.5 g/m*3 6.1 C 3.2 km/h
857 27-02-2014 00:25:00 5.9 C 6.42 g/m*3 5.9 C 4.8 km/h
858 27-02-2014 00:30:00 5.8 C 6.45 g/m*3 5.8 C 1.6 km/h
859 27-02-2014 00:35:00 5.8 C 6.45 g/m*3 5.8 C 0 km/h
860 27-02-2014 00:40:00 5.8 C 6.45 g/m*3 5.8 C 0 km/h
861 27-02-2014 00:45:00 5.7 C 6.4 g/m*3 5.7 C 0 km/h
862 27-02-2014 00:50:00 5.6 C 6.36 g/m*3 5.6 C 0 km/h
863 27-02-2014 00:55:00 5.6 C 6.36 g/m*3 5.6 C 1.6 km/h
864 27-02-2014 01:00:00 5.5 C 6.39 g/m*3 5.5 C 3.2 km/h
865 27-02-2014 01:05:00 5.6 C 6.43 g/m*3 5.6 C 3.2 km/h
866 27-02-2014 01:10:00 5.6 C 6.43 g/m*3 5.6 C 3.2 km/h
867 27-02-2014 01:15:00 5.4 C 6.28 g/m*3 5.4 C 1.6 km/h
868 27-02-2014 01:20:00 5.3 C 6.24 g/m*3 5.3 C 0 km/h
869 27-02-2014 01:25:00 5.1 C 6.16 g/m*3 5.1 C 0 km/h
870 27-02-2014 01:30:00 4.9 C 6.14 g/m*3 4.9 C 0 km/h
871 27-02-2014 01:35:00 4.7 C 6.06 g/m*3 4.7 C 0 km/h
872 27-02-2014 01:40:00 4.6 C 6.09 g/m*3 4.6 C 0 km/h
873 27-02-2014 01:45:00 4.6 C 6.09 g/m*3 4.6 C 0 km/h
874 27-02-2014 01:50:00 4.4 C 6.01 g/m*3 4.4 C 1.6 km/h
875 27-02-2014 01:55:00 4.3 C 5.97 g/m*3 4.3 C 3.2 km/h
Sensor: Nr:Datum:Temp:Abs-Feuchte:Windchill:Wind:
Aussen-T/F 876 27-02-2014 02:00:00 4.2 C 5.93 g/m*3 4.2 C 0 km/h
877 27-02-2014 02:05:00 4.2 C 5.99 g/m*3 4.2 C 0 km/h
878 27-02-2014 02:10:00 4.2 C 5.99 g/m*3 4.2 C 1.6 km/h
879 27-02-2014 02:15:00 4.1 C 5.95 g/m*3 4.1 C 1.6 km/h
880 27-02-2014 02:20:00 4.1 C 5.95 g/m*3 4.1 C 0 km/h
881 27-02-2014 02:25:00 4.1 C 5.95 g/m*3 4.1 C 0 km/h
882 27-02-2014 02:30:00 4.1 C 5.95 g/m*3 4.1 C 3.2 km/h
883 27-02-2014 02:35:00 4.1 C 5.95 g/m*3 4.1 C 1.6 km/h
884 27-02-2014 02:40:00 3.9 C 5.87 g/m*3 3.9 C 1.6 km/h
885 27-02-2014 02:45:00 3.8 C 5.83 g/m*3 3.8 C 0 km/h
886 27-02-2014 02:50:00 3.8 C 5.83 g/m*3 3.8 C 0 km/h
887 27-02-2014 02:55:00 3.8 C 5.83 g/m*3 3.8 C 0 km/h
888 27-02-2014 03:00:00 3.8 C 5.83 g/m*3 3.8 C 0 km/h
889 27-02-2014 03:05:00 3.5 C 5.72 g/m*3 3.5 C 0 km/h
890 27-02-2014 03:10:00 3.4 C 5.74 g/m*3 3.4 C 0 km/h
891 27-02-2014 03:15:00 3.4 C 5.74 g/m*3 3.4 C 0 km/h
892 27-02-2014 03:20:00 3.3 C 5.7 g/m*3 3.3 C 0 km/h
893 27-02-2014 03:25:00 3.3 C 5.7 g/m*3 3.3 C 0 km/h
894 27-02-2014 03:30:00 3.2 C 5.66 g/m*3 3.2 C 0 km/h
895 27-02-2014 03:35:00 3.2 C 5.66 g/m*3 3.2 C 1.6 km/h
896 27-02-2014 03:40:00 3.1 C 5.63 g/m*3 3.1 C 0 km/h
897 27-02-2014 03:45:00 3.1 C 5.63 g/m*3 3.1 C 0 km/h
898 27-02-2014 03:50:00 2.9 C 5.55 g/m*3 2.9 C 0 km/h
899 27-02-2014 03:55:00 2.9 C 5.55 g/m*3 2.9 C 0 km/h
900 27-02-2014 04:00:00 2.8 C 5.51 g/m*3 2.8 C 0 km/h
Sensor: Nr:Datum:Temp:Abs-Feuchte:Windchill:Wind:
Aussen-T/F 901 27-02-2014 04:05:00 2.8 C 5.51 g/m*3 2.8 C 0 km/h
902 27-02-2014 04:10:00 2.7 C 5.48 g/m*3 2.7 C 0 km/h
903 27-02-2014 04:15:00 2.6 C 5.44 g/m*3 2.6 C 0 km/h
904 27-02-2014 04:20:00 2.4 C 5.42 g/m*3 2.4 C 1.6 km/h
905 27-02-2014 04:25:00 2.4 C 5.42 g/m*3 2.4 C 1.6 km/h
906 27-02-2014 04:30:00 2.6 C 5.5 g/m*3 2.6 C 3.2 km/h
907 27-02-2014 04:35:00 2.7 C 5.59 g/m*3 2.7 C 1.6 km/h
908 27-02-2014 04:40:00 2.8 C 5.63 g/m*3 2.8 C 3.2 km/h
909 27-02-2014 04:45:00 2.8 C 5.57 g/m*3 2.8 C 1.6 km/h
910 27-02-2014 04:50:00 2.7 C 5.54 g/m*3 2.7 C 1.6 km/h
911 27-02-2014 04:55:00 2.6 C 5.5 g/m*3 2.6 C 0 km/h
912 27-02-2014 05:00:00 2.4 C 5.42 g/m*3 2.4 C 0 km/h
913 27-02-2014 05:05:00 2.2 C 5.35 g/m*3 2.2 C 0 km/h
914 27-02-2014 05:10:00 2.1 C 5.31 g/m*3 2.1 C 0 km/h
915 27-02-2014 05:15:00 2 C 5.28 g/m*3 2 C 0 km/h
916 27-02-2014 05:20:00 1.9 C 5.24 g/m*3 1.9 C 1.6 km/h
917 27-02-2014 05:25:00 1.9 C 5.24 g/m*3 1.9 C 0 km/h
918 27-02-2014 05:30:00 1.8 C 5.21 g/m*3 1.8 C 3.2 km/h
919 27-02-2014 05:35:00 1.9 C 5.24 g/m*3 1.9 C 1.6 km/h
920 27-02-2014 05:40:00 1.8 C 5.21 g/m*3 1.8 C 1.6 km/h
921 27-02-2014 05:45:00 1.7 C 5.17 g/m*3 1.7 C 0 km/h
922 27-02-2014 05:50:00 1.7 C 5.17 g/m*3 1.7 C 0 km/h
923 27-02-2014 05:55:00 1.6 C 5.14 g/m*3 1.6 C 3.2 km/h
924 27-02-2014 06:00:00 1.6 C 5.19 g/m*3 1.6 C 0 km/h
925 27-02-2014 06:05:00 1.7 C 5.23 g/m*3 1.7 C 0 km/h
Sensor: Nr:Datum:Temp:Abs-Feuchte:Windchill:Wind:
Aussen-T/F 926 27-02-2014 06:10:00 1.7 C 5.23 g/m*3 1.7 C 0 km/h
927 27-02-2014 06:15:00 1.7 C 5.23 g/m*3 1.7 C 0 km/h
928 27-02-2014 06:20:00 1.7 C 5.23 g/m*3 1.7 C 0 km/h
929 27-02-2014 06:25:00 1.7 C 5.23 g/m*3 1.7 C 0 km/h
930 27-02-2014 06:30:00 1.5 C 5.16 g/m*3 1.5 C 3.2 km/h
931 27-02-2014 06:35:00 1.4 C 5.07 g/m*3 1.4 C 0 km/h
932 27-02-2014 06:40:00 1.4 C 5.12 g/m*3 1.4 C 1.6 km/h
933 27-02-2014 06:45:00 1.5 C 5.16 g/m*3 1.5 C 3.2 km/h
934 27-02-2014 06:50:00 1.5 C 5.16 g/m*3 1.5 C 3.2 km/h
935 27-02-2014 06:55:00 1.5 C 5.16 g/m*3 1.5 C 0 km/h
936 27-02-2014 07:00:00 1.4 C 5.12 g/m*3 1.4 C 1.6 km/h
937 27-02-2014 07:05:00 1.4 C 5.12 g/m*3 1.4 C 0 km/h
938 27-02-2014 07:10:00 1.4 C 5.12 g/m*3 -1.12 C 8.1 km/h
939 27-02-2014 07:15:00 1.4 C 5.12 g/m*3 1.4 C 3.2 km/h
940 27-02-2014 07:20:00 1.4 C 5.12 g/m*3 1.4 C 0 km/h
941 27-02-2014 07:25:00 1.3 C 5.09 g/m*3 1.3 C 0 km/h
942 27-02-2014 07:30:00 1.3 C 5.09 g/m*3 1.3 C 0 km/h
943 27-02-2014 07:35:00 1.3 C 5.09 g/m*3 1.3 C 0 km/h
944 27-02-2014 07:40:00 1.3 C 5.09 g/m*3 1.3 C 0 km/h
945 27-02-2014 07:45:00 1.2 C 5.05 g/m*3 1.2 C 0 km/h
946 27-02-2014 07:50:00 1.2 C 5.05 g/m*3 1.2 C 0 km/h
947 27-02-2014 07:55:00 1.2 C 5.05 g/m*3 1.2 C 1.6 km/h
948 27-02-2014 08:00:00 1.1 C 5.02 g/m*3 1.1 C 0 km/h
949 27-02-2014 08:05:00 1.1 C 5.02 g/m*3 1.1 C 0 km/h
950 27-02-2014 08:10:00 1.1 C 5.02 g/m*3 1.1 C 0 km/h
Sensor: Nr:Datum:Temp:Abs-Feuchte:Windchill:Wind:
Aussen-T/F 951 27-02-2014 08:15:00 1.1 C 5.02 g/m*3 1.1 C 0 km/h
952 27-02-2014 09:20:00 1.6 C 5.25 g/m*3 1.6 C 0 km/h
953 27-02-2014 09:25:00 1.6 C 5.25 g/m*3 1.6 C 3.2 km/h
954 27-02-2014 09:30:00 1.6 C 5.25 g/m*3 1.6 C 0 km/h
955 27-02-2014 11:20:00 5.9 C 7.21 g/m*3 5.9 C 3.2 km/h
956 27-02-2014 11:25:00 6.4 C 6.85 g/m*3 6.4 C 1.6 km/h
957 27-02-2014 11:30:00 6.7 C 6.99 g/m*3 6.7 C 3.2 km/h
958 27-02-2014 11:35:00 7.1 C 7.02 g/m*3 4.92 C 11.3 km/h
959 27-02-2014 11:40:00 7.8 C 6.86 g/m*3 5.77 C 11.3 km/h
960 27-02-2014 11:45:00 8.4 C 6.62 g/m*3 7.11 C 8.1 km/h
961 27-02-2014 11:50:00 8.8 C 6.53 g/m*3 6.5 C 14.5 km/h
962 27-02-2014 11:55:00 9.1 C 6.48 g/m*3 8.33 C 6.4 km/h
963 27-02-2014 12:00:00 9.3 C 6.38 g/m*3 7.33 C 12.9 km/h
964 27-02-2014 12:05:00 9.4 C 6.42 g/m*3 7.97 C 9.7 km/h
965 27-02-2014 12:10:00 9.6 C 6.41 g/m*3 7.94 C 11.3 km/h
966 27-02-2014 12:15:00 9.7 C 6.55 g/m*3 9.02 C 6.4 km/h
967 27-02-2014 12:20:00 9.8 C 6.59 g/m*3 9.14 C 6.4 km/h
968 27-02-2014 12:25:00 10.1 C 6.52 g/m*3 8.54 C 11.3 km/h
969 27-02-2014 12:30:00 10.1 C 6.43 g/m*3 8.1 C 14.5 km/h
970 27-02-2014 12:35:00 10.1 C 6.43 g/m*3 8.1 C 14.5 km/h
971 27-02-2014 12:40:00 10.1 C 6.34 g/m*3 8.8 C 9.7 km/h
972 27-02-2014 12:45:00 9.9 C 6.26 g/m*3 7.32 C 19.3 km/h
973 27-02-2014 12:50:00 10 C 6.48 g/m*3 9.37 C 6.4 km/h
974 27-02-2014 12:55:00 10.1 C 6.34 g/m*3 8.8 C 9.7 km/h
975 27-02-2014 13:00:00 10 C 6.39 g/m*3 7.98 C 14.5 km/h
Sensor: Nr:Datum:Temp:Abs-Feuchte:Windchill:Wind:
Aussen-T/F 976 27-02-2014 13:05:00 10.1 C 6.43 g/m*3 8.8 C 9.7 km/h
977 27-02-2014 13:10:00 10.1 C 6.34 g/m*3 10.1 C 4.8 km/h
978 27-02-2014 13:15:00 10.1 C 6.34 g/m*3 8.54 C 11.3 km/h
979 27-02-2014 13:20:00 10 C 6.2 g/m*3 8.19 C 12.9 km/h
980 27-02-2014 13:25:00 9.9 C 6.16 g/m*3 8.06 C 12.9 km/h
981 27-02-2014 13:30:00 9.7 C 6.08 g/m*3 7.82 C 12.9 km/h
982 27-02-2014 13:35:00 9.6 C 6.14 g/m*3 7.48 C 14.5 km/h
983 27-02-2014 13:40:00 9.6 C 6.14 g/m*3 8.21 C 9.7 km/h
984 27-02-2014 13:45:00 9.6 C 6.23 g/m*3 7.48 C 14.5 km/h
985 27-02-2014 13:50:00 9.6 C 6.23 g/m*3 7.7 C 12.9 km/h
986 27-02-2014 13:55:00 9.6 C 6.23 g/m*3 8.21 C 9.7 km/h
987 27-02-2014 14:00:00 9.6 C 6.23 g/m*3 8.52 C 8.1 km/h
988 27-02-2014 14:05:00 9.7 C 6.36 g/m*3 7.61 C 14.5 km/h
989 27-02-2014 14:10:00 9.8 C 6.22 g/m*3 9.14 C 6.4 km/h
990 27-02-2014 14:15:00 9.9 C 6.26 g/m*3 8.87 C 8.1 km/h
991 27-02-2014 14:20:00 10 C 6.2 g/m*3 10 C 4.8 km/h
992 27-02-2014 14:25:00 10.1 C 6.34 g/m*3 9.1 C 8.1 km/h
993 27-02-2014 14:30:00 10.1 C 6.43 g/m*3 8.54 C 11.3 km/h
994 27-02-2014 14:35:00 10.2 C 6.19 g/m*3 9.6 C 6.4 km/h
995 27-02-2014 14:40:00 10.2 C 6.19 g/m*3 9.22 C 8.1 km/h
996 27-02-2014 14:45:00 10.2 C 6.19 g/m*3 9.6 C 6.4 km/h
997 27-02-2014 14:50:00 10.3 C 6.22 g/m*3 8.55 C 12.9 km/h
998 27-02-2014 14:55:00 10.4 C 6.26 g/m*3 9.46 C 8.1 km/h
999 27-02-2014 15:00:00 10.6 C 6.15 g/m*3 8.92 C 12.9 km/h
1000 27-02-2014 15:05:00 10.7 C 6.38 g/m*3 9.81 C 8.1 km/h
Sensor: Nr:Datum:Temp:Abs-Feuchte:Windchill:Wind:
Aussen-T/F 1001 27-02-2014 15:10:00 10.7 C 6.19 g/m*3 9.04 C 12.9 km/h
1002 27-02-2014 15:15:00 10.7 C 6.19 g/m*3 10.18 C 6.4 km/h
1003 27-02-2014 15:20:00 10.7 C 6.09 g/m*3 9.81 C 8.1 km/h
1004 27-02-2014 15:25:00 10.7 C 6.09 g/m*3 9.26 C 11.3 km/h
1005 27-02-2014 15:30:00 10.6 C 6.05 g/m*3 9.69 C 8.1 km/h
1006 27-02-2014 15:35:00 10.6 C 6.05 g/m*3 9.14 C 11.3 km/h
1007 27-02-2014 15:40:00 10.6 C 6.05 g/m*3 8.92 C 12.9 km/h
1008 27-02-2014 15:45:00 10.5 C 6.01 g/m*3 9.95 C 6.4 km/h
1009 27-02-2014 15:50:00 10.4 C 5.98 g/m*3 9.83 C 6.4 km/h
1010 27-02-2014 15:55:00 10.4 C 5.88 g/m*3 9.16 C 9.7 km/h
1011 27-02-2014 16:00:00 10.3 C 5.84 g/m*3 8.78 C 11.3 km/h
1012 27-02-2014 16:05:00 10.2 C 5.71 g/m*3 8.66 C 11.3 km/h
1013 27-02-2014 16:10:00 10.1 C 5.67 g/m*3 9.1 C 8.1 km/h
1014 27-02-2014 16:15:00 10 C 5.64 g/m*3 10 C 1.6 km/h
1015 27-02-2014 16:20:00 9.9 C 5.79 g/m*3 9.9 C 3.2 km/h
1016 27-02-2014 16:25:00 9.8 C 5.66 g/m*3 9.14 C 6.4 km/h
1017 27-02-2014 16:30:00 9.8 C 5.57 g/m*3 8.45 C 9.7 km/h
1018 27-02-2014 16:35:00 9.8 C 5.66 g/m*3 9.8 C 3.2 km/h
1019 27-02-2014 16:40:00 9.7 C 5.62 g/m*3 8.33 C 9.7 km/h
1020 27-02-2014 16:45:00 9.7 C 5.62 g/m*3 9.7 C 3.2 km/h
1021 27-02-2014 16:50:00 9.6 C 5.77 g/m*3 9.6 C 4.8 km/h
1022 27-02-2014 16:55:00 9.6 C 5.77 g/m*3 8.91 C 6.4 km/h
1023 27-02-2014 17:00:00 9.5 C 5.83 g/m*3 8.4 C 8.1 km/h
1024 27-02-2014 17:05:00 9.4 C 5.88 g/m*3 9.4 C 4.8 km/h
1025 27-02-2014 17:10:00 9.4 C 5.79 g/m*3 9.4 C 4.8 km/h
Sensor: Nr:Datum:Temp:Abs-Feuchte:Windchill:Wind:
Aussen-T/F 1026 27-02-2014 17:15:00 9.4 C 5.79 g/m*3 9.4 C 3.2 km/h
1027 27-02-2014 17:20:00 9.3 C 5.93 g/m*3 9.3 C 4.8 km/h
1028 27-02-2014 17:25:00 9.3 C 5.84 g/m*3 9.3 C 4.8 km/h
1029 27-02-2014 17:30:00 9.3 C 5.84 g/m*3 8.56 C 6.4 km/h
1030 27-02-2014 17:35:00 9.3 C 5.75 g/m*3 9.3 C 4.8 km/h
1031 27-02-2014 17:40:00 9.3 C 5.75 g/m*3 9.3 C 3.2 km/h
1032 27-02-2014 17:45:00 9.2 C 5.89 g/m*3 9.2 C 1.6 km/h
1033 27-02-2014 17:50:00 9.1 C 5.86 g/m*3 9.1 C 4.8 km/h
1034 27-02-2014 17:55:00 9.1 C 5.94 g/m*3 9.1 C 3.2 km/h
1035 27-02-2014 18:00:00 8.9 C 5.87 g/m*3 7.09 C 11.3 km/h
1036 27-02-2014 18:05:00 8.9 C 5.87 g/m*3 6.62 C 14.5 km/h
1037 27-02-2014 18:10:00 8.8 C 5.92 g/m*3 6.11 C 17.7 km/h
1038 27-02-2014 18:15:00 8.4 C 6.28 g/m*3 6.01 C 14.5 km/h
1039 27-02-2014 18:20:00 7.9 C 6.32 g/m*3 5.89 C 11.3 km/h
1040 27-02-2014 18:25:00 7.6 C 6.44 g/m*3 6.16 C 8.1 km/h
1041 27-02-2014 18:30:00 7.3 C 6.32 g/m*3 7.3 C 4.8 km/h
1042 27-02-2014 18:35:00 7.2 C 6.36 g/m*3 7.2 C 1.6 km/h
1043 27-02-2014 18:40:00 7.2 C 6.28 g/m*3 7.2 C 1.6 km/h
1044 27-02-2014 18:45:00 7.1 C 6.4 g/m*3 6.02 C 6.4 km/h
1045 27-02-2014 18:50:00 7 C 6.28 g/m*3 5.46 C 8.1 km/h
1046 27-02-2014 18:55:00 6.9 C 6.39 g/m*3 6.9 C 0 km/h
1047 27-02-2014 19:00:00 6.8 C 6.35 g/m*3 5.22 C 8.1 km/h
1048 27-02-2014 19:05:00 6.8 C 6.42 g/m*3 6.8 C 1.6 km/h
1049 27-02-2014 19:10:00 6.7 C 6.31 g/m*3 5.56 C 6.4 km/h
1050 27-02-2014 19:15:00 6.7 C 6.38 g/m*3 5.11 C 8.1 km/h
Sensor: Nr:Datum:Temp:Abs-Feuchte:Windchill:Wind:
Aussen-T/F 1051 27-02-2014 19:20:00 6.5 C 6.37 g/m*3 4.87 C 8.1 km/h
1052 27-02-2014 19:25:00 6.4 C 6.33 g/m*3 6.4 C 1.6 km/h
1053 27-02-2014 19:30:00 6.3 C 6.37 g/m*3 6.3 C 3.2 km/h
1054 27-02-2014 19:35:00 6.2 C 6.32 g/m*3 6.2 C 3.2 km/h
1055 27-02-2014 19:40:00 6.1 C 6.43 g/m*3 6.1 C 1.6 km/h
1056 27-02-2014 19:45:00 6 C 6.31 g/m*3 6 C 1.6 km/h
1057 27-02-2014 19:50:00 5.9 C 6.27 g/m*3 5.9 C 4.8 km/h
1058 27-02-2014 19:55:00 5.9 C 6.35 g/m*3 5.9 C 3.2 km/h
1059 27-02-2014 20:00:00 5.9 C 6.42 g/m*3 5.9 C 3.2 km/h
1060 27-02-2014 20:05:00 5.8 C 6.38 g/m*3 5.8 C 3.2 km/h
1061 27-02-2014 20:10:00 5.7 C 6.4 g/m*3 5.7 C 0 km/h
1062 27-02-2014 20:15:00 5.6 C 6.43 g/m*3 5.6 C 3.2 km/h
1063 27-02-2014 20:20:00 5.5 C 6.32 g/m*3 5.5 C 4.8 km/h
1064 27-02-2014 20:25:00 5.5 C 6.39 g/m*3 5.5 C 1.6 km/h
1065 27-02-2014 20:30:00 5.4 C 6.42 g/m*3 5.4 C 0 km/h
1066 27-02-2014 20:35:00 5.4 C 6.42 g/m*3 5.4 C 0 km/h
1067 27-02-2014 20:40:00 5.3 C 6.38 g/m*3 5.3 C 0 km/h
1068 27-02-2014 20:45:00 5.2 C 6.4 g/m*3 5.2 C 1.6 km/h
1069 27-02-2014 20:50:00 5.2 C 6.4 g/m*3 5.2 C 0 km/h
1070 27-02-2014 20:55:00 5.2 C 6.47 g/m*3 5.2 C 0 km/h
1071 27-02-2014 21:00:00 5.1 C 6.43 g/m*3 5.1 C 0 km/h
1072 27-02-2014 21:05:00 5.1 C 6.43 g/m*3 5.1 C 0 km/h
1073 27-02-2014 21:10:00 5.1 C 6.43 g/m*3 5.1 C 0 km/h
1074 27-02-2014 21:15:00 5 C 6.39 g/m*3 5 C 0 km/h
1075 27-02-2014 21:20:00 5 C 6.39 g/m*3 5 C 0 km/h
Sensor: Nr:Datum:Temp:Abs-Feuchte:Windchill:Wind:
Aussen-T/F 1076 27-02-2014 21:25:00 4.9 C 6.41 g/m*3 4.9 C 3.2 km/h
1077 27-02-2014 21:30:00 4.9 C 6.41 g/m*3 4.9 C 0 km/h
1078 27-02-2014 21:35:00 4.9 C 6.41 g/m*3 4.9 C 0 km/h
1079 27-02-2014 21:40:00 4.9 C 6.41 g/m*3 4.9 C 0 km/h
1080 27-02-2014 21:45:00 4.9 C 6.41 g/m*3 4.9 C 0 km/h
1081 27-02-2014 21:50:00 4.9 C 6.41 g/m*3 4.9 C 3.2 km/h
1082 27-02-2014 21:55:00 4.9 C 6.41 g/m*3 4.9 C 3.2 km/h
1083 27-02-2014 22:00:00 4.8 C 6.37 g/m*3 4.8 C 0 km/h
1084 27-02-2014 22:05:00 4.8 C 6.37 g/m*3 4.8 C 0 km/h
1085 27-02-2014 22:10:00 4.8 C 6.37 g/m*3 4.8 C 0 km/h
1086 27-02-2014 22:15:00 4.7 C 6.33 g/m*3 4.7 C 1.6 km/h
1087 27-02-2014 22:20:00 4.7 C 6.33 g/m*3 4.7 C 0 km/h
1088 27-02-2014 22:25:00 4.6 C 6.29 g/m*3 4.6 C 0 km/h
1089 27-02-2014 22:30:00 4.6 C 6.29 g/m*3 4.6 C 4.8 km/h
1090 27-02-2014 22:35:00 4.5 C 6.24 g/m*3 4.5 C 4.8 km/h
1091 27-02-2014 22:40:00 4.5 C 6.24 g/m*3 4.5 C 3.2 km/h
1092 27-02-2014 22:45:00 4.5 C 6.18 g/m*3 4.5 C 0 km/h
1093 27-02-2014 22:50:00 4.5 C 6.18 g/m*3 4.5 C 0 km/h
1094 27-02-2014 22:55:00 4.5 C 6.18 g/m*3 4.5 C 4.8 km/h
1095 27-02-2014 23:00:00 4.5 C 6.11 g/m*3 4.5 C 1.6 km/h
1096 27-02-2014 23:05:00 4.5 C 6.18 g/m*3 4.5 C 1.6 km/h
1097 27-02-2014 23:10:00 4.5 C 6.11 g/m*3 4.5 C 3.2 km/h
1098 27-02-2014 23:15:00 4.4 C 6.07 g/m*3 4.4 C 1.6 km/h
1099 27-02-2014 23:20:00 4.4 C 6.07 g/m*3 4.4 C 4.8 km/h
1100 27-02-2014 23:25:00 4.4 C 6.07 g/m*3 4.4 C 1.6 km/h
Sensor: Nr:Datum:Temp:Abs-Feuchte:Windchill:Wind:
Aussen-T/F 1101 27-02-2014 23:30:00 4.4 C 6.07 g/m*3 4.4 C 4.8 km/h
1102 27-02-2014 23:35:00 4.3 C 6.03 g/m*3 2.78 C 6.4 km/h
1103 27-02-2014 23:40:00 4.3 C 6.03 g/m*3 4.3 C 4.8 km/h
1104 27-02-2014 23:45:00 4.4 C 6.07 g/m*3 4.4 C 4.8 km/h
1105 27-02-2014 23:50:00 4.4 C 6.07 g/m*3 4.4 C 4.8 km/h
1106 27-02-2014 23:55:00 4.4 C 6.07 g/m*3 2.9 C 6.4 km/h
1107 28-02-2014 00:00:00 4.5 C 6.11 g/m*3 4.5 C 4.8 km/h
1108 28-02-2014 00:05:00 4.5 C 6.11 g/m*3 2.52 C 8.1 km/h
1109 28-02-2014 00:10:00 4.5 C 6.11 g/m*3 2.52 C 8.1 km/h
1110 28-02-2014 00:15:00 4.5 C 6.11 g/m*3 2.52 C 8.1 km/h
1111 28-02-2014 00:20:00 4.5 C 6.11 g/m*3 4.5 C 4.8 km/h
1112 28-02-2014 00:25:00 4.5 C 6.05 g/m*3 3.02 C 6.4 km/h
1113 28-02-2014 00:30:00 4.5 C 6.11 g/m*3 4.5 C 4.8 km/h
1114 28-02-2014 00:35:00 4.4 C 6.07 g/m*3 2.9 C 6.4 km/h
1115 28-02-2014 00:40:00 4.4 C 6.07 g/m*3 2.4 C 8.1 km/h
1116 28-02-2014 00:45:00 4.4 C 6.07 g/m*3 2.9 C 6.4 km/h
1117 28-02-2014 00:50:00 4.5 C 6.11 g/m*3 4.5 C 4.8 km/h
1118 28-02-2014 00:55:00 4.6 C 6.15 g/m*3 3.13 C 6.4 km/h
1119 28-02-2014 01:00:00 4.7 C 6.19 g/m*3 4.7 C 4.8 km/h
1120 28-02-2014 01:05:00 4.7 C 6.19 g/m*3 3.25 C 6.4 km/h
1121 28-02-2014 01:10:00 4.7 C 6.19 g/m*3 4.7 C 4.8 km/h
1122 28-02-2014 01:15:00 4.7 C 6.19 g/m*3 4.7 C 3.2 km/h
1123 28-02-2014 01:20:00 4.7 C 6.19 g/m*3 3.25 C 6.4 km/h
1124 28-02-2014 01:25:00 4.7 C 6.19 g/m*3 4.7 C 3.2 km/h
1125 28-02-2014 01:30:00 4.8 C 6.24 g/m*3 4.8 C 4.8 km/h
Sensor: Nr:Datum:Temp:Abs-Feuchte:Windchill:Wind:
Aussen-T/F 1126 28-02-2014 01:35:00 4.8 C 6.24 g/m*3 3.36 C 6.4 km/h
1127 28-02-2014 01:40:00 4.8 C 6.17 g/m*3 2.87 C 8.1 km/h
1128 28-02-2014 01:45:00 4.9 C 6.21 g/m*3 2.61 C 9.7 km/h
1129 28-02-2014 01:50:00 4.9 C 6.21 g/m*3 3.48 C 6.4 km/h
1130 28-02-2014 01:55:00 4.9 C 6.21 g/m*3 3.48 C 6.4 km/h
1131 28-02-2014 02:00:00 5 C 6.18 g/m*3 2.09 C 12.9 km/h
1132 28-02-2014 02:05:00 5 C 6.18 g/m*3 2.39 C 11.3 km/h
1133 28-02-2014 02:10:00 5 C 6.18 g/m*3 3.59 C 6.4 km/h
1134 28-02-2014 02:15:00 5 C 6.18 g/m*3 3.11 C 8.1 km/h
1135 28-02-2014 02:20:00 4.9 C 6.08 g/m*3 2.61 C 9.7 km/h
1136 28-02-2014 02:25:00 4.9 C 6.08 g/m*3 2.27 C 11.3 km/h
1137 28-02-2014 02:30:00 4.8 C 6.1 g/m*3 3.36 C 6.4 km/h
1138 28-02-2014 02:35:00 4.8 C 6.1 g/m*3 2.87 C 8.1 km/h
1139 28-02-2014 02:40:00 4.7 C 6.06 g/m*3 2.76 C 8.1 km/h
1140 28-02-2014 02:45:00 4.7 C 6 g/m*3 2.37 C 9.7 km/h
1141 28-02-2014 02:50:00 4.7 C 6 g/m*3 3.25 C 6.4 km/h
1142 28-02-2014 02:55:00 4.7 C 6 g/m*3 2.37 C 9.7 km/h
1143 28-02-2014 03:00:00 4.6 C 5.96 g/m*3 2.25 C 9.7 km/h
1144 28-02-2014 03:05:00 4.6 C 5.96 g/m*3 2.25 C 9.7 km/h
1145 28-02-2014 03:10:00 4.7 C 6 g/m*3 2.03 C 11.3 km/h
1146 28-02-2014 03:15:00 4.6 C 6.02 g/m*3 3.13 C 6.4 km/h
1147 28-02-2014 03:20:00 4.4 C 5.94 g/m*3 2.9 C 6.4 km/h
1148 28-02-2014 03:25:00 4.3 C 5.9 g/m*3 4.3 C 4.8 km/h
1149 28-02-2014 03:30:00 4.1 C 5.89 g/m*3 4.1 C 4.8 km/h
1150 28-02-2014 03:35:00 3.8 C 5.77 g/m*3 2.21 C 6.4 km/h
Sensor: Nr:Datum:Temp:Abs-Feuchte:Windchill:Wind:
Aussen-T/F 1151 28-02-2014 03:40:00 3.6 C 5.76 g/m*3 3.6 C 3.2 km/h
1152 28-02-2014 03:45:00 3.5 C 5.78 g/m*3 1.86 C 6.4 km/h
1153 28-02-2014 03:50:00 3.4 C 5.74 g/m*3 1.75 C 6.4 km/h
1154 28-02-2014 03:55:00 3.6 C 5.88 g/m*3 1.98 C 6.4 km/h
1155 28-02-2014 04:00:00 3.7 C 5.86 g/m*3 3.7 C 3.2 km/h
1156 28-02-2014 04:05:00 3.8 C 5.96 g/m*3 3.8 C 3.2 km/h
1157 28-02-2014 04:10:00 3.9 C 5.94 g/m*3 3.9 C 4.8 km/h
1158 28-02-2014 04:15:00 4 C 5.98 g/m*3 4 C 4.8 km/h
1159 28-02-2014 04:20:00 4.1 C 6.02 g/m*3 4.1 C 3.2 km/h
1160 28-02-2014 04:25:00 4.1 C 5.95 g/m*3 4.1 C 4.8 km/h
1161 28-02-2014 04:30:00 4.2 C 5.99 g/m*3 4.2 C 4.8 km/h
1162 28-02-2014 04:35:00 4.2 C 5.99 g/m*3 4.2 C 3.2 km/h
1163 28-02-2014 04:40:00 4 C 5.91 g/m*3 4 C 3.2 km/h
1164 28-02-2014 04:45:00 3.8 C 5.9 g/m*3 3.8 C 3.2 km/h
1165 28-02-2014 04:50:00 3.7 C 5.86 g/m*3 3.7 C 3.2 km/h
1166 28-02-2014 04:55:00 3.5 C 5.78 g/m*3 3.5 C 3.2 km/h
1167 28-02-2014 05:00:00 3.5 C 5.84 g/m*3 3.5 C 3.2 km/h
1168 28-02-2014 05:05:00 3.5 C 5.84 g/m*3 3.5 C 1.6 km/h
1169 28-02-2014 05:10:00 3.5 C 5.84 g/m*3 3.5 C 1.6 km/h
1170 28-02-2014 05:15:00 3.6 C 5.88 g/m*3 3.6 C 1.6 km/h
1171 28-02-2014 05:20:00 3.6 C 5.88 g/m*3 3.6 C 1.6 km/h
1172 28-02-2014 05:25:00 3.6 C 5.88 g/m*3 3.6 C 1.6 km/h
1173 28-02-2014 05:30:00 3.6 C 5.88 g/m*3 3.6 C 1.6 km/h
1174 28-02-2014 05:35:00 3.6 C 5.88 g/m*3 3.6 C 1.6 km/h
1175 28-02-2014 05:40:00 3.6 C 5.88 g/m*3 3.6 C 1.6 km/h
Sensor: Nr:Datum:Temp:Abs-Feuchte:Windchill:Wind:
Aussen-T/F 1176 28-02-2014 05:45:00 3.6 C 5.88 g/m*3 3.6 C 1.6 km/h
1177 28-02-2014 05:50:00 3.6 C 5.94 g/m*3 3.6 C 0 km/h
1178 28-02-2014 05:55:00 3.7 C 5.98 g/m*3 3.7 C 1.6 km/h
1179 28-02-2014 06:00:00 3.7 C 5.98 g/m*3 3.7 C 1.6 km/h
1180 28-02-2014 06:05:00 3.7 C 5.98 g/m*3 3.7 C 1.6 km/h
1181 28-02-2014 06:10:00 3.8 C 6.02 g/m*3 3.8 C 1.6 km/h
1182 28-02-2014 06:15:00 3.8 C 6.02 g/m*3 3.8 C 1.6 km/h
1183 28-02-2014 06:20:00 3.9 C 6.06 g/m*3 3.9 C 0 km/h
1184 28-02-2014 06:25:00 3.9 C 6.06 g/m*3 3.9 C 0 km/h
1185 28-02-2014 06:30:00 3.9 C 6 g/m*3 3.9 C 0 km/h
1186 28-02-2014 06:35:00 3.9 C 6 g/m*3 3.9 C 0 km/h
1187 28-02-2014 06:40:00 3.9 C 6 g/m*3 3.9 C 0 km/h
1188 28-02-2014 06:45:00 3.9 C 6 g/m*3 3.9 C 3.2 km/h
1189 28-02-2014 06:50:00 4 C 6.1 g/m*3 4 C 1.6 km/h
1190 28-02-2014 06:55:00 4 C 6.1 g/m*3 4 C 1.6 km/h
1191 28-02-2014 07:00:00 4.1 C 6.14 g/m*3 4.1 C 0 km/h
1192 28-02-2014 07:05:00 4.1 C 6.14 g/m*3 4.1 C 0 km/h
1193 28-02-2014 07:10:00 4.1 C 6.14 g/m*3 4.1 C 0 km/h
1194 28-02-2014 07:15:00 4.1 C 6.14 g/m*3 4.1 C 0 km/h
1195 28-02-2014 07:20:00 4.1 C 6.14 g/m*3 4.1 C 0 km/h
1196 28-02-2014 07:25:00 4.1 C 6.14 g/m*3 4.1 C 0 km/h
1197 28-02-2014 07:30:00 4.2 C 6.19 g/m*3 4.2 C 0 km/h
1198 28-02-2014 07:35:00 4.2 C 6.19 g/m*3 4.2 C 0 km/h
1199 28-02-2014 07:40:00 4.2 C 6.19 g/m*3 4.2 C 1.6 km/h
1200 28-02-2014 07:45:00 4.1 C 6.14 g/m*3 4.1 C 0 km/h
Sensor: Nr:Datum:Temp:Abs-Feuchte:Windchill:Wind:
Aussen-T/F 1201 28-02-2014 07:50:00 4.1 C 6.08 g/m*3 4.1 C 3.2 km/h
1202 28-02-2014 07:55:00 4.1 C 6.08 g/m*3 4.1 C 3.2 km/h
1203 28-02-2014 08:00:00 4.2 C 6.19 g/m*3 4.2 C 3.2 km/h
1204 28-02-2014 08:05:00 4.3 C 6.16 g/m*3 4.3 C 1.6 km/h
1205 28-02-2014 08:10:00 4.4 C 6.2 g/m*3 4.4 C 0 km/h
1206 28-02-2014 08:15:00 4.4 C 6.2 g/m*3 4.4 C 1.6 km/h
1207 28-02-2014 08:20:00 4.6 C 6.29 g/m*3 4.6 C 0 km/h
1208 28-02-2014 08:25:00 4.7 C 6.33 g/m*3 4.7 C 1.6 km/h
1209 28-02-2014 08:30:00 4.7 C 6.33 g/m*3 4.7 C 0 km/h
1210 28-02-2014 08:35:00 4.8 C 6.3 g/m*3 4.8 C 0 km/h
1211 28-02-2014 08:40:00 4.9 C 6.35 g/m*3 4.9 C 3.2 km/h
1212 28-02-2014 08:45:00 5 C 6.32 g/m*3 5 C 1.6 km/h
1213 28-02-2014 08:50:00 5.1 C 6.36 g/m*3 5.1 C 0 km/h
1214 28-02-2014 08:55:00 5.2 C 6.33 g/m*3 5.2 C 1.6 km/h
1215 28-02-2014 09:00:00 5.3 C 6.38 g/m*3 5.3 C 4.8 km/h
1216 28-02-2014 09:05:00 5.4 C 6.42 g/m*3 5.4 C 3.2 km/h
1217 28-02-2014 09:10:00 5.6 C 6.43 g/m*3 5.6 C 1.6 km/h
1218 28-02-2014 09:15:00 5.6 C 6.43 g/m*3 5.6 C 0 km/h
1219 28-02-2014 09:20:00 5.6 C 6.36 g/m*3 5.6 C 4.8 km/h
1220 28-02-2014 09:25:00 5.7 C 6.4 g/m*3 5.7 C 3.2 km/h
1221 28-02-2014 09:30:00 5.7 C 6.4 g/m*3 5.7 C 1.6 km/h
1222 28-02-2014 09:35:00 5.7 C 6.4 g/m*3 5.7 C 4.8 km/h
1223 28-02-2014 09:40:00 5.8 C 6.38 g/m*3 5.8 C 3.2 km/h
1224 28-02-2014 09:45:00 5.8 C 6.45 g/m*3 5.8 C 3.2 km/h
1225 28-02-2014 09:50:00 5.9 C 6.42 g/m*3 5.9 C 0 km/h
Sensor: Nr:Datum:Temp:Abs-Feuchte:Windchill:Wind:
Aussen-T/F 1226 28-02-2014 09:55:00 6.1 C 6.5 g/m*3 4.86 C 6.4 km/h
1227 28-02-2014 10:00:00 6.2 C 6.55 g/m*3 6.2 C 1.6 km/h
1228 28-02-2014 10:05:00 6.4 C 6.63 g/m*3 6.4 C 3.2 km/h
1229 28-02-2014 10:10:00 6.6 C 6.64 g/m*3 6.6 C 1.6 km/h
1230 28-02-2014 10:15:00 6.7 C 6.61 g/m*3 6.7 C 4.8 km/h
1231 28-02-2014 10:20:00 6.8 C 6.65 g/m*3 6.8 C 1.6 km/h
1232 28-02-2014 10:25:00 6.8 C 6.5 g/m*3 6.8 C 4.8 km/h
1233 28-02-2014 10:30:00 6.8 C 6.58 g/m*3 6.8 C 4.8 km/h
1234 28-02-2014 10:35:00 6.9 C 6.62 g/m*3 6.9 C 4.8 km/h
1235 28-02-2014 10:40:00 6.9 C 6.62 g/m*3 6.9 C 4.8 km/h
1236 28-02-2014 10:45:00 6.9 C 6.62 g/m*3 6.9 C 3.2 km/h
1237 28-02-2014 10:50:00 7 C 6.66 g/m*3 7 C 4.8 km/h
1238 28-02-2014 10:55:00 7.1 C 6.63 g/m*3 7.1 C 4.8 km/h
1239 28-02-2014 11:00:00 7.2 C 6.75 g/m*3 7.2 C 4.8 km/h
1240 28-02-2014 11:05:00 7.4 C 6.68 g/m*3 6.37 C 6.4 km/h
1241 28-02-2014 11:10:00 7.6 C 6.69 g/m*3 6.16 C 8.1 km/h
1242 28-02-2014 11:15:00 7.7 C 6.65 g/m*3 6.28 C 8.1 km/h
1243 28-02-2014 11:20:00 7.7 C 6.65 g/m*3 7.7 C 4.8 km/h
1244 28-02-2014 11:25:00 7.7 C 6.57 g/m*3 5.94 C 9.7 km/h
1245 28-02-2014 11:30:00 7.7 C 6.65 g/m*3 5.94 C 9.7 km/h
1246 28-02-2014 11:35:00 7.9 C 6.82 g/m*3 7.9 C 4.8 km/h
1247 28-02-2014 11:40:00 8 C 6.78 g/m*3 7.06 C 6.4 km/h
1248 28-02-2014 11:45:00 8.1 C 6.82 g/m*3 6.42 C 9.7 km/h
1249 28-02-2014 11:50:00 8.2 C 6.78 g/m*3 7.29 C 6.4 km/h
1250 28-02-2014 11:55:00 8.2 C 6.87 g/m*3 6.54 C 9.7 km/h
Sensor: Nr:Datum:Temp:Abs-Feuchte:Windchill:Wind:
Aussen-T/F 1251 28-02-2014 12:00:00 8.2 C 6.7 g/m*3 6.54 C 9.7 km/h
1252 28-02-2014 12:05:00 8.2 C 6.7 g/m*3 8.2 C 4.8 km/h
1253 28-02-2014 12:10:00 8.2 C 6.78 g/m*3 7.29 C 6.4 km/h
1254 28-02-2014 12:15:00 8.3 C 6.74 g/m*3 8.3 C 3.2 km/h
1255 28-02-2014 12:20:00 8.2 C 6.7 g/m*3 6.54 C 9.7 km/h
1256 28-02-2014 12:25:00 8 C 6.61 g/m*3 6.64 C 8.1 km/h
1257 28-02-2014 12:30:00 7.9 C 6.65 g/m*3 6.52 C 8.1 km/h
1258 28-02-2014 12:35:00 7.9 C 6.82 g/m*3 7.9 C 4.8 km/h
1259 28-02-2014 12:40:00 7.8 C 6.77 g/m*3 6.83 C 6.4 km/h
1260 28-02-2014 12:45:00 7.7 C 6.97 g/m*3 7.7 C 3.2 km/h
1261 28-02-2014 12:50:00 7.7 C 6.81 g/m*3 7.7 C 4.8 km/h
1262 28-02-2014 12:55:00 7.8 C 7.1 g/m*3 7.8 C 3.2 km/h
1263 28-02-2014 13:00:00 7.8 C 6.94 g/m*3 7.8 C 4.8 km/h
1264 28-02-2014 13:05:00 7.9 C 6.98 g/m*3 7.9 C 4.8 km/h
1265 28-02-2014 13:10:00 8.1 C 7.07 g/m*3 6.75 C 8.1 km/h
1266 28-02-2014 13:15:00 8.2 C 6.78 g/m*3 8.2 C 4.8 km/h
1267 28-02-2014 13:20:00 8.4 C 6.96 g/m*3 6.78 C 9.7 km/h
1268 28-02-2014 13:25:00 8.6 C 6.87 g/m*3 6.73 C 11.3 km/h
1269 28-02-2014 13:30:00 8.5 C 6.74 g/m*3 8.5 C 4.8 km/h
1270 28-02-2014 13:35:00 8.5 C 6.57 g/m*3 7.64 C 6.4 km/h
1271 28-02-2014 13:40:00 8.8 C 6.96 g/m*3 7.58 C 8.1 km/h
1272 28-02-2014 13:45:00 8.9 C 6.83 g/m*3 7.09 C 11.3 km/h
1273 28-02-2014 13:50:00 9 C 6.7 g/m*3 9 C 4.8 km/h
1274 28-02-2014 13:55:00 9.1 C 6.83 g/m*3 8.33 C 6.4 km/h
1275 28-02-2014 14:00:00 9.1 C 6.74 g/m*3 7.61 C 9.7 km/h
Sensor: Nr:Datum:Temp:Abs-Feuchte:Windchill:Wind:
Aussen-T/F 1276 28-02-2014 14:05:00 9.1 C 6.83 g/m*3 7.61 C 9.7 km/h
1277 28-02-2014 14:10:00 9.3 C 6.74 g/m*3 8.56 C 6.4 km/h
1278 28-02-2014 14:15:00 9.4 C 6.42 g/m*3 8.68 C 6.4 km/h
1279 28-02-2014 14:20:00 9.2 C 6.52 g/m*3 8.45 C 6.4 km/h
1280 28-02-2014 14:25:00 9.2 C 6.79 g/m*3 8.45 C 6.4 km/h
1281 28-02-2014 14:30:00 9.4 C 6.96 g/m*3 9.4 C 4.8 km/h
1282 28-02-2014 14:35:00 9.7 C 7.01 g/m*3 9.02 C 6.4 km/h
1283 28-02-2014 14:40:00 9.8 C 6.59 g/m*3 9.14 C 6.4 km/h
1284 28-02-2014 14:45:00 9.7 C 6.82 g/m*3 8.33 C 9.7 km/h
1285 28-02-2014 14:50:00 9.7 C 6.64 g/m*3 8.63 C 8.1 km/h
1286 28-02-2014 14:55:00 9.6 C 6.5 g/m*3 8.91 C 6.4 km/h
1287 28-02-2014 15:00:00 9.5 C 6.64 g/m*3 9.5 C 4.8 km/h
1288 28-02-2014 15:05:00 9.4 C 6.6 g/m*3 9.4 C 4.8 km/h
1289 28-02-2014 15:10:00 9.3 C 6.56 g/m*3 9.3 C 4.8 km/h
1290 28-02-2014 15:15:00 9.2 C 6.43 g/m*3 9.2 C 3.2 km/h
1291 28-02-2014 15:20:00 9.1 C 6.48 g/m*3 9.1 C 0 km/h
1292 28-02-2014 15:25:00 9.1 C 6.57 g/m*3 9.1 C 4.8 km/h
1293 28-02-2014 15:30:00 9.1 C 6.57 g/m*3 9.1 C 4.8 km/h
1294 28-02-2014 15:35:00 9.1 C 6.57 g/m*3 9.1 C 4.8 km/h
1295 28-02-2014 16:15:00 9.3 C 6.65 g/m*3 8.56 C 6.4 km/h
1296 28-02-2014 16:20:00 9.3 C 6.47 g/m*3 9.3 C 4.8 km/h
1297 28-02-2014 16:25:00 9.3 C 6.47 g/m*3 9.3 C 4.8 km/h
1298 28-02-2014 17:05:00 9.4 C 6.6 g/m*3 8.28 C 8.1 km/h
1299 28-02-2014 17:10:00 9.4 C 6.69 g/m*3 8.68 C 6.4 km/h
1300 28-02-2014 17:15:00 9.3 C 6.65 g/m*3 8.56 C 6.4 km/h
Sensor: Nr:Datum:Temp:Abs-Feuchte:Windchill:Wind:
Aussen-T/F 1301 28-02-2014 17:20:00 9.2 C 6.61 g/m*3 9.2 C 3.2 km/h
1302 28-02-2014 17:25:00 9.1 C 6.65 g/m*3 8.33 C 6.4 km/h
1303 28-02-2014 17:30:00 9.1 C 6.65 g/m*3 9.1 C 4.8 km/h
1304 28-02-2014 17:35:00 9 C 6.52 g/m*3 9 C 3.2 km/h
1305 28-02-2014 17:40:00 8.9 C 6.66 g/m*3 8.1 C 6.4 km/h
1306 28-02-2014 17:45:00 8.9 C 6.75 g/m*3 8.9 C 3.2 km/h
1307 28-02-2014 17:50:00 8.8 C 6.7 g/m*3 8.8 C 1.6 km/h
1308 28-02-2014 17:55:00 8.7 C 6.66 g/m*3 8.7 C 1.6 km/h
1309 28-02-2014 18:00:00 8.7 C 6.75 g/m*3 8.7 C 1.6 km/h
1310 28-02-2014 18:05:00 8.6 C 6.62 g/m*3 8.6 C 3.2 km/h
1311 28-02-2014 18:10:00 8.5 C 6.74 g/m*3 8.5 C 1.6 km/h
1312 28-02-2014 18:15:00 8.3 C 6.74 g/m*3 8.3 C 0 km/h
1313 28-02-2014 18:20:00 8.2 C 6.78 g/m*3 8.2 C 1.6 km/h
1314 28-02-2014 18:25:00 8.1 C 6.82 g/m*3 8.1 C 1.6 km/h
1315 28-02-2014 18:30:00 7.9 C 6.74 g/m*3 7.9 C 0 km/h
1316 28-02-2014 18:35:00 7.8 C 6.61 g/m*3 7.8 C 3.2 km/h
1317 28-02-2014 18:40:00 7.9 C 6.74 g/m*3 7.9 C 1.6 km/h
1318 28-02-2014 18:45:00 7.8 C 6.77 g/m*3 7.8 C 1.6 km/h
1319 28-02-2014 18:50:00 7.7 C 6.73 g/m*3 7.7 C 3.2 km/h
1320 28-02-2014 18:55:00 7.7 C 6.81 g/m*3 7.7 C 3.2 km/h
1321 28-02-2014 19:00:00 7.6 C 6.61 g/m*3 7.6 C 4.8 km/h
1322 28-02-2014 19:05:00 7.6 C 6.69 g/m*3 7.6 C 3.2 km/h
1323 28-02-2014 19:10:00 7.6 C 6.77 g/m*3 7.6 C 1.6 km/h
1324 28-02-2014 19:15:00 7.4 C 6.68 g/m*3 7.4 C 0 km/h
1325 28-02-2014 19:20:00 7.2 C 6.67 g/m*3 7.2 C 1.6 km/h
Sensor: Nr:Datum:Temp:Abs-Feuchte:Windchill:Wind:
Aussen-T/F 1326 28-02-2014 19:25:00 7 C 6.59 g/m*3 7 C 3.2 km/h
1327 28-02-2014 19:30:00 6.8 C 6.5 g/m*3 5.67 C 6.4 km/h
1328 28-02-2014 19:35:00 6.7 C 6.61 g/m*3 6.7 C 4.8 km/h
1329 28-02-2014 19:40:00 6.7 C 6.53 g/m*3 6.7 C 1.6 km/h
1330 28-02-2014 19:45:00 6.6 C 6.57 g/m*3 6.6 C 4.8 km/h
1331 28-02-2014 19:50:00 6.5 C 6.52 g/m*3 6.5 C 4.8 km/h
1332 28-02-2014 19:55:00 6.4 C 6.56 g/m*3 6.4 C 3.2 km/h
1333 28-02-2014 20:00:00 6.4 C 6.56 g/m*3 6.4 C 4.8 km/h
1334 28-02-2014 20:05:00 6.4 C 6.56 g/m*3 6.4 C 3.2 km/h
1335 28-02-2014 20:10:00 6.5 C 6.6 g/m*3 6.5 C 4.8 km/h
1336 28-02-2014 20:15:00 6.6 C 6.72 g/m*3 6.6 C 3.2 km/h
1337 28-02-2014 20:20:00 6.6 C 6.72 g/m*3 6.6 C 3.2 km/h
1338 28-02-2014 20:25:00 6.6 C 6.72 g/m*3 6.6 C 4.8 km/h
1339 28-02-2014 20:30:00 6.7 C 6.76 g/m*3 6.7 C 4.8 km/h
1340 28-02-2014 20:35:00 6.7 C 6.69 g/m*3 6.7 C 3.2 km/h
1341 28-02-2014 20:40:00 6.7 C 6.69 g/m*3 6.7 C 1.6 km/h
1342 28-02-2014 20:45:00 6.7 C 6.69 g/m*3 6.7 C 3.2 km/h
1343 28-02-2014 20:50:00 6.8 C 6.65 g/m*3 6.8 C 3.2 km/h
1344 28-02-2014 20:55:00 6.9 C 6.62 g/m*3 6.9 C 3.2 km/h
1345 28-02-2014 21:00:00 7.1 C 6.79 g/m*3 7.1 C 0 km/h
1346 28-02-2014 21:05:00 7.1 C 6.71 g/m*3 7.1 C 3.2 km/h
1347 28-02-2014 21:10:00 7.1 C 6.79 g/m*3 7.1 C 0 km/h
1348 28-02-2014 21:15:00 7.1 C 6.79 g/m*3 7.1 C 1.6 km/h
1349 28-02-2014 21:20:00 7 C 6.82 g/m*3 7 C 0 km/h
1350 28-02-2014 21:25:00 6.9 C 6.77 g/m*3 6.9 C 1.6 km/h
Sensor: Nr:Datum:Temp:Abs-Feuchte:Windchill:Wind:
Aussen-T/F 1351 28-02-2014 21:30:00 6.9 C 6.85 g/m*3 6.9 C 3.2 km/h
1352 28-02-2014 21:35:00 6.8 C 6.88 g/m*3 6.8 C 0 km/h
1353 28-02-2014 21:40:00 6.8 C 6.88 g/m*3 6.8 C 0 km/h
1354 28-02-2014 21:45:00 6.7 C 6.91 g/m*3 6.7 C 0 km/h
1355 28-02-2014 21:50:00 6.6 C 6.95 g/m*3 6.6 C 0 km/h
1356 28-02-2014 21:55:00 6.6 C 6.95 g/m*3 6.6 C 0 km/h
1357 28-02-2014 22:00:00 6.5 C 6.9 g/m*3 6.5 C 1.6 km/h
1358 28-02-2014 22:05:00 6.4 C 6.93 g/m*3 6.4 C 4.8 km/h
1359 28-02-2014 22:10:00 6.4 C 6.93 g/m*3 6.4 C 0 km/h
1360 28-02-2014 22:15:00 6.4 C 6.93 g/m*3 6.4 C 0 km/h
1361 28-02-2014 22:20:00 6.4 C 6.93 g/m*3 6.4 C 1.6 km/h
1362 28-02-2014 22:25:00 6.4 C 7 g/m*3 6.4 C 1.6 km/h
1363 28-02-2014 22:30:00 6.3 C 6.96 g/m*3 6.3 C 3.2 km/h
1364 28-02-2014 22:35:00 6.2 C 6.84 g/m*3 4.52 C 8.1 km/h
1365 28-02-2014 22:40:00 6.2 C 6.77 g/m*3 4.52 C 8.1 km/h
1366 28-02-2014 22:45:00 6.2 C 6.77 g/m*3 6.2 C 1.6 km/h
1367 28-02-2014 22:50:00 6.1 C 6.79 g/m*3 6.1 C 3.2 km/h
1368 28-02-2014 22:55:00 6.1 C 6.79 g/m*3 6.1 C 3.2 km/h
1369 28-02-2014 23:00:00 5.9 C 6.78 g/m*3 5.9 C 3.2 km/h
1370 28-02-2014 23:05:00 5.9 C 6.78 g/m*3 5.9 C 3.2 km/h
1371 28-02-2014 23:10:00 5.8 C 6.73 g/m*3 5.8 C 3.2 km/h
1372 28-02-2014 23:15:00 5.8 C 6.73 g/m*3 5.8 C 1.6 km/h
1373 28-02-2014 23:20:00 5.8 C 6.73 g/m*3 5.8 C 0 km/h
1374 28-02-2014 23:25:00 5.7 C 6.69 g/m*3 5.7 C 0 km/h
1375 28-02-2014 23:30:00 5.7 C 6.76 g/m*3 5.7 C 0 km/h
Sensor: Nr:Datum:Temp:Abs-Feuchte:Windchill:Wind:
Aussen-T/F 1376 28-02-2014 23:35:00 5.6 C 6.72 g/m*3 5.6 C 3.2 km/h
1377 28-02-2014 23:40:00 5.5 C 6.67 g/m*3 5.5 C 0 km/h
1378 28-02-2014 23:45:00 5.4 C 6.63 g/m*3 5.4 C 3.2 km/h
1379 28-02-2014 23:50:00 5.4 C 6.63 g/m*3 5.4 C 1.6 km/h
1380 28-02-2014 23:55:00 5.3 C 6.58 g/m*3 5.3 C 3.2 km/h
1381 01-03-2014 00:00:00 5.3 C 6.58 g/m*3 5.3 C 0 km/h
1382 01-03-2014 00:05:00 5.3 C 6.58 g/m*3 5.3 C 1.6 km/h
1383 01-03-2014 00:10:00 5.3 C 6.58 g/m*3 5.3 C 0 km/h
1384 01-03-2014 00:15:00 5.3 C 6.65 g/m*3 5.3 C 0 km/h
1385 01-03-2014 00:20:00 5.3 C 6.65 g/m*3 5.3 C 1.6 km/h
1386 01-03-2014 00:25:00 5.3 C 6.65 g/m*3 5.3 C 3.2 km/h
1387 01-03-2014 00:30:00 5.3 C 6.65 g/m*3 5.3 C 3.2 km/h
1388 01-03-2014 00:35:00 5.3 C 6.65 g/m*3 5.3 C 1.6 km/h
1389 01-03-2014 00:40:00 5.3 C 6.65 g/m*3 5.3 C 1.6 km/h
1390 01-03-2014 00:45:00 5.3 C 6.65 g/m*3 5.3 C 0 km/h
1391 01-03-2014 00:50:00 5.3 C 6.65 g/m*3 5.3 C 0 km/h
1392 01-03-2014 00:55:00 5.2 C 6.61 g/m*3 5.2 C 0 km/h
1393 01-03-2014 01:00:00 5.2 C 6.61 g/m*3 5.2 C 0 km/h
1394 01-03-2014 01:05:00 5.2 C 6.61 g/m*3 5.2 C 0 km/h
1395 01-03-2014 01:10:00 5.1 C 6.57 g/m*3 5.1 C 0 km/h
1396 01-03-2014 01:15:00 5 C 6.52 g/m*3 5 C 1.6 km/h
1397 01-03-2014 01:20:00 4.9 C 6.48 g/m*3 4.9 C 0 km/h
1398 01-03-2014 01:25:00 4.8 C 6.44 g/m*3 4.8 C 0 km/h
1399 01-03-2014 01:30:00 4.8 C 6.44 g/m*3 4.8 C 0 km/h
1400 01-03-2014 01:35:00 4.7 C 6.39 g/m*3 4.7 C 0 km/h
Sensor: Nr:Datum:Temp:Abs-Feuchte:Windchill:Wind:
Aussen-T/F 1401 01-03-2014 01:40:00 4.6 C 6.35 g/m*3 4.6 C 0 km/h
1402 01-03-2014 01:45:00 4.5 C 6.31 g/m*3 4.5 C 0 km/h
1403 01-03-2014 01:50:00 4.5 C 6.31 g/m*3 4.5 C 3.2 km/h
1404 01-03-2014 01:55:00 4.6 C 6.35 g/m*3 4.6 C 0 km/h
1405 01-03-2014 02:00:00 4.7 C 6.39 g/m*3 4.7 C 1.6 km/h
1406 01-03-2014 02:05:00 4.7 C 6.46 g/m*3 4.7 C 1.6 km/h
1407 01-03-2014 02:10:00 4.8 C 6.5 g/m*3 4.8 C 0 km/h
1408 01-03-2014 02:15:00 4.8 C 6.5 g/m*3 4.8 C 1.6 km/h
1409 01-03-2014 02:20:00 4.9 C 6.55 g/m*3 4.9 C 1.6 km/h
1410 01-03-2014 02:25:00 4.9 C 6.55 g/m*3 4.9 C 1.6 km/h
1411 01-03-2014 02:30:00 4.9 C 6.55 g/m*3 4.9 C 0 km/h
1412 01-03-2014 02:35:00 4.9 C 6.48 g/m*3 4.9 C 0 km/h
1413 01-03-2014 02:40:00 4.9 C 6.48 g/m*3 4.9 C 0 km/h
1414 01-03-2014 02:45:00 4.9 C 6.48 g/m*3 4.9 C 0 km/h
1415 01-03-2014 02:50:00 4.9 C 6.48 g/m*3 4.9 C 0 km/h
1416 01-03-2014 02:55:00 4.9 C 6.48 g/m*3 4.9 C 0 km/h
1417 01-03-2014 03:00:00 4.8 C 6.44 g/m*3 4.8 C 0 km/h
1418 01-03-2014 03:05:00 4.6 C 6.35 g/m*3 4.6 C 0 km/h
1419 01-03-2014 03:10:00 4.4 C 6.27 g/m*3 4.4 C 0 km/h
1420 01-03-2014 03:15:00 4.3 C 6.23 g/m*3 4.3 C 1.6 km/h
1421 01-03-2014 03:20:00 4.3 C 6.23 g/m*3 4.3 C 3.2 km/h
1422 01-03-2014 03:25:00 4.2 C 6.19 g/m*3 4.2 C 3.2 km/h
1423 01-03-2014 03:30:00 4.1 C 6.14 g/m*3 4.1 C 1.6 km/h
1424 01-03-2014 03:35:00 4 C 6.1 g/m*3 4 C 1.6 km/h
1425 01-03-2014 03:40:00 3.9 C 6.06 g/m*3 3.9 C 1.6 km/h
Sensor: Nr:Datum:Temp:Abs-Feuchte:Windchill:Wind:
Aussen-T/F 1426 01-03-2014 03:45:00 3.9 C 6.06 g/m*3 3.9 C 3.2 km/h
1427 01-03-2014 03:50:00 3.9 C 6.06 g/m*3 3.9 C 3.2 km/h
1428 01-03-2014 03:55:00 3.9 C 6.06 g/m*3 3.9 C 0 km/h
1429 01-03-2014 04:00:00 3.9 C 6.06 g/m*3 3.9 C 3.2 km/h
1430 01-03-2014 04:05:00 4 C 6.1 g/m*3 4 C 4.8 km/h
1431 01-03-2014 04:10:00 4 C 6.1 g/m*3 4 C 4.8 km/h
1432 01-03-2014 04:15:00 3.9 C 6.06 g/m*3 3.9 C 4.8 km/h
1433 01-03-2014 04:20:00 3.9 C 6.06 g/m*3 3.9 C 3.2 km/h
1434 01-03-2014 04:25:00 3.9 C 6.06 g/m*3 3.9 C 3.2 km/h
1435 01-03-2014 04:30:00 3.8 C 6.02 g/m*3 3.8 C 1.6 km/h
1436 01-03-2014 04:35:00 3.7 C 5.98 g/m*3 3.7 C 1.6 km/h
1437 01-03-2014 04:40:00 3.5 C 5.9 g/m*3 3.5 C 1.6 km/h
1438 01-03-2014 04:45:00 3.3 C 5.82 g/m*3 3.3 C 1.6 km/h
1439 01-03-2014 04:50:00 3.2 C 5.79 g/m*3 3.2 C 0 km/h
1440 01-03-2014 04:55:00 3 C 5.71 g/m*3 3 C 1.6 km/h
1441 01-03-2014 05:00:00 2.9 C 5.67 g/m*3 2.9 C 0 km/h
1442 01-03-2014 05:05:00 2.9 C 5.67 g/m*3 2.9 C 3.2 km/h
1443 01-03-2014 05:10:00 2.8 C 5.63 g/m*3 2.8 C 1.6 km/h
1444 01-03-2014 05:15:00 2.8 C 5.63 g/m*3 2.8 C 1.6 km/h
1445 01-03-2014 05:20:00 2.7 C 5.59 g/m*3 2.7 C 0 km/h
1446 01-03-2014 05:25:00 2.7 C 5.59 g/m*3 2.7 C 0 km/h
1447 01-03-2014 05:30:00 2.6 C 5.56 g/m*3 2.6 C 0 km/h
1448 01-03-2014 05:35:00 2.6 C 5.56 g/m*3 2.6 C 0 km/h
1449 01-03-2014 05:40:00 2.5 C 5.52 g/m*3 2.5 C 0 km/h
1450 01-03-2014 05:45:00 2.4 C 5.48 g/m*3 2.4 C 0 km/h
Sensor: Nr:Datum:Temp:Abs-Feuchte:Windchill:Wind:
Aussen-T/F 1451 01-03-2014 05:50:00 2.4 C 5.48 g/m*3 2.4 C 1.6 km/h
1452 01-03-2014 05:55:00 2.4 C 5.48 g/m*3 2.4 C 0 km/h
1453 01-03-2014 06:00:00 2.4 C 5.48 g/m*3 2.4 C 0 km/h
1454 01-03-2014 06:05:00 2.5 C 5.52 g/m*3 2.5 C 0 km/h
1455 01-03-2014 06:10:00 2.5 C 5.52 g/m*3 2.5 C 0 km/h
1456 01-03-2014 06:15:00 2.6 C 5.56 g/m*3 2.6 C 0 km/h
1457 01-03-2014 06:20:00 2.6 C 5.61 g/m*3 2.6 C 0 km/h
1458 01-03-2014 06:25:00 2.6 C 5.61 g/m*3 2.6 C 0 km/h
1459 01-03-2014 06:30:00 2.6 C 5.61 g/m*3 2.6 C 0 km/h
1460 01-03-2014 06:35:00 2.6 C 5.61 g/m*3 2.6 C 0 km/h
1461 01-03-2014 06:40:00 2.6 C 5.61 g/m*3 2.6 C 0 km/h
1462 01-03-2014 06:45:00 2.6 C 5.61 g/m*3 2.6 C 0 km/h
1463 01-03-2014 06:50:00 2.6 C 5.61 g/m*3 2.6 C 0 km/h
1464 01-03-2014 06:55:00 2.6 C 5.61 g/m*3 2.6 C 0 km/h
1465 01-03-2014 07:00:00 2.7 C 5.65 g/m*3 2.7 C 0 km/h
1466 01-03-2014 07:05:00 2.7 C 5.65 g/m*3 2.7 C 0 km/h
1467 01-03-2014 07:10:00 2.7 C 5.65 g/m*3 2.7 C 3.2 km/h
1468 01-03-2014 07:15:00 2.7 C 5.65 g/m*3 2.7 C 0 km/h
1469 01-03-2014 07:20:00 2.7 C 5.65 g/m*3 2.7 C 0 km/h
1470 01-03-2014 07:25:00 2.7 C 5.65 g/m*3 2.7 C 0 km/h
1471 01-03-2014 07:30:00 2.8 C 5.69 g/m*3 2.8 C 0 km/h
1472 01-03-2014 07:35:00 2.8 C 5.69 g/m*3 2.8 C 0 km/h
1473 01-03-2014 07:40:00 2.8 C 5.69 g/m*3 2.8 C 0 km/h
1474 01-03-2014 07:45:00 2.8 C 5.69 g/m*3 2.8 C 0 km/h
1475 01-03-2014 07:50:00 2.8 C 5.69 g/m*3 2.8 C 0 km/h
Sensor: Nr:Datum:Temp:Abs-Feuchte:Windchill:Wind:
Aussen-T/F 1476 01-03-2014 07:55:00 2.8 C 5.69 g/m*3 2.8 C 0 km/h
1477 01-03-2014 08:00:00 2.9 C 5.73 g/m*3 2.9 C 0 km/h
1478 01-03-2014 08:05:00 2.9 C 5.73 g/m*3 2.9 C 0 km/h
1479 01-03-2014 08:10:00 2.9 C 5.73 g/m*3 2.9 C 0 km/h
1480 01-03-2014 08:15:00 2.9 C 5.73 g/m*3 2.9 C 0 km/h
1481 01-03-2014 08:20:00 3 C 5.77 g/m*3 3 C 0 km/h
1482 01-03-2014 08:25:00 3.1 C 5.81 g/m*3 3.1 C 0 km/h
1483 01-03-2014 08:30:00 3.2 C 5.85 g/m*3 3.2 C 0 km/h
1484 01-03-2014 08:35:00 3.2 C 5.85 g/m*3 3.2 C 0 km/h
1485 01-03-2014 08:40:00 3.3 C 5.88 g/m*3 3.3 C 0 km/h
1486 01-03-2014 08:45:00 3.3 C 5.88 g/m*3 3.3 C 1.6 km/h
1487 01-03-2014 08:50:00 3.4 C 5.92 g/m*3 3.4 C 0 km/h
1488 01-03-2014 08:55:00 3.5 C 5.96 g/m*3 3.5 C 0 km/h
1489 01-03-2014 09:00:00 3.6 C 6 g/m*3 3.6 C 0 km/h
1490 01-03-2014 09:05:00 3.6 C 6 g/m*3 3.6 C 0 km/h
1491 01-03-2014 09:10:00 3.6 C 6 g/m*3 3.6 C 0 km/h
1492 01-03-2014 09:15:00 3.6 C 6 g/m*3 3.6 C 0 km/h
1493 01-03-2014 09:20:00 3.6 C 6 g/m*3 3.6 C 0 km/h
1494 01-03-2014 09:25:00 3.6 C 6 g/m*3 3.6 C 0 km/h
1495 01-03-2014 09:30:00 3.7 C 6.04 g/m*3 3.7 C 0 km/h
1496 01-03-2014 09:35:00 3.8 C 6.09 g/m*3 3.8 C 0 km/h
1497 01-03-2014 09:40:00 3.9 C 6.13 g/m*3 3.9 C 0 km/h
1498 01-03-2014 09:45:00 4.1 C 6.21 g/m*3 4.1 C 0 km/h
1499 01-03-2014 09:50:00 4.2 C 6.25 g/m*3 4.2 C 1.6 km/h
1500 01-03-2014 09:55:00 4.3 C 6.29 g/m*3 4.3 C 1.6 km/h
Sensor: Nr:Datum:Temp:Abs-Feuchte:Windchill:Wind:
Aussen-T/F 1501 01-03-2014 10:00:00 4.5 C 6.38 g/m*3 4.5 C 0 km/h
1502 01-03-2014 10:05:00 4.7 C 6.46 g/m*3 4.7 C 0 km/h
1503 01-03-2014 10:10:00 4.8 C 6.5 g/m*3 4.8 C 1.6 km/h
1504 01-03-2014 10:15:00 5.1 C 6.63 g/m*3 5.1 C 1.6 km/h
1505 01-03-2014 10:20:00 5.2 C 6.61 g/m*3 5.2 C 0 km/h
1506 01-03-2014 10:25:00 5.4 C 6.7 g/m*3 5.4 C 3.2 km/h
1507 01-03-2014 10:30:00 5.5 C 6.67 g/m*3 5.5 C 4.8 km/h
1508 01-03-2014 10:35:00 5.7 C 6.76 g/m*3 5.7 C 1.6 km/h
1509 01-03-2014 10:40:00 5.8 C 6.73 g/m*3 5.8 C 1.6 km/h
1510 01-03-2014 10:45:00 5.9 C 6.71 g/m*3 5.9 C 3.2 km/h
1511 01-03-2014 10:50:00 6.1 C 6.65 g/m*3 6.1 C 1.6 km/h
1512 01-03-2014 10:55:00 6.3 C 6.74 g/m*3 6.3 C 3.2 km/h
1513 01-03-2014 11:00:00 6.4 C 6.56 g/m*3 6.4 C 0 km/h
1514 01-03-2014 11:05:00 6.6 C 6.57 g/m*3 6.6 C 3.2 km/h
1515 01-03-2014 11:10:00 6.8 C 6.65 g/m*3 6.8 C 3.2 km/h
1516 01-03-2014 11:15:00 6.9 C 6.62 g/m*3 5.79 C 6.4 km/h
1517 01-03-2014 11:20:00 7.1 C 6.63 g/m*3 7.1 C 3.2 km/h
1518 01-03-2014 11:25:00 7.2 C 6.67 g/m*3 7.2 C 1.6 km/h
1519 01-03-2014 11:30:00 7.3 C 6.56 g/m*3 7.3 C 1.6 km/h
1520 01-03-2014 11:35:00 7.4 C 6.6 g/m*3 7.4 C 3.2 km/h
1521 01-03-2014 11:40:00 7.6 C 6.77 g/m*3 7.6 C 4.8 km/h
1522 01-03-2014 11:45:00 7.7 C 6.73 g/m*3 7.7 C 1.6 km/h
1523 01-03-2014 11:50:00 7.8 C 6.69 g/m*3 7.8 C 1.6 km/h
1524 01-03-2014 11:55:00 7.8 C 6.69 g/m*3 7.8 C 4.8 km/h
1525 01-03-2014 12:00:00 7.8 C 6.69 g/m*3 7.8 C 4.8 km/h
Sensor: Nr:Datum:Temp:Abs-Feuchte:Windchill:Wind:
Aussen-T/F 1526 01-03-2014 12:05:00 7.9 C 6.65 g/m*3 6.94 C 6.4 km/h
1527 01-03-2014 12:10:00 7.9 C 6.57 g/m*3 6.52 C 8.1 km/h
1528 01-03-2014 12:15:00 8 C 6.7 g/m*3 8 C 4.8 km/h
1529 01-03-2014 12:20:00 8.1 C 6.74 g/m*3 8.1 C 4.8 km/h
1530 01-03-2014 12:25:00 8.3 C 6.74 g/m*3 8.3 C 4.8 km/h
1531 01-03-2014 12:30:00 8.3 C 6.74 g/m*3 7.41 C 6.4 km/h
1532 01-03-2014 12:35:00 8.3 C 6.74 g/m*3 8.3 C 4.8 km/h
1533 01-03-2014 12:40:00 8.4 C 6.96 g/m*3 8.4 C 4.8 km/h
1534 01-03-2014 12:45:00 8.6 C 6.96 g/m*3 7.75 C 6.4 km/h
1535 01-03-2014 12:50:00 8.7 C 6.92 g/m*3 7.87 C 6.4 km/h
1536 01-03-2014 12:55:00 8.7 C 6.92 g/m*3 8.7 C 4.8 km/h
1537 01-03-2014 13:00:00 8.8 C 6.96 g/m*3 8.8 C 4.8 km/h
1538 01-03-2014 13:05:00 8.8 C 6.79 g/m*3 6.97 C 11.3 km/h
1539 01-03-2014 13:10:00 8.8 C 6.61 g/m*3 6.97 C 11.3 km/h
1540 01-03-2014 13:15:00 8.8 C 6.7 g/m*3 8.8 C 4.8 km/h
1541 01-03-2014 13:20:00 8.9 C 6.66 g/m*3 8.1 C 6.4 km/h
1542 01-03-2014 13:25:00 9 C 6.7 g/m*3 8.21 C 6.4 km/h
1543 01-03-2014 13:30:00 9.1 C 6.57 g/m*3 7.93 C 8.1 km/h
1544 01-03-2014 13:35:00 9.1 C 6.57 g/m*3 7.61 C 9.7 km/h
1545 01-03-2014 13:40:00 9 C 6.44 g/m*3 9 C 3.2 km/h
1546 01-03-2014 13:45:00 9.1 C 6.65 g/m*3 7.93 C 8.1 km/h
1547 01-03-2014 13:50:00 9.1 C 6.57 g/m*3 9.1 C 4.8 km/h
1548 01-03-2014 13:55:00 9.2 C 6.52 g/m*3 8.45 C 6.4 km/h
1549 01-03-2014 14:00:00 9.3 C 6.56 g/m*3 9.3 C 3.2 km/h
1550 01-03-2014 14:05:00 9.3 C 6.2 g/m*3 7.85 C 9.7 km/h
Sensor: Nr:Datum:Temp:Abs-Feuchte:Windchill:Wind:
Aussen-T/F 1551 01-03-2014 14:10:00 9.3 C 6.38 g/m*3 8.56 C 6.4 km/h
1552 01-03-2014 14:15:00 9.4 C 6.42 g/m*3 7.97 C 9.7 km/h
1553 01-03-2014 14:20:00 9.3 C 6.11 g/m*3 7.85 C 9.7 km/h
1554 01-03-2014 14:25:00 9.2 C 6.07 g/m*3 9.2 C 3.2 km/h
1555 01-03-2014 14:30:00 9.2 C 6.25 g/m*3 9.2 C 3.2 km/h
1556 01-03-2014 14:35:00 9.3 C 6.2 g/m*3 8.56 C 6.4 km/h
1557 01-03-2014 14:40:00 9.3 C 6.11 g/m*3 9.3 C 4.8 km/h
1558 01-03-2014 14:45:00 9.3 C 6.29 g/m*3 9.3 C 4.8 km/h
1559 01-03-2014 14:50:00 9.3 C 6.29 g/m*3 9.3 C 3.2 km/h
1560 01-03-2014 14:55:00 9.3 C 6.29 g/m*3 9.3 C 3.2 km/h
1561 01-03-2014 15:00:00 9.4 C 6.24 g/m*3 9.4 C 4.8 km/h
1562 01-03-2014 15:05:00 9.5 C 6.28 g/m*3 9.5 C 1.6 km/h
1563 01-03-2014 15:10:00 9.6 C 6.32 g/m*3 9.6 C 4.8 km/h
1564 01-03-2014 15:15:00 9.6 C 6.32 g/m*3 8.91 C 6.4 km/h
1565 01-03-2014 15:20:00 9.5 C 6.19 g/m*3 8.79 C 6.4 km/h
1566 01-03-2014 15:25:00 9.4 C 6.06 g/m*3 7.97 C 9.7 km/h
1567 01-03-2014 15:30:00 9.4 C 5.97 g/m*3 9.4 C 4.8 km/h
1568 01-03-2014 15:35:00 9.3 C 6.02 g/m*3 8.56 C 6.4 km/h
1569 01-03-2014 15:40:00 9.3 C 6.02 g/m*3 8.16 C 8.1 km/h
1570 01-03-2014 15:45:00 9.3 C 6.2 g/m*3 9.3 C 3.2 km/h
1571 01-03-2014 15:50:00 9.3 C 6.2 g/m*3 9.3 C 1.6 km/h
1572 01-03-2014 15:55:00 9.3 C 6.2 g/m*3 9.3 C 4.8 km/h
1573 01-03-2014 16:00:00 9.2 C 6.16 g/m*3 9.2 C 4.8 km/h
1574 01-03-2014 16:05:00 9.2 C 6.16 g/m*3 8.05 C 8.1 km/h
1575 01-03-2014 16:10:00 9.2 C 6.16 g/m*3 9.2 C 4.8 km/h
Sensor: Nr:Datum:Temp:Abs-Feuchte:Windchill:Wind:
Aussen-T/F 1576 01-03-2014 16:15:00 9.1 C 6.03 g/m*3 7.93 C 8.1 km/h
1577 01-03-2014 16:20:00 9.1 C 6.03 g/m*3 9.1 C 3.2 km/h
1578 01-03-2014 16:25:00 9.1 C 6.03 g/m*3 9.1 C 4.8 km/h
1579 01-03-2014 16:30:00 9.1 C 6.03 g/m*3 9.1 C 3.2 km/h
1580 01-03-2014 16:35:00 9.1 C 6.03 g/m*3 9.1 C 4.8 km/h
1581 01-03-2014 16:40:00 9 C 5.99 g/m*3 9 C 3.2 km/h
1582 01-03-2014 16:45:00 8.9 C 5.96 g/m*3 8.9 C 3.2 km/h
1583 01-03-2014 16:50:00 8.9 C 6.22 g/m*3 8.9 C 0 km/h
1584 01-03-2014 16:55:00 8.8 C 6.35 g/m*3 8.8 C 0 km/h
1585 01-03-2014 17:00:00 8.7 C 6.23 g/m*3 8.7 C 0 km/h
1586 01-03-2014 17:05:00 8.6 C 6.1 g/m*3 6.73 C 11.3 km/h
1587 01-03-2014 17:10:00 8.6 C 6.19 g/m*3 6.73 C 11.3 km/h
1588 01-03-2014 17:15:00 8.4 C 6.28 g/m*3 6.78 C 9.7 km/h
1589 01-03-2014 17:20:00 8.2 C 6.28 g/m*3 6.25 C 11.3 km/h
1590 01-03-2014 17:25:00 7.9 C 6.32 g/m*3 6.52 C 8.1 km/h
1591 01-03-2014 17:30:00 7.8 C 6.28 g/m*3 6.4 C 8.1 km/h
1592 01-03-2014 17:35:00 7.6 C 6.28 g/m*3 5.82 C 9.7 km/h
1593 01-03-2014 17:40:00 7.5 C 6.32 g/m*3 6.05 C 8.1 km/h
1594 01-03-2014 17:45:00 7.4 C 6.28 g/m*3 6.37 C 6.4 km/h
1595 01-03-2014 17:50:00 7.4 C 6.36 g/m*3 7.4 C 4.8 km/h
1596 01-03-2014 17:55:00 7.4 C 6.36 g/m*3 7.4 C 3.2 km/h
1597 01-03-2014 18:00:00 7.4 C 6.36 g/m*3 7.4 C 4.8 km/h
1598 01-03-2014 18:05:00 7.4 C 6.44 g/m*3 7.4 C 3.2 km/h
1599 01-03-2014 18:10:00 7.3 C 6.4 g/m*3 7.3 C 0 km/h
1600 01-03-2014 18:15:00 7.3 C 6.48 g/m*3 7.3 C 0 km/h
Sensor: Nr:Datum:Temp:Abs-Feuchte:Windchill:Wind:
Aussen-T/F 1601 01-03-2014 18:20:00 7.2 C 6.44 g/m*3 7.2 C 0 km/h
1602 01-03-2014 18:25:00 7.1 C 6.47 g/m*3 7.1 C 0 km/h
1603 01-03-2014 18:30:00 6.9 C 6.47 g/m*3 6.9 C 0 km/h
1604 01-03-2014 18:35:00 6.8 C 6.5 g/m*3 6.8 C 0 km/h
1605 01-03-2014 18:40:00 6.7 C 6.46 g/m*3 6.7 C 0 km/h
1606 01-03-2014 18:45:00 6.6 C 6.49 g/m*3 6.6 C 0 km/h
1607 01-03-2014 18:50:00 6.5 C 6.45 g/m*3 6.5 C 0 km/h
1608 01-03-2014 18:55:00 6.4 C 6.48 g/m*3 6.4 C 0 km/h
1609 01-03-2014 19:00:00 6.4 C 6.56 g/m*3 6.4 C 0 km/h
1610 01-03-2014 19:05:00 6.3 C 6.51 g/m*3 6.3 C 1.6 km/h
1611 01-03-2014 19:10:00 6.3 C 6.51 g/m*3 6.3 C 1.6 km/h
1612 01-03-2014 19:15:00 6.3 C 6.51 g/m*3 6.3 C 0 km/h
1613 01-03-2014 19:20:00 6.3 C 6.51 g/m*3 6.3 C 0 km/h
1614 01-03-2014 19:25:00 6.3 C 6.51 g/m*3 6.3 C 0 km/h
1615 01-03-2014 19:30:00 6.2 C 6.47 g/m*3 6.2 C 0 km/h
1616 01-03-2014 19:35:00 6.1 C 6.43 g/m*3 6.1 C 0 km/h
1617 01-03-2014 19:40:00 6 C 6.39 g/m*3 6 C 0 km/h
1618 01-03-2014 19:45:00 5.9 C 6.35 g/m*3 5.9 C 0 km/h
1619 01-03-2014 19:50:00 5.9 C 6.42 g/m*3 5.9 C 1.6 km/h
1620 01-03-2014 19:55:00 5.9 C 6.42 g/m*3 5.9 C 1.6 km/h
1621 01-03-2014 20:00:00 5.8 C 6.3 g/m*3 5.8 C 1.6 km/h
1622 01-03-2014 20:05:00 5.8 C 6.38 g/m*3 5.8 C 1.6 km/h
1623 01-03-2014 20:10:00 5.7 C 6.33 g/m*3 5.7 C 1.6 km/h
1624 01-03-2014 20:15:00 5.5 C 6.18 g/m*3 5.5 C 3.2 km/h
1625 01-03-2014 20:20:00 5.4 C 6.21 g/m*3 5.4 C 3.2 km/h
Sensor: Nr:Datum:Temp:Abs-Feuchte:Windchill:Wind:
Aussen-T/F 1626 01-03-2014 20:25:00 5.2 C 6.13 g/m*3 5.2 C 3.2 km/h
1627 01-03-2014 20:30:00 5.2 C 6.2 g/m*3 5.2 C 4.8 km/h
1628 01-03-2014 20:35:00 5.1 C 6.16 g/m*3 5.1 C 1.6 km/h
1629 01-03-2014 20:40:00 4.9 C 6.08 g/m*3 4.9 C 0 km/h
1630 01-03-2014 20:45:00 4.8 C 6.04 g/m*3 4.8 C 0 km/h
1631 01-03-2014 20:50:00 4.6 C 5.96 g/m*3 4.6 C 0 km/h
1632 01-03-2014 20:55:00 4.4 C 5.94 g/m*3 4.4 C 1.6 km/h
1633 01-03-2014 21:00:00 4.2 C 5.8 g/m*3 4.2 C 0 km/h
1634 01-03-2014 21:05:00 4.1 C 5.82 g/m*3 4.1 C 0 km/h
1635 01-03-2014 21:10:00 3.9 C 5.75 g/m*3 3.9 C 3.2 km/h
1636 01-03-2014 21:15:00 3.8 C 5.71 g/m*3 3.8 C 1.6 km/h
1637 01-03-2014 21:20:00 3.7 C 5.73 g/m*3 3.7 C 1.6 km/h
1638 01-03-2014 21:25:00 3.6 C 5.69 g/m*3 3.6 C 3.2 km/h
1639 01-03-2014 21:30:00 3.5 C 5.6 g/m*3 3.5 C 1.6 km/h
1640 01-03-2014 21:35:00 3.4 C 5.62 g/m*3 3.4 C 0 km/h
1641 01-03-2014 21:40:00 3.3 C 5.58 g/m*3 3.3 C 1.6 km/h
1642 01-03-2014 21:45:00 3.2 C 5.54 g/m*3 3.2 C 0 km/h
1643 01-03-2014 21:50:00 3.1 C 5.51 g/m*3 3.1 C 1.6 km/h
1644 01-03-2014 21:55:00 3.1 C 5.57 g/m*3 3.1 C 3.2 km/h
1645 01-03-2014 22:00:00 3 C 5.53 g/m*3 3 C 1.6 km/h
1646 01-03-2014 22:05:00 2.9 C 5.49 g/m*3 2.9 C 3.2 km/h
1647 01-03-2014 22:10:00 2.9 C 5.49 g/m*3 2.9 C 3.2 km/h
1648 01-03-2014 22:15:00 2.8 C 5.46 g/m*3 2.8 C 0 km/h
1649 01-03-2014 22:20:00 2.7 C 5.42 g/m*3 2.7 C 0 km/h
1650 01-03-2014 22:25:00 2.8 C 5.51 g/m*3 2.8 C 3.2 km/h
Sensor: Nr:Datum:Temp:Abs-Feuchte:Windchill:Wind:
Aussen-T/F 1651 01-03-2014 22:30:00 2.8 C 5.51 g/m*3 2.8 C 4.8 km/h
1652 01-03-2014 22:35:00 2.8 C 5.51 g/m*3 2.8 C 1.6 km/h
1653 01-03-2014 22:40:00 2.9 C 5.55 g/m*3 2.9 C 1.6 km/h
1654 01-03-2014 22:45:00 2.9 C 5.55 g/m*3 2.9 C 0 km/h
1655 01-03-2014 22:50:00 2.9 C 5.55 g/m*3 2.9 C 0 km/h
1656 01-03-2014 22:55:00 2.9 C 5.55 g/m*3 2.9 C 3.2 km/h
1657 01-03-2014 23:00:00 3 C 5.59 g/m*3 3 C 1.6 km/h
1658 01-03-2014 23:05:00 2.9 C 5.49 g/m*3 2.9 C 1.6 km/h
1659 01-03-2014 23:10:00 2.8 C 5.51 g/m*3 2.8 C 0 km/h
1660 01-03-2014 23:15:00 2.8 C 5.51 g/m*3 2.8 C 0 km/h
1661 01-03-2014 23:20:00 2.7 C 5.42 g/m*3 2.7 C 0 km/h
1662 01-03-2014 23:25:00 2.6 C 5.44 g/m*3 2.6 C 3.2 km/h
1663 01-03-2014 23:30:00 2.6 C 5.44 g/m*3 2.6 C 1.6 km/h
1664 01-03-2014 23:35:00 2.5 C 5.35 g/m*3 2.5 C 0 km/h
1665 01-03-2014 23:40:00 2.4 C 5.37 g/m*3 2.4 C 0 km/h
1666 01-03-2014 23:45:00 2.4 C 5.37 g/m*3 2.4 C 0 km/h
1667 01-03-2014 23:50:00 2.3 C 5.33 g/m*3 2.3 C 0 km/h
1668 01-03-2014 23:55:00 2.1 C 5.26 g/m*3 2.1 C 1.6 km/h
1669 02-03-2014 00:00:00 2.1 C 5.26 g/m*3 2.1 C 0 km/h
1670 02-03-2014 00:05:00 2.1 C 5.26 g/m*3 2.1 C 0 km/h
1671 02-03-2014 00:10:00 2 C 5.22 g/m*3 2 C 0 km/h
1672 02-03-2014 00:15:00 1.9 C 5.19 g/m*3 1.9 C 0 km/h
1673 02-03-2014 00:20:00 1.8 C 5.15 g/m*3 1.8 C 0 km/h
1674 02-03-2014 00:25:00 1.7 C 5.12 g/m*3 1.7 C 0 km/h
1675 02-03-2014 00:30:00 1.7 C 5.17 g/m*3 1.7 C 0 km/h
Sensor: Nr:Datum:Temp:Abs-Feuchte:Windchill:Wind:
Aussen-T/F 1676 02-03-2014 00:35:00 1.8 C 5.21 g/m*3 1.8 C 0 km/h
1677 02-03-2014 00:40:00 1.8 C 5.21 g/m*3 1.8 C 0 km/h
1678 02-03-2014 00:45:00 1.7 C 5.17 g/m*3 1.7 C 0 km/h
1679 02-03-2014 00:50:00 1.7 C 5.17 g/m*3 1.7 C 0 km/h
1680 02-03-2014 00:55:00 1.6 C 5.14 g/m*3 1.6 C 3.2 km/h
1681 02-03-2014 01:00:00 1.6 C 5.14 g/m*3 1.6 C 3.2 km/h
1682 02-03-2014 01:05:00 1.5 C 5.1 g/m*3 1.5 C 0 km/h
1683 02-03-2014 01:10:00 1.5 C 5.1 g/m*3 1.5 C 0 km/h
1684 02-03-2014 01:15:00 1.6 C 5.14 g/m*3 1.6 C 0 km/h
1685 02-03-2014 01:20:00 1.5 C 5.1 g/m*3 1.5 C 1.6 km/h
1686 02-03-2014 01:25:00 1.4 C 5.07 g/m*3 1.4 C 0 km/h
1687 02-03-2014 01:30:00 1.4 C 5.07 g/m*3 1.4 C 0 km/h
1688 02-03-2014 01:35:00 1.4 C 5.07 g/m*3 1.4 C 0 km/h
1689 02-03-2014 01:40:00 1.5 C 5.16 g/m*3 1.5 C 0 km/h
1690 02-03-2014 01:45:00 1.5 C 5.16 g/m*3 1.5 C 1.6 km/h
1691 02-03-2014 01:50:00 1.6 C 5.19 g/m*3 1.6 C 1.6 km/h
1692 02-03-2014 01:55:00 1.6 C 5.19 g/m*3 1.6 C 3.2 km/h
1693 02-03-2014 02:00:00 1.6 C 5.19 g/m*3 1.6 C 1.6 km/h
1694 02-03-2014 02:05:00 1.5 C 5.16 g/m*3 1.5 C 0 km/h
1695 02-03-2014 02:10:00 1.4 C 5.07 g/m*3 1.4 C 1.6 km/h
1696 02-03-2014 02:15:00 1.4 C 5.07 g/m*3 1.4 C 0 km/h
1697 02-03-2014 02:20:00 1.3 C 5.03 g/m*3 1.3 C 0 km/h
1698 02-03-2014 02:25:00 1.3 C 5.03 g/m*3 1.3 C 1.6 km/h
1699 02-03-2014 02:30:00 1.3 C 5.09 g/m*3 1.3 C 1.6 km/h
1700 02-03-2014 02:35:00 1.3 C 5.09 g/m*3 1.3 C 0 km/h
Sensor: Nr:Datum:Temp:Abs-Feuchte:Windchill:Wind:
Aussen-T/F 1701 02-03-2014 02:40:00 1.4 C 5.12 g/m*3 1.4 C 0 km/h
1702 02-03-2014 02:45:00 1.5 C 5.16 g/m*3 1.5 C 0 km/h
1703 02-03-2014 02:50:00 1.5 C 5.16 g/m*3 1.5 C 0 km/h
1704 02-03-2014 02:55:00 1.6 C 5.19 g/m*3 1.6 C 0 km/h
1705 02-03-2014 03:00:00 1.6 C 5.19 g/m*3 1.6 C 0 km/h
1706 02-03-2014 03:05:00 1.6 C 5.19 g/m*3 1.6 C 0 km/h
1707 02-03-2014 03:10:00 1.7 C 5.23 g/m*3 1.7 C 0 km/h
1708 02-03-2014 03:15:00 1.7 C 5.23 g/m*3 1.7 C 0 km/h
1709 02-03-2014 03:20:00 1.8 C 5.26 g/m*3 1.8 C 0 km/h
1710 02-03-2014 03:25:00 2 C 5.33 g/m*3 2 C 0 km/h
1711 02-03-2014 03:30:00 2.1 C 5.37 g/m*3 2.1 C 0 km/h
1712 02-03-2014 03:35:00 2.2 C 5.41 g/m*3 2.2 C 0 km/h
1713 02-03-2014 03:40:00 2.2 C 5.41 g/m*3 2.2 C 3.2 km/h
1714 02-03-2014 03:45:00 2.1 C 5.37 g/m*3 2.1 C 0 km/h
1715 02-03-2014 03:50:00 2.2 C 5.41 g/m*3 2.2 C 0 km/h
1716 02-03-2014 03:55:00 2.3 C 5.44 g/m*3 2.3 C 0 km/h
1717 02-03-2014 04:00:00 2.2 C 5.41 g/m*3 2.2 C 0 km/h
1718 02-03-2014 04:05:00 2.1 C 5.37 g/m*3 2.1 C 3.2 km/h
1719 02-03-2014 04:10:00 2 C 5.33 g/m*3 2 C 0 km/h
1720 02-03-2014 04:15:00 1.9 C 5.3 g/m*3 1.9 C 0 km/h
1721 02-03-2014 04:20:00 1.8 C 5.21 g/m*3 1.8 C 0 km/h
1722 02-03-2014 04:25:00 1.7 C 5.17 g/m*3 1.7 C 1.6 km/h
1723 02-03-2014 04:30:00 1.6 C 5.14 g/m*3 1.6 C 1.6 km/h
1724 02-03-2014 04:35:00 1.6 C 5.19 g/m*3 1.6 C 1.6 km/h
1725 02-03-2014 04:40:00 1.5 C 5.16 g/m*3 1.5 C 0 km/h
Sensor: Nr:Datum:Temp:Abs-Feuchte:Windchill:Wind:
Aussen-T/F 1726 02-03-2014 04:45:00 1.4 C 5.07 g/m*3 1.4 C 1.6 km/h
1727 02-03-2014 04:50:00 1.3 C 5.03 g/m*3 1.3 C 0 km/h
1728 02-03-2014 04:55:00 1.2 C 5 g/m*3 1.2 C 1.6 km/h
1729 02-03-2014 05:00:00 1.1 C 4.96 g/m*3 1.1 C 0 km/h
1730 02-03-2014 05:05:00 0.9 C 4.9 g/m*3 0.9 C 0 km/h
1731 02-03-2014 05:10:00 0.9 C 4.95 g/m*3 0.9 C 0 km/h
1732 02-03-2014 05:15:00 1 C 4.98 g/m*3 1 C 0 km/h
1733 02-03-2014 05:20:00 0.9 C 4.95 g/m*3 0.9 C 0 km/h
1734 02-03-2014 05:25:00 1 C 4.98 g/m*3 1 C 1.6 km/h
1735 02-03-2014 05:30:00 0.9 C 4.95 g/m*3 0.9 C 0 km/h
1736 02-03-2014 05:35:00 0.9 C 4.95 g/m*3 0.9 C 0 km/h
1737 02-03-2014 05:40:00 0.8 C 4.91 g/m*3 0.8 C 0 km/h
1738 02-03-2014 05:45:00 0.7 C 4.88 g/m*3 0.7 C 0 km/h
1739 02-03-2014 05:50:00 0.7 C 4.88 g/m*3 0.7 C 0 km/h
1740 02-03-2014 05:55:00 0.6 C 4.85 g/m*3 0.6 C 0 km/h
1741 02-03-2014 06:00:00 0.5 C 4.81 g/m*3 0.5 C 0 km/h
1742 02-03-2014 06:05:00 0.4 C 4.78 g/m*3 0.4 C 0 km/h
1743 02-03-2014 06:10:00 0.4 C 4.78 g/m*3 0.4 C 0 km/h
1744 02-03-2014 06:15:00 0.3 C 4.75 g/m*3 0.3 C 0 km/h
1745 02-03-2014 06:20:00 0.3 C 4.75 g/m*3 0.3 C 0 km/h
1746 02-03-2014 06:25:00 0.3 C 4.75 g/m*3 0.3 C 0 km/h
1747 02-03-2014 06:30:00 0.3 C 4.75 g/m*3 0.3 C 0 km/h
1748 02-03-2014 06:35:00 0.4 C 4.78 g/m*3 0.4 C 0 km/h
1749 02-03-2014 06:40:00 0.4 C 4.78 g/m*3 0.4 C 0 km/h
1750 02-03-2014 06:45:00 0.5 C 4.81 g/m*3 0.5 C 0 km/h
Sensor: Nr:Datum:Temp:Abs-Feuchte:Windchill:Wind:
Aussen-T/F 1751 02-03-2014 06:50:00 0.4 C 4.78 g/m*3 0.4 C 0 km/h
1752 02-03-2014 06:55:00 0.3 C 4.75 g/m*3 0.3 C 0 km/h
1753 02-03-2014 07:00:00 0.4 C 4.78 g/m*3 0.4 C 0 km/h
1754 02-03-2014 07:05:00 0.3 C 4.75 g/m*3 0.3 C 0 km/h
1755 02-03-2014 07:10:00 0.2 C 4.72 g/m*3 0.2 C 1.6 km/h
1756 02-03-2014 07:15:00 0.2 C 4.72 g/m*3 0.2 C 1.6 km/h
1757 02-03-2014 07:20:00 0.3 C 4.8 g/m*3 0.3 C 3.2 km/h
1758 02-03-2014 07:25:00 0.3 C 4.8 g/m*3 0.3 C 0 km/h
1759 02-03-2014 07:30:00 0.3 C 4.8 g/m*3 0.3 C 0 km/h
1760 02-03-2014 07:35:00 0.3 C 4.8 g/m*3 0.3 C 0 km/h
1761 02-03-2014 07:40:00 0.3 C 4.75 g/m*3 0.3 C 1.6 km/h
1762 02-03-2014 07:45:00 0.3 C 4.75 g/m*3 0.3 C 0 km/h
1763 02-03-2014 07:50:00 0.2 C 4.72 g/m*3 0.2 C 0 km/h
1764 02-03-2014 07:55:00 0.3 C 4.8 g/m*3 0.3 C 3.2 km/h
1765 02-03-2014 08:00:00 0.4 C 4.83 g/m*3 0.4 C 0 km/h
1766 02-03-2014 08:05:00 0.4 C 4.83 g/m*3 0.4 C 1.6 km/h
1767 02-03-2014 08:10:00 0.5 C 4.86 g/m*3 0.5 C 1.6 km/h
1768 02-03-2014 08:15:00 0.5 C 4.86 g/m*3 0.5 C 0 km/h
1769 02-03-2014 08:20:00 0.6 C 4.9 g/m*3 0.6 C 3.2 km/h
1770 02-03-2014 08:25:00 0.6 C 4.9 g/m*3 0.6 C 4.8 km/h
1771 02-03-2014 08:30:00 0.6 C 4.9 g/m*3 0.6 C 3.2 km/h
1772 02-03-2014 08:35:00 0.6 C 4.9 g/m*3 0.6 C 1.6 km/h
1773 02-03-2014 08:40:00 0.6 C 4.9 g/m*3 0.6 C 0 km/h
1774 02-03-2014 08:45:00 0.6 C 4.9 g/m*3 0.6 C 1.6 km/h
1775 02-03-2014 08:50:00 0.6 C 4.9 g/m*3 0.6 C 1.6 km/h
Sensor: Nr:Datum:Temp:Abs-Feuchte:Windchill:Wind:
Aussen-T/F 1776 02-03-2014 08:55:00 0.7 C 4.93 g/m*3 0.7 C 0 km/h
1777 02-03-2014 09:00:00 0.7 C 4.93 g/m*3 0.7 C 0 km/h
1778 02-03-2014 09:05:00 0.8 C 4.97 g/m*3 0.8 C 0 km/h
1779 02-03-2014 09:10:00 0.9 C 5 g/m*3 0.9 C 0 km/h
1780 02-03-2014 09:15:00 1 C 5.03 g/m*3 1 C 0 km/h
1781 02-03-2014 09:20:00 1.1 C 5.07 g/m*3 1.1 C 1.6 km/h
1782 02-03-2014 09:25:00 1.2 C 5.1 g/m*3 1.2 C 1.6 km/h
1783 02-03-2014 09:30:00 1.3 C 5.14 g/m*3 1.3 C 1.6 km/h
1784 02-03-2014 09:35:00 1.4 C 5.17 g/m*3 1.4 C 1.6 km/h
1785 02-03-2014 09:40:00 1.5 C 5.21 g/m*3 1.5 C 0 km/h
1786 02-03-2014 09:45:00 1.6 C 5.25 g/m*3 1.6 C 1.6 km/h
1787 02-03-2014 09:50:00 1.6 C 5.25 g/m*3 1.6 C 0 km/h
1788 02-03-2014 09:55:00 1.7 C 5.28 g/m*3 1.7 C 0 km/h
1789 02-03-2014 10:00:00 1.8 C 5.32 g/m*3 1.8 C 1.6 km/h
1790 02-03-2014 10:05:00 1.9 C 5.35 g/m*3 1.9 C 1.6 km/h
1791 02-03-2014 10:10:00 2.2 C 5.52 g/m*3 2.2 C 0 km/h
1792 02-03-2014 10:15:00 2.4 C 5.6 g/m*3 2.4 C 1.6 km/h
1793 02-03-2014 10:20:00 2.6 C 5.67 g/m*3 2.6 C 3.2 km/h
1794 02-03-2014 10:25:00 2.7 C 5.71 g/m*3 2.7 C 3.2 km/h
1795 02-03-2014 10:30:00 3 C 5.83 g/m*3 3 C 1.6 km/h
1796 02-03-2014 10:35:00 3.1 C 5.87 g/m*3 3.1 C 3.2 km/h
1797 02-03-2014 10:40:00 3.3 C 5.95 g/m*3 3.3 C 3.2 km/h
1798 02-03-2014 10:45:00 3.5 C 6.03 g/m*3 3.5 C 3.2 km/h
1799 02-03-2014 10:50:00 3.6 C 6.07 g/m*3 3.6 C 3.2 km/h
1800 02-03-2014 10:55:00 3.7 C 6.11 g/m*3 3.7 C 0 km/h
Sensor: Nr:Datum:Temp:Abs-Feuchte:Windchill:Wind:
Aussen-T/F 1801 02-03-2014 11:00:00 3.7 C 6.11 g/m*3 3.7 C 0 km/h
1802 02-03-2014 11:05:00 3.7 C 6.04 g/m*3 3.7 C 0 km/h
1803 02-03-2014 11:10:00 3.7 C 6.04 g/m*3 3.7 C 0 km/h
1804 02-03-2014 11:15:00 3.8 C 6.09 g/m*3 3.8 C 1.6 km/h
1805 02-03-2014 11:20:00 3.8 C 6.09 g/m*3 3.8 C 3.2 km/h
1806 02-03-2014 11:25:00 4 C 6.17 g/m*3 4 C 3.2 km/h
1807 02-03-2014 11:30:00 4.2 C 6.25 g/m*3 2.67 C 6.4 km/h
1808 02-03-2014 11:35:00 4.5 C 6.24 g/m*3 3.02 C 6.4 km/h
1809 02-03-2014 11:40:00 4.8 C 6.3 g/m*3 2.49 C 9.7 km/h
1810 02-03-2014 11:45:00 5.3 C 6.38 g/m*3 3.08 C 9.7 km/h
1811 02-03-2014 11:50:00 5.7 C 6.19 g/m*3 2.95 C 12.9 km/h
1812 02-03-2014 11:55:00 5.7 C 5.91 g/m*3 2.95 C 12.9 km/h
1813 02-03-2014 12:00:00 5.8 C 5.8 g/m*3 3.36 C 11.3 km/h
1814 02-03-2014 12:05:00 5.8 C 5.87 g/m*3 3.36 C 11.3 km/h
1815 02-03-2014 12:10:00 5.9 C 5.84 g/m*3 2.93 C 14.5 km/h
1816 02-03-2014 12:15:00 6.1 C 5.84 g/m*3 3.43 C 12.9 km/h
1817 02-03-2014 12:20:00 6.4 C 5.89 g/m*3 4.08 C 11.3 km/h
1818 02-03-2014 12:25:00 6.6 C 5.89 g/m*3 3.79 C 14.5 km/h
1819 02-03-2014 12:30:00 6.6 C 5.81 g/m*3 4.04 C 12.9 km/h
1820 02-03-2014 12:35:00 6.5 C 5.7 g/m*3 3.92 C 12.9 km/h
1821 02-03-2014 12:40:00 6.4 C 5.66 g/m*3 3.32 C 16.1 km/h
1822 02-03-2014 12:45:00 6.3 C 5.7 g/m*3 3.2 C 16.1 km/h
1823 02-03-2014 12:50:00 6.3 C 5.7 g/m*3 3.96 C 11.3 km/h
1824 02-03-2014 12:55:00 6.4 C 5.81 g/m*3 4.39 C 9.7 km/h
1825 02-03-2014 13:00:00 6.7 C 5.77 g/m*3 5.11 C 8.1 km/h
Sensor: Nr:Datum:Temp:Abs-Feuchte:Windchill:Wind:
Aussen-T/F 1826 02-03-2014 13:05:00 6.7 C 5.62 g/m*3 4.75 C 9.7 km/h
1827 02-03-2014 13:10:00 6.8 C 5.66 g/m*3 3.82 C 16.1 km/h
1828 02-03-2014 13:15:00 6.9 C 5.7 g/m*3 4.68 C 11.3 km/h
1829 02-03-2014 13:20:00 7.2 C 5.81 g/m*3 6.13 C 6.4 km/h
1830 02-03-2014 13:25:00 7.4 C 5.73 g/m*3 5.58 C 9.7 km/h
1831 02-03-2014 13:30:00 7.4 C 5.65 g/m*3 5.58 C 9.7 km/h
1832 02-03-2014 13:35:00 7.5 C 5.68 g/m*3 5.7 C 9.7 km/h
1833 02-03-2014 13:40:00 7.4 C 5.65 g/m*3 5.93 C 8.1 km/h
1834 02-03-2014 13:45:00 7.3 C 5.61 g/m*3 5.81 C 8.1 km/h
1835 02-03-2014 13:50:00 7.3 C 5.53 g/m*3 5.16 C 11.3 km/h
1836 02-03-2014 13:55:00 7.4 C 5.73 g/m*3 7.4 C 4.8 km/h
1837 02-03-2014 14:00:00 7.5 C 5.68 g/m*3 5.7 C 9.7 km/h
1838 02-03-2014 14:05:00 7.6 C 5.56 g/m*3 5.53 C 11.3 km/h
1839 02-03-2014 14:10:00 7.6 C 5.64 g/m*3 5.82 C 9.7 km/h
1840 02-03-2014 14:15:00 7.8 C 5.71 g/m*3 6.06 C 9.7 km/h
1841 02-03-2014 14:20:00 8.2 C 5.78 g/m*3 6.87 C 8.1 km/h
1842 02-03-2014 14:25:00 8.2 C 5.61 g/m*3 6.87 C 8.1 km/h
1843 02-03-2014 14:30:00 8.2 C 5.78 g/m*3 6.87 C 8.1 km/h
1844 02-03-2014 14:35:00 8.2 C 5.61 g/m*3 7.29 C 6.4 km/h
1845 02-03-2014 14:40:00 8.2 C 5.69 g/m*3 6.87 C 8.1 km/h
1846 02-03-2014 14:45:00 8.3 C 5.73 g/m*3 6.37 C 11.3 km/h
1847 02-03-2014 14:50:00 8.3 C 5.73 g/m*3 6.99 C 8.1 km/h
1848 02-03-2014 14:55:00 8.3 C 5.73 g/m*3 8.3 C 4.8 km/h
1849 02-03-2014 15:00:00 8.4 C 5.68 g/m*3 8.4 C 4.8 km/h
1850 02-03-2014 15:05:00 8.6 C 5.76 g/m*3 8.6 C 4.8 km/h
Sensor: Nr:Datum:Temp:Abs-Feuchte:Windchill:Wind:
Aussen-T/F 1851 02-03-2014 15:10:00 8.8 C 5.74 g/m*3 8.8 C 4.8 km/h
1852 02-03-2014 15:15:00 8.8 C 5.57 g/m*3 7.25 C 9.7 km/h
1853 02-03-2014 15:20:00 8.8 C 5.66 g/m*3 7.58 C 8.1 km/h
1854 02-03-2014 15:25:00 8.9 C 5.61 g/m*3 8.1 C 6.4 km/h
1855 02-03-2014 15:30:00 9.1 C 5.86 g/m*3 9.1 C 4.8 km/h
1856 02-03-2014 15:35:00 9.2 C 5.71 g/m*3 8.45 C 6.4 km/h
1857 02-03-2014 15:40:00 9.2 C 5.71 g/m*3 9.2 C 4.8 km/h
1858 02-03-2014 15:45:00 9.3 C 6.11 g/m*3 9.3 C 4.8 km/h
1859 02-03-2014 15:50:00 9.4 C 5.97 g/m*3 7.7 C 11.3 km/h
1860 02-03-2014 15:55:00 9.3 C 5.93 g/m*3 8.16 C 8.1 km/h
1861 02-03-2014 16:00:00 9.1 C 5.77 g/m*3 7.61 C 9.7 km/h
1862 02-03-2014 16:05:00 8.9 C 5.61 g/m*3 8.9 C 4.8 km/h
1863 02-03-2014 16:10:00 8.8 C 5.66 g/m*3 7.98 C 6.4 km/h
1864 02-03-2014 16:15:00 8.9 C 5.61 g/m*3 8.9 C 4.8 km/h
1865 02-03-2014 16:20:00 8.9 C 5.78 g/m*3 8.9 C 3.2 km/h
1866 02-03-2014 16:25:00 9.1 C 5.77 g/m*3 9.1 C 4.8 km/h
1867 02-03-2014 16:30:00 9.2 C 5.8 g/m*3 9.2 C 4.8 km/h
1868 02-03-2014 16:35:00 9.3 C 5.75 g/m*3 9.3 C 4.8 km/h
1869 02-03-2014 16:40:00 9.3 C 5.66 g/m*3 9.3 C 3.2 km/h
1870 02-03-2014 16:45:00 9.3 C 5.66 g/m*3 8.16 C 8.1 km/h
1871 02-03-2014 16:50:00 9.3 C 5.66 g/m*3 8.56 C 6.4 km/h
1872 02-03-2014 16:55:00 9.2 C 5.63 g/m*3 9.2 C 3.2 km/h
1873 02-03-2014 17:00:00 9.2 C 5.71 g/m*3 9.2 C 4.8 km/h
1874 02-03-2014 17:05:00 9 C 5.55 g/m*3 9 C 4.8 km/h
1875 02-03-2014 17:10:00 8.8 C 5.92 g/m*3 8.8 C 1.6 km/h
Sensor: Nr:Datum:Temp:Abs-Feuchte:Windchill:Wind:
Aussen-T/F 1876 02-03-2014 17:15:00 8.6 C 5.67 g/m*3 8.6 C 4.8 km/h
1877 02-03-2014 17:20:00 8.4 C 5.68 g/m*3 8.4 C 3.2 km/h
1878 02-03-2014 17:25:00 8.2 C 5.78 g/m*3 8.2 C 0 km/h
1879 02-03-2014 17:30:00 7.9 C 5.91 g/m*3 7.9 C 1.6 km/h
1880 02-03-2014 17:35:00 7.8 C 5.96 g/m*3 7.8 C 1.6 km/h
1881 02-03-2014 17:40:00 7.1 C 6.01 g/m*3 7.1 C 1.6 km/h
1882 02-03-2014 17:45:00 6.8 C 5.97 g/m*3 6.8 C 3.2 km/h
1883 02-03-2014 17:50:00 6.7 C 5.93 g/m*3 6.7 C 3.2 km/h
1884 02-03-2014 17:55:00 6.4 C 5.96 g/m*3 6.4 C 4.8 km/h
1885 02-03-2014 18:00:00 6.1 C 5.92 g/m*3 6.1 C 3.2 km/h
1886 02-03-2014 18:05:00 5.8 C 5.8 g/m*3 4.52 C 6.4 km/h
1887 02-03-2014 18:10:00 5.6 C 5.8 g/m*3 5.6 C 4.8 km/h
1888 02-03-2014 18:15:00 5.4 C 5.79 g/m*3 5.4 C 4.8 km/h
1889 02-03-2014 18:20:00 5.2 C 5.71 g/m*3 5.2 C 4.8 km/h
1890 02-03-2014 18:25:00 5 C 5.71 g/m*3 5 C 3.2 km/h
1891 02-03-2014 18:30:00 4.8 C 5.63 g/m*3 3.36 C 6.4 km/h
1892 02-03-2014 18:35:00 4.6 C 5.69 g/m*3 4.6 C 4.8 km/h
1893 02-03-2014 18:40:00 4.6 C 5.62 g/m*3 4.6 C 3.2 km/h
1894 02-03-2014 18:45:00 4.4 C 5.55 g/m*3 4.4 C 4.8 km/h
1895 02-03-2014 18:50:00 4.2 C 5.48 g/m*3 2.67 C 6.4 km/h
1896 02-03-2014 18:55:00 4.1 C 5.44 g/m*3 2.55 C 6.4 km/h
1897 02-03-2014 19:00:00 4 C 5.4 g/m*3 2.44 C 6.4 km/h
1898 02-03-2014 19:05:00 3.9 C 5.43 g/m*3 2.32 C 6.4 km/h
1899 02-03-2014 19:10:00 3.8 C 5.33 g/m*3 3.8 C 4.8 km/h
1900 02-03-2014 19:15:00 3.8 C 5.33 g/m*3 3.8 C 4.8 km/h
Sensor: Nr:Datum:Temp:Abs-Feuchte:Windchill:Wind:
Aussen-T/F 1901 02-03-2014 19:20:00 3.7 C 5.3 g/m*3 3.7 C 4.8 km/h
1902 02-03-2014 19:25:00 3.6 C 5.26 g/m*3 3.6 C 4.8 km/h
1903 02-03-2014 19:30:00 3.5 C 5.29 g/m*3 3.5 C 4.8 km/h
1904 02-03-2014 19:35:00 3.4 C 5.25 g/m*3 3.4 C 4.8 km/h
1905 02-03-2014 19:40:00 3.4 C 5.25 g/m*3 3.4 C 4.8 km/h
1906 02-03-2014 19:45:00 3.3 C 5.28 g/m*3 3.3 C 4.8 km/h
1907 02-03-2014 19:50:00 3.3 C 5.28 g/m*3 1.63 C 6.4 km/h
1908 02-03-2014 19:55:00 3.3 C 5.28 g/m*3 1.63 C 6.4 km/h
1909 02-03-2014 20:00:00 3.2 C 5.24 g/m*3 3.2 C 3.2 km/h
1910 02-03-2014 20:05:00 3.2 C 5.24 g/m*3 3.2 C 4.8 km/h
1911 02-03-2014 20:10:00 3.1 C 5.21 g/m*3 3.1 C 3.2 km/h
1912 02-03-2014 20:15:00 3.1 C 5.21 g/m*3 3.1 C 4.8 km/h
1913 02-03-2014 20:20:00 3.1 C 5.21 g/m*3 3.1 C 4.8 km/h
1914 02-03-2014 20:25:00 3 C 5.17 g/m*3 3 C 3.2 km/h
1915 02-03-2014 20:30:00 2.9 C 5.2 g/m*3 2.9 C 4.8 km/h
1916 02-03-2014 20:35:00 2.9 C 5.2 g/m*3 2.9 C 4.8 km/h
1917 02-03-2014 20:40:00 2.9 C 5.2 g/m*3 1.17 C 6.4 km/h
1918 02-03-2014 20:45:00 2.9 C 5.2 g/m*3 2.9 C 4.8 km/h
1919 02-03-2014 20:50:00 2.8 C 5.16 g/m*3 2.8 C 4.8 km/h
1920 02-03-2014 20:55:00 2.7 C 5.13 g/m*3 2.7 C 3.2 km/h
1921 02-03-2014 21:00:00 2.7 C 5.13 g/m*3 2.7 C 4.8 km/h
1922 02-03-2014 21:05:00 2.7 C 5.19 g/m*3 2.7 C 4.8 km/h
1923 02-03-2014 21:10:00 2.6 C 5.09 g/m*3 2.6 C 3.2 km/h
1924 02-03-2014 21:15:00 2.7 C 5.13 g/m*3 2.7 C 3.2 km/h
1925 02-03-2014 21:20:00 2.7 C 5.13 g/m*3 2.7 C 3.2 km/h
Sensor: Nr:Datum:Temp:Abs-Feuchte:Windchill:Wind:
Aussen-T/F 1926 02-03-2014 21:25:00 2.7 C 5.19 g/m*3 2.7 C 4.8 km/h
1927 02-03-2014 21:30:00 2.6 C 5.15 g/m*3 2.6 C 4.8 km/h
1928 02-03-2014 21:35:00 2.6 C 5.15 g/m*3 2.6 C 3.2 km/h
1929 02-03-2014 21:40:00 2.6 C 5.15 g/m*3 2.6 C 3.2 km/h
1930 02-03-2014 21:45:00 2.7 C 5.24 g/m*3 2.7 C 4.8 km/h
1931 02-03-2014 21:50:00 2.7 C 5.19 g/m*3 2.7 C 4.8 km/h
1932 02-03-2014 21:55:00 2.6 C 5.21 g/m*3 2.6 C 4.8 km/h
1933 02-03-2014 22:00:00 2.6 C 5.21 g/m*3 2.6 C 4.8 km/h
1934 02-03-2014 22:05:00 2.7 C 5.24 g/m*3 2.7 C 4.8 km/h
1935 02-03-2014 22:10:00 2.8 C 5.28 g/m*3 2.8 C 3.2 km/h
1936 02-03-2014 22:15:00 2.7 C 5.24 g/m*3 2.7 C 3.2 km/h
1937 02-03-2014 22:20:00 2.6 C 5.21 g/m*3 2.6 C 4.8 km/h
1938 02-03-2014 22:25:00 2.6 C 5.27 g/m*3 2.6 C 1.6 km/h
1939 02-03-2014 22:30:00 2.5 C 5.23 g/m*3 2.5 C 3.2 km/h
1940 02-03-2014 22:35:00 2.5 C 5.23 g/m*3 2.5 C 3.2 km/h
1941 02-03-2014 22:40:00 2.4 C 5.2 g/m*3 2.4 C 3.2 km/h
1942 02-03-2014 22:45:00 2.4 C 5.2 g/m*3 2.4 C 3.2 km/h
1943 02-03-2014 22:50:00 2.3 C 5.16 g/m*3 2.3 C 1.6 km/h
1944 02-03-2014 22:55:00 2.2 C 5.13 g/m*3 2.2 C 3.2 km/h
1945 02-03-2014 23:00:00 2.2 C 5.18 g/m*3 2.2 C 3.2 km/h
1946 02-03-2014 23:05:00 2.2 C 5.18 g/m*3 2.2 C 3.2 km/h
1947 02-03-2014 23:10:00 2.1 C 5.15 g/m*3 2.1 C 4.8 km/h
1948 02-03-2014 23:15:00 2.1 C 5.15 g/m*3 2.1 C 3.2 km/h
1949 02-03-2014 23:20:00 2.1 C 5.15 g/m*3 2.1 C 3.2 km/h
1950 02-03-2014 23:25:00 2 C 5.11 g/m*3 2 C 3.2 km/h
Sensor: Nr:Datum:Temp:Abs-Feuchte:Windchill:Wind:
Aussen-T/F 1951 02-03-2014 23:30:00 2.1 C 5.15 g/m*3 2.1 C 1.6 km/h
1952 02-03-2014 23:35:00 2 C 5.11 g/m*3 2 C 3.2 km/h
1953 02-03-2014 23:40:00 2 C 5.11 g/m*3 2 C 3.2 km/h
1954 02-03-2014 23:45:00 2 C 5.11 g/m*3 2 C 3.2 km/h
1955 02-03-2014 23:50:00 2 C 5.11 g/m*3 2 C 4.8 km/h
1956 02-03-2014 23:55:00 2.1 C 5.2 g/m*3 2.1 C 3.2 km/h

Legende:
   Min
   Max


Maximal/Minimal-Werte vom 24.02.2014 - 02.03.2014

Sensor Min Max Avg
Temp
(Aussen-T/F)
-0.6 °C
24-02-2014  07:00:00
14.3 °C
24-02-2014  15:40:00
6.01 °C
Abs-Feuchte
(Aussen-T/F)
4.46 g/m*3
24-02-2014  07:00:00
7.36 g/m*3
26-02-2014  10:35:00
6.11 g/m*3
Windchill
(Aussen-T/F)
-2.89 C
24-02-2014  08:15:00
14.3 C
24-02-2014  15:40:00
5.74 C

Die Daten stammen von einer Davis Vantage Pro 2 Wetter-Station und werden unter Linux mit der Software wview2wettercgi und aufbereitet. Alle Angaben erfolgen ohne Gewähr für ihre Vollständigkeit oder Richtigkeit.
Kontakt: Rainer Krienke krienke@uni-koblenz.de . Meine Webseiten an der Uni Koblenz oder privat.
Version: $Revision: 0.78 $